Darstellungsparameter: Aktuell verwendete Einstellungen:
Skalierung der Graphiken ... ?
xyx+y,   Skalierungsfaktor:      Skalierung: Modus: x, Faktor: 1
Darstellungszeitraum ... ?
Vom - - bis: - -   Zeitraum: 17.03.2016 - 23.03.2016
Min/Max/Avg-Anzeige ... ?
Zeige MMA aktuell
Zeige MMA Monat
Zeige MMA alles
Zeige --A aktuell
Zeige --A Monat
Zeige --A alles
Keine MMA-Anzeige
MMA:
Minimum Maximum Average (ber die Originaldaten)
MMA-Basis: 14.04.2020 - 16.05.2020
Quicknavigation für Darstellung... ?
Tage:      1T, 2T, 3T, 5T -1T -2T -3T -5T +1T +2T +3T +5T
Wochen: 1W, 2W, 3W -1W -2W -3W +1W +2W +3W
Monate: 1M, 3M, 6M -1M -3M -6M +1M +3M +6M
Jahre:    1J, 3J, 5J, 10J -1J -3J -5J -10J +1J +3J +5J +10J
Nutze für die Darstellung ... ?
Originaldaten oder Mittelwerte auf ...
Stundenbasis Tagesbasis Wochenbasis
Monatsbasis Jahresbasis      Datenbasis: Original-Daten
Darstellen als:
Statistik (Auto) Statistik J:M      Darstellung:
Zur Graphik,    zurück zur Übersicht aller Sensoren.
 
Tabellarische Datenbersicht: ?
 
Sensor: Nr:Datum:Temp:Abs-Feuchte:Windchill:Wind:
Aussen-T/F 1 17-03-2016 00:00:00 1.9 C 4.53 g/m*3 1.9 C 4.8 km/h
2 17-03-2016 00:05:00 1.8 C 4.49 g/m*3 1.8 C 4.8 km/h
3 17-03-2016 00:10:00 1.8 C 4.49 g/m*3 1.8 C 4.8 km/h
4 17-03-2016 00:15:00 1.8 C 4.55 g/m*3 1.8 C 4.8 km/h
5 17-03-2016 00:20:00 1.7 C 4.52 g/m*3 1.7 C 4.8 km/h
6 17-03-2016 00:25:00 1.7 C 4.52 g/m*3 1.7 C 1.6 km/h
7 17-03-2016 00:30:00 1.6 C 4.49 g/m*3 1.6 C 1.6 km/h
8 17-03-2016 00:35:00 1.4 C 4.48 g/m*3 1.4 C 4.8 km/h
9 17-03-2016 00:40:00 1.4 C 4.48 g/m*3 1.4 C 4.8 km/h
10 17-03-2016 00:45:00 1.3 C 4.45 g/m*3 1.3 C 3.2 km/h
11 17-03-2016 00:50:00 1.3 C 4.5 g/m*3 1.3 C 1.6 km/h
12 17-03-2016 00:55:00 1.2 C 4.47 g/m*3 1.2 C 1.6 km/h
13 17-03-2016 01:00:00 1.2 C 4.47 g/m*3 1.2 C 4.8 km/h
14 17-03-2016 01:05:00 1.2 C 4.47 g/m*3 1.2 C 0 km/h
15 17-03-2016 01:10:00 1 C 4.41 g/m*3 1 C 0 km/h
16 17-03-2016 01:15:00 0.8 C 4.4 g/m*3 0.8 C 0 km/h
17 17-03-2016 01:20:00 0.7 C 4.37 g/m*3 0.7 C 0 km/h
18 17-03-2016 01:25:00 0.7 C 4.37 g/m*3 0.7 C 3.2 km/h
19 17-03-2016 01:30:00 0.6 C 4.34 g/m*3 0.6 C 0 km/h
20 17-03-2016 01:35:00 0.4 C 4.33 g/m*3 0.4 C 0 km/h
21 17-03-2016 01:40:00 0.4 C 4.33 g/m*3 0.4 C 0 km/h
22 17-03-2016 01:45:00 0.3 C 4.3 g/m*3 0.3 C 0 km/h
23 17-03-2016 01:50:00 0.3 C 4.3 g/m*3 0.3 C 0 km/h
24 17-03-2016 01:55:00 0.2 C 4.27 g/m*3 0.2 C 0 km/h
25 17-03-2016 02:00:00 0.2 C 4.32 g/m*3 0.2 C 1.6 km/h
Sensor: Nr:Datum:Temp:Abs-Feuchte:Windchill:Wind:
Aussen-T/F 26 17-03-2016 02:05:00 0.2 C 4.32 g/m*3 0.2 C 3.2 km/h
27 17-03-2016 02:10:00 0.3 C 4.4 g/m*3 0.3 C 3.2 km/h
28 17-03-2016 02:15:00 0.3 C 4.35 g/m*3 0.3 C 0 km/h
29 17-03-2016 02:20:00 0.2 C 4.32 g/m*3 0.2 C 4.8 km/h
30 17-03-2016 02:25:00 0.2 C 4.37 g/m*3 0.2 C 4.8 km/h
31 17-03-2016 02:30:00 0.3 C 4.4 g/m*3 0.3 C 0 km/h
32 17-03-2016 02:35:00 0.2 C 4.32 g/m*3 0.2 C 0 km/h
33 17-03-2016 02:40:00 0.1 C 4.29 g/m*3 0.1 C 0 km/h
34 17-03-2016 02:45:00 0 C 4.26 g/m*3 0 C 0 km/h
35 17-03-2016 02:50:00 -0.1 C 4.23 g/m*3 -0.1 C 0 km/h
36 17-03-2016 02:55:00 -0.2 C 4.21 g/m*3 -0.2 C 0 km/h
37 17-03-2016 03:00:00 -0.3 C 4.18 g/m*3 -0.3 C 0 km/h
38 17-03-2016 03:05:00 -0.3 C 4.22 g/m*3 -0.3 C 0 km/h
39 17-03-2016 03:10:00 -0.5 C 4.17 g/m*3 -0.5 C 0 km/h
40 17-03-2016 03:15:00 -0.6 C 4.14 g/m*3 -0.6 C 0 km/h
41 17-03-2016 03:20:00 -0.6 C 4.18 g/m*3 -0.6 C 0 km/h
42 17-03-2016 03:25:00 -0.6 C 4.18 g/m*3 -0.6 C 0 km/h
43 17-03-2016 03:30:00 -0.5 C 4.26 g/m*3 -0.5 C 0 km/h
44 17-03-2016 03:35:00 -0.6 C 4.18 g/m*3 -0.6 C 0 km/h
45 17-03-2016 03:40:00 -0.6 C 4.18 g/m*3 -0.6 C 0 km/h
46 17-03-2016 03:45:00 -0.7 C 4.15 g/m*3 -0.7 C 0 km/h
47 17-03-2016 03:50:00 -0.8 C 4.13 g/m*3 -0.8 C 0 km/h
48 17-03-2016 03:55:00 -0.9 C 4.1 g/m*3 -0.9 C 0 km/h
49 17-03-2016 04:00:00 -1.1 C 4.04 g/m*3 -1.1 C 0 km/h
50 17-03-2016 04:05:00 -1.1 C 4.04 g/m*3 -1.1 C 0 km/h
Sensor: Nr:Datum:Temp:Abs-Feuchte:Windchill:Wind:
Aussen-T/F 51 17-03-2016 04:10:00 -1.2 C 4.01 g/m*3 -1.2 C 0 km/h
52 17-03-2016 04:15:00 -1.3 C 3.98 g/m*3 -1.3 C 0 km/h
53 17-03-2016 04:20:00 -1.3 C 4.03 g/m*3 -1.3 C 0 km/h
54 17-03-2016 04:25:00 -1.4 C 4 g/m*3 -1.4 C 0 km/h
55 17-03-2016 04:30:00 -1.4 C 4 g/m*3 -1.4 C 0 km/h
56 17-03-2016 04:35:00 -1.3 C 4.03 g/m*3 -1.3 C 0 km/h
57 17-03-2016 04:40:00 -1.4 C 4 g/m*3 -1.4 C 0 km/h
58 17-03-2016 04:45:00 -1.5 C 3.97 g/m*3 -1.5 C 0 km/h
59 17-03-2016 04:50:00 -1.6 C 3.94 g/m*3 -1.6 C 0 km/h
60 17-03-2016 04:55:00 -1.6 C 3.94 g/m*3 -1.6 C 0 km/h
61 17-03-2016 05:00:00 -1.6 C 3.99 g/m*3 -1.6 C 0 km/h
62 17-03-2016 05:05:00 -1.6 C 3.99 g/m*3 -1.6 C 0 km/h
63 17-03-2016 05:10:00 -1.6 C 3.99 g/m*3 -1.6 C 0 km/h
64 17-03-2016 05:15:00 -1.6 C 3.99 g/m*3 -1.6 C 0 km/h
65 17-03-2016 05:20:00 -1.6 C 3.99 g/m*3 -1.6 C 0 km/h
66 17-03-2016 05:25:00 -1.6 C 3.99 g/m*3 -1.6 C 0 km/h
67 17-03-2016 05:30:00 -1.6 C 3.99 g/m*3 -1.6 C 0 km/h
68 17-03-2016 05:35:00 -1.6 C 3.99 g/m*3 -1.6 C 0 km/h
69 17-03-2016 05:40:00 -1.7 C 3.96 g/m*3 -1.7 C 0 km/h
70 17-03-2016 05:45:00 -1.7 C 3.96 g/m*3 -1.7 C 0 km/h
71 17-03-2016 05:50:00 -1.7 C 3.96 g/m*3 -1.7 C 0 km/h
72 17-03-2016 05:55:00 -1.7 C 4 g/m*3 -1.7 C 0 km/h
73 17-03-2016 06:00:00 -1.7 C 4 g/m*3 -1.7 C 0 km/h
74 17-03-2016 06:05:00 -1.8 C 3.93 g/m*3 -1.8 C 0 km/h
75 17-03-2016 06:10:00 -1.8 C 3.93 g/m*3 -1.8 C 0 km/h
Sensor: Nr:Datum:Temp:Abs-Feuchte:Windchill:Wind:
Aussen-T/F 76 17-03-2016 06:15:00 -1.9 C 3.91 g/m*3 -1.9 C 0 km/h
77 17-03-2016 06:20:00 -1.9 C 3.91 g/m*3 -1.9 C 0 km/h
78 17-03-2016 06:25:00 -1.9 C 3.95 g/m*3 -1.9 C 0 km/h
79 17-03-2016 06:30:00 -1.9 C 3.95 g/m*3 -1.9 C 0 km/h
80 17-03-2016 06:35:00 -2 C 3.92 g/m*3 -2 C 0 km/h
81 17-03-2016 06:40:00 -1.9 C 3.95 g/m*3 -1.9 C 0 km/h
82 17-03-2016 06:45:00 -1.9 C 3.95 g/m*3 -1.9 C 0 km/h
83 17-03-2016 06:50:00 -1.9 C 3.95 g/m*3 -1.9 C 0 km/h
84 17-03-2016 06:55:00 -2 C 3.92 g/m*3 -2 C 0 km/h
85 17-03-2016 07:00:00 -2 C 3.92 g/m*3 -2 C 0 km/h
86 17-03-2016 07:05:00 -1.9 C 3.95 g/m*3 -1.9 C 0 km/h
87 17-03-2016 07:10:00 -1.9 C 3.95 g/m*3 -1.9 C 0 km/h
88 17-03-2016 07:15:00 -1.9 C 3.95 g/m*3 -1.9 C 0 km/h
89 17-03-2016 07:20:00 -1.9 C 3.95 g/m*3 -1.9 C 0 km/h
90 17-03-2016 07:25:00 -1.9 C 3.95 g/m*3 -1.9 C 0 km/h
91 17-03-2016 07:30:00 -1.8 C 3.98 g/m*3 -1.8 C 0 km/h
92 17-03-2016 07:35:00 -1.8 C 3.98 g/m*3 -1.8 C 0 km/h
93 17-03-2016 07:40:00 -1.8 C 3.98 g/m*3 -1.8 C 0 km/h
94 17-03-2016 07:45:00 -1.8 C 3.98 g/m*3 -1.8 C 0 km/h
95 17-03-2016 07:50:00 -1.8 C 3.98 g/m*3 -1.8 C 0 km/h
96 17-03-2016 07:55:00 -1.8 C 3.98 g/m*3 -1.8 C 0 km/h
97 17-03-2016 08:00:00 -1.8 C 3.98 g/m*3 -1.8 C 0 km/h
98 17-03-2016 08:05:00 -1.8 C 4.02 g/m*3 -1.8 C 0 km/h
99 17-03-2016 08:10:00 -1.7 C 4.05 g/m*3 -1.7 C 0 km/h
100 17-03-2016 08:15:00 -1.7 C 4.05 g/m*3 -1.7 C 0 km/h
Sensor: Nr:Datum:Temp:Abs-Feuchte:Windchill:Wind:
Aussen-T/F 101 17-03-2016 08:20:00 -1.7 C 4.05 g/m*3 -1.7 C 0 km/h
102 17-03-2016 08:25:00 -1.7 C 4.05 g/m*3 -1.7 C 0 km/h
103 17-03-2016 08:30:00 -1.6 C 4.07 g/m*3 -1.6 C 0 km/h
104 17-03-2016 08:35:00 -1.6 C 4.07 g/m*3 -1.6 C 0 km/h
105 17-03-2016 08:40:00 -1.6 C 4.07 g/m*3 -1.6 C 0 km/h
106 17-03-2016 08:45:00 -1.4 C 4.13 g/m*3 -1.4 C 0 km/h
107 17-03-2016 08:50:00 -1.3 C 4.16 g/m*3 -1.3 C 0 km/h
108 17-03-2016 08:55:00 -1.2 C 4.19 g/m*3 -1.2 C 0 km/h
109 17-03-2016 09:00:00 -1 C 4.25 g/m*3 -1 C 0 km/h
110 17-03-2016 09:05:00 -0.9 C 4.28 g/m*3 -0.9 C 0 km/h
111 17-03-2016 09:10:00 -0.8 C 4.31 g/m*3 -0.8 C 0 km/h
112 17-03-2016 09:15:00 -0.6 C 4.42 g/m*3 -0.6 C 0 km/h
113 17-03-2016 09:20:00 -0.4 C 4.43 g/m*3 -0.4 C 1.6 km/h
114 17-03-2016 09:25:00 -0.2 C 4.49 g/m*3 -0.2 C 1.6 km/h
115 17-03-2016 09:30:00 -0.1 C 4.52 g/m*3 -0.1 C 0 km/h
116 17-03-2016 09:35:00 0.1 C 4.59 g/m*3 0.1 C 0 km/h
117 17-03-2016 09:40:00 0.2 C 4.62 g/m*3 0.2 C 1.6 km/h
118 17-03-2016 09:45:00 0.4 C 4.68 g/m*3 0.4 C 1.6 km/h
119 17-03-2016 09:50:00 0.6 C 4.75 g/m*3 0.6 C 3.2 km/h
120 17-03-2016 09:55:00 0.8 C 4.81 g/m*3 0.8 C 0 km/h
121 17-03-2016 10:00:00 1.2 C 4.95 g/m*3 1.2 C 1.6 km/h
122 17-03-2016 10:05:00 1.4 C 4.96 g/m*3 1.4 C 0 km/h
123 17-03-2016 10:10:00 1.8 C 5.1 g/m*3 1.8 C 0 km/h
124 17-03-2016 10:15:00 2.1 C 5.15 g/m*3 2.1 C 0 km/h
125 17-03-2016 10:20:00 2.4 C 5.2 g/m*3 2.4 C 0 km/h
Sensor: Nr:Datum:Temp:Abs-Feuchte:Windchill:Wind:
Aussen-T/F 126 17-03-2016 10:25:00 2.8 C 5.28 g/m*3 2.8 C 0 km/h
127 17-03-2016 10:30:00 3.1 C 5.33 g/m*3 3.1 C 1.6 km/h
128 17-03-2016 10:35:00 3.3 C 5.28 g/m*3 3.3 C 1.6 km/h
129 17-03-2016 10:40:00 3.6 C 5.39 g/m*3 3.6 C 3.2 km/h
130 17-03-2016 10:45:00 3.9 C 5.37 g/m*3 3.9 C 1.6 km/h
131 17-03-2016 10:50:00 4.2 C 5.48 g/m*3 4.2 C 0 km/h
132 17-03-2016 10:55:00 4.5 C 5.39 g/m*3 4.5 C 1.6 km/h
133 17-03-2016 11:00:00 4.8 C 5.43 g/m*3 4.8 C 0 km/h
134 17-03-2016 11:05:00 5.1 C 5.47 g/m*3 5.1 C 1.6 km/h
135 17-03-2016 11:10:00 5.3 C 5.48 g/m*3 5.3 C 1.6 km/h
136 17-03-2016 11:15:00 5.7 C 5.48 g/m*3 5.7 C 3.2 km/h
137 17-03-2016 11:20:00 6.1 C 5.48 g/m*3 6.1 C 1.6 km/h
138 17-03-2016 11:25:00 6.4 C 5.44 g/m*3 6.4 C 1.6 km/h
139 17-03-2016 11:30:00 6.7 C 5.39 g/m*3 6.7 C 0 km/h
140 17-03-2016 11:35:00 6.9 C 5.47 g/m*3 6.9 C 4.8 km/h
141 17-03-2016 11:40:00 7.1 C 5.38 g/m*3 6.02 C 6.4 km/h
142 17-03-2016 11:45:00 7.3 C 5.45 g/m*3 7.3 C 1.6 km/h
143 17-03-2016 11:50:00 7.6 C 5.4 g/m*3 7.6 C 4.8 km/h
144 17-03-2016 11:55:00 7.7 C 5.35 g/m*3 7.7 C 3.2 km/h
145 17-03-2016 12:00:00 7.8 C 5.39 g/m*3 7.8 C 4.8 km/h
146 17-03-2016 12:05:00 8 C 5.46 g/m*3 8 C 4.8 km/h
147 17-03-2016 12:10:00 8.2 C 5.44 g/m*3 7.29 C 6.4 km/h
148 17-03-2016 12:15:00 8.4 C 5.43 g/m*3 6.49 C 11.3 km/h
149 17-03-2016 12:20:00 8.6 C 5.41 g/m*3 8.6 C 4.8 km/h
150 17-03-2016 12:25:00 8.7 C 5.36 g/m*3 7.46 C 8.1 km/h
Sensor: Nr:Datum:Temp:Abs-Feuchte:Windchill:Wind:
Aussen-T/F 151 17-03-2016 12:30:00 8.8 C 5.4 g/m*3 6.97 C 11.3 km/h
152 17-03-2016 12:35:00 9 C 5.47 g/m*3 8.21 C 6.4 km/h
153 17-03-2016 12:40:00 9.2 C 5.36 g/m*3 7.46 C 11.3 km/h
154 17-03-2016 12:45:00 9.3 C 5.3 g/m*3 7.58 C 11.3 km/h
155 17-03-2016 12:50:00 9.3 C 5.39 g/m*3 8.16 C 8.1 km/h
156 17-03-2016 12:55:00 9.4 C 5.43 g/m*3 8.68 C 6.4 km/h
157 17-03-2016 13:00:00 9.6 C 5.22 g/m*3 8.21 C 9.7 km/h
158 17-03-2016 13:05:00 9.8 C 5.29 g/m*3 9.14 C 6.4 km/h
159 17-03-2016 13:10:00 10 C 5.36 g/m*3 8.19 C 12.9 km/h
160 17-03-2016 13:15:00 10.1 C 5.2 g/m*3 8.54 C 11.3 km/h
161 17-03-2016 13:20:00 10.2 C 5.33 g/m*3 8.92 C 9.7 km/h
162 17-03-2016 13:25:00 10.4 C 5.2 g/m*3 9.16 C 9.7 km/h
163 17-03-2016 13:30:00 10.6 C 5.27 g/m*3 9.14 C 11.3 km/h
164 17-03-2016 13:35:00 10.7 C 5.4 g/m*3 9.04 C 12.9 km/h
165 17-03-2016 13:40:00 10.8 C 5.34 g/m*3 9.64 C 9.7 km/h
166 17-03-2016 13:45:00 10.9 C 5.37 g/m*3 9.76 C 9.7 km/h
167 17-03-2016 13:50:00 11.1 C 5.24 g/m*3 11.1 C 9.7 km/h
168 17-03-2016 13:55:00 11.2 C 5.27 g/m*3 11.2 C 4.8 km/h
169 17-03-2016 14:00:00 11.4 C 5.23 g/m*3 11.4 C 6.4 km/h
170 17-03-2016 14:05:00 11.5 C 5.37 g/m*3 11.5 C 6.4 km/h
171 17-03-2016 14:10:00 11.6 C 5.3 g/m*3 11.6 C 9.7 km/h
172 17-03-2016 14:15:00 11.7 C 5.23 g/m*3 11.7 C 16.1 km/h
173 17-03-2016 14:20:00 11.7 C 5.23 g/m*3 11.7 C 6.4 km/h
174 17-03-2016 14:25:00 11.7 C 5.23 g/m*3 11.7 C 8.1 km/h
175 17-03-2016 14:30:00 11.7 C 5.12 g/m*3 11.7 C 8.1 km/h
Sensor: Nr:Datum:Temp:Abs-Feuchte:Windchill:Wind:
Aussen-T/F 176 17-03-2016 14:35:00 11.8 C 5.05 g/m*3 11.8 C 6.4 km/h
177 17-03-2016 14:40:00 11.8 C 5.37 g/m*3 11.8 C 3.2 km/h
178 17-03-2016 14:45:00 11.9 C 5.19 g/m*3 11.9 C 9.7 km/h
179 17-03-2016 14:50:00 12 C 5.22 g/m*3 12 C 6.4 km/h
180 17-03-2016 14:55:00 12.1 C 5.15 g/m*3 12.1 C 9.7 km/h
181 17-03-2016 15:00:00 12.1 C 5.25 g/m*3 12.1 C 6.4 km/h
182 17-03-2016 15:05:00 12.2 C 5.18 g/m*3 12.2 C 6.4 km/h
183 17-03-2016 15:10:00 12.3 C 4.99 g/m*3 12.3 C 12.9 km/h
184 17-03-2016 15:15:00 12.4 C 5.03 g/m*3 12.4 C 11.3 km/h
185 17-03-2016 15:20:00 12.4 C 5.03 g/m*3 12.4 C 12.9 km/h
186 17-03-2016 15:25:00 12.5 C 4.95 g/m*3 12.5 C 11.3 km/h
187 17-03-2016 15:30:00 12.6 C 4.98 g/m*3 12.6 C 11.3 km/h
188 17-03-2016 15:35:00 12.7 C 5.01 g/m*3 12.7 C 9.7 km/h
189 17-03-2016 15:40:00 12.7 C 5.01 g/m*3 12.7 C 9.7 km/h
190 17-03-2016 15:45:00 12.8 C 4.93 g/m*3 12.8 C 14.5 km/h
191 17-03-2016 15:50:00 12.8 C 4.93 g/m*3 12.8 C 9.7 km/h
192 17-03-2016 15:55:00 12.8 C 4.7 g/m*3 12.8 C 11.3 km/h
193 17-03-2016 16:00:00 12.8 C 4.82 g/m*3 12.8 C 8.1 km/h
194 17-03-2016 16:05:00 12.9 C 4.85 g/m*3 12.9 C 9.7 km/h
195 17-03-2016 16:10:00 12.9 C 4.85 g/m*3 12.9 C 11.3 km/h
196 17-03-2016 16:15:00 13.1 C 4.91 g/m*3 13.1 C 9.7 km/h
197 17-03-2016 16:20:00 13.1 C 4.68 g/m*3 13.1 C 9.7 km/h
198 17-03-2016 16:25:00 13.2 C 5.05 g/m*3 13.2 C 6.4 km/h
199 17-03-2016 16:30:00 13.4 C 4.77 g/m*3 13.4 C 6.4 km/h
200 17-03-2016 16:35:00 13.6 C 4.83 g/m*3 13.6 C 8.1 km/h
Sensor: Nr:Datum:Temp:Abs-Feuchte:Windchill:Wind:
Aussen-T/F 201 17-03-2016 16:40:00 13.7 C 4.74 g/m*3 13.7 C 6.4 km/h
202 17-03-2016 16:45:00 13.9 C 4.8 g/m*3 13.9 C 4.8 km/h
203 17-03-2016 16:50:00 14.1 C 4.61 g/m*3 14.1 C 6.4 km/h
204 17-03-2016 16:55:00 14 C 4.7 g/m*3 14 C 8.1 km/h
205 17-03-2016 17:00:00 14.1 C 4.98 g/m*3 14.1 C 6.4 km/h
206 17-03-2016 17:05:00 14 C 4.82 g/m*3 14 C 9.7 km/h
207 17-03-2016 17:10:00 13.9 C 4.8 g/m*3 13.9 C 8.1 km/h
208 17-03-2016 17:15:00 13.7 C 4.74 g/m*3 13.7 C 8.1 km/h
209 17-03-2016 17:20:00 13.7 C 4.86 g/m*3 13.7 C 6.4 km/h
210 17-03-2016 17:25:00 13.8 C 5.12 g/m*3 13.8 C 4.8 km/h
211 17-03-2016 17:30:00 14.1 C 5.22 g/m*3 14.1 C 1.6 km/h
212 17-03-2016 17:35:00 14.3 C 5.16 g/m*3 14.3 C 3.2 km/h
213 17-03-2016 17:40:00 14.4 C 5.56 g/m*3 14.4 C 3.2 km/h
214 17-03-2016 17:45:00 14.4 C 5.32 g/m*3 14.4 C 3.2 km/h
215 17-03-2016 17:50:00 14.3 C 5.28 g/m*3 14.3 C 3.2 km/h
216 17-03-2016 17:55:00 13.8 C 5.36 g/m*3 13.8 C 3.2 km/h
217 17-03-2016 18:00:00 13.3 C 5.43 g/m*3 13.3 C 3.2 km/h
218 17-03-2016 18:05:00 12.6 C 5.64 g/m*3 12.6 C 4.8 km/h
219 17-03-2016 18:10:00 11.8 C 5.58 g/m*3 11.8 C 4.8 km/h
220 17-03-2016 18:15:00 11 C 5.61 g/m*3 11 C 4.8 km/h
221 17-03-2016 18:20:00 10.3 C 5.46 g/m*3 10.3 C 4.8 km/h
222 17-03-2016 18:25:00 9.8 C 5.47 g/m*3 9.8 C 4.8 km/h
223 17-03-2016 18:30:00 9.3 C 5.39 g/m*3 8.56 C 6.4 km/h
224 17-03-2016 18:35:00 8.9 C 5.43 g/m*3 8.1 C 6.4 km/h
225 17-03-2016 18:40:00 8.5 C 5.38 g/m*3 7.64 C 6.4 km/h
Sensor: Nr:Datum:Temp:Abs-Feuchte:Windchill:Wind:
Aussen-T/F 226 17-03-2016 18:45:00 8.2 C 5.36 g/m*3 7.29 C 6.4 km/h
227 17-03-2016 18:50:00 8 C 5.37 g/m*3 7.06 C 6.4 km/h
228 17-03-2016 18:55:00 7.9 C 5.42 g/m*3 7.9 C 4.8 km/h
229 17-03-2016 19:00:00 7.8 C 5.39 g/m*3 7.8 C 4.8 km/h
230 17-03-2016 19:05:00 7.7 C 5.35 g/m*3 6.71 C 6.4 km/h
231 17-03-2016 19:10:00 7.7 C 5.43 g/m*3 6.71 C 6.4 km/h
232 17-03-2016 19:15:00 7.6 C 5.4 g/m*3 6.6 C 6.4 km/h
233 17-03-2016 19:20:00 7.4 C 5.49 g/m*3 6.37 C 6.4 km/h
234 17-03-2016 19:25:00 7.2 C 5.49 g/m*3 6.13 C 6.4 km/h
235 17-03-2016 19:30:00 7.1 C 5.46 g/m*3 6.02 C 6.4 km/h
236 17-03-2016 19:35:00 6.9 C 5.39 g/m*3 6.9 C 4.8 km/h
237 17-03-2016 19:40:00 6.9 C 5.47 g/m*3 6.9 C 4.8 km/h
238 17-03-2016 19:45:00 6.9 C 5.47 g/m*3 6.9 C 4.8 km/h
239 17-03-2016 19:50:00 6.8 C 5.51 g/m*3 5.67 C 6.4 km/h
240 17-03-2016 19:55:00 6.8 C 5.51 g/m*3 6.8 C 4.8 km/h
241 17-03-2016 20:00:00 6.7 C 5.47 g/m*3 5.56 C 6.4 km/h
242 17-03-2016 20:05:00 6.7 C 5.47 g/m*3 5.56 C 6.4 km/h
243 17-03-2016 20:10:00 6.8 C 5.51 g/m*3 5.67 C 6.4 km/h
244 17-03-2016 20:15:00 6.8 C 5.51 g/m*3 6.8 C 4.8 km/h
245 17-03-2016 20:20:00 6.9 C 5.39 g/m*3 6.9 C 3.2 km/h
246 17-03-2016 20:25:00 7 C 5.35 g/m*3 7 C 3.2 km/h
247 17-03-2016 20:30:00 6.9 C 5.39 g/m*3 6.9 C 4.8 km/h
248 17-03-2016 20:35:00 6.8 C 5.43 g/m*3 6.8 C 1.6 km/h
249 17-03-2016 20:40:00 6.7 C 5.32 g/m*3 6.7 C 3.2 km/h
250 17-03-2016 20:45:00 6.7 C 5.47 g/m*3 6.7 C 1.6 km/h
Sensor: Nr:Datum:Temp:Abs-Feuchte:Windchill:Wind:
Aussen-T/F 251 17-03-2016 20:50:00 6.6 C 5.44 g/m*3 6.6 C 4.8 km/h
252 17-03-2016 20:55:00 6.4 C 5.44 g/m*3 6.4 C 4.8 km/h
253 17-03-2016 21:00:00 6.3 C 5.4 g/m*3 6.3 C 4.8 km/h
254 17-03-2016 21:05:00 6.1 C 5.41 g/m*3 4.86 C 6.4 km/h
255 17-03-2016 21:10:00 6 C 5.37 g/m*3 4.75 C 6.4 km/h
256 17-03-2016 21:15:00 5.8 C 5.37 g/m*3 4.52 C 6.4 km/h
257 17-03-2016 21:20:00 5.7 C 5.34 g/m*3 5.7 C 4.8 km/h
258 17-03-2016 21:25:00 5.6 C 5.44 g/m*3 5.6 C 3.2 km/h
259 17-03-2016 21:30:00 5.4 C 5.37 g/m*3 5.4 C 4.8 km/h
260 17-03-2016 21:35:00 5.5 C 5.41 g/m*3 4.17 C 6.4 km/h
261 17-03-2016 21:40:00 5.6 C 5.37 g/m*3 5.6 C 4.8 km/h
262 17-03-2016 21:45:00 5.5 C 5.34 g/m*3 5.5 C 4.8 km/h
263 17-03-2016 21:50:00 5.4 C 5.37 g/m*3 5.4 C 0 km/h
264 17-03-2016 21:55:00 5.2 C 5.3 g/m*3 5.2 C 1.6 km/h
265 17-03-2016 22:00:00 5.1 C 5.4 g/m*3 5.1 C 3.2 km/h
266 17-03-2016 22:05:00 5 C 5.3 g/m*3 5 C 1.6 km/h
267 17-03-2016 22:10:00 4.8 C 5.23 g/m*3 4.8 C 1.6 km/h
268 17-03-2016 22:15:00 4.7 C 5.26 g/m*3 4.7 C 0 km/h
269 17-03-2016 22:20:00 4.6 C 5.23 g/m*3 4.6 C 0 km/h
270 17-03-2016 22:25:00 4.4 C 5.29 g/m*3 4.4 C 0 km/h
271 17-03-2016 22:30:00 4.3 C 5.25 g/m*3 4.3 C 0 km/h
272 17-03-2016 22:35:00 4.2 C 5.15 g/m*3 4.2 C 0 km/h
273 17-03-2016 22:40:00 3.9 C 5.12 g/m*3 3.9 C 0 km/h
274 17-03-2016 22:45:00 3.7 C 5.05 g/m*3 3.7 C 0 km/h
275 17-03-2016 22:50:00 3.4 C 4.95 g/m*3 3.4 C 0 km/h
Sensor: Nr:Datum:Temp:Abs-Feuchte:Windchill:Wind:
Aussen-T/F 276 17-03-2016 22:55:00 3.2 C 4.88 g/m*3 3.2 C 0 km/h
277 17-03-2016 23:00:00 3.1 C 4.97 g/m*3 3.1 C 0 km/h
278 17-03-2016 23:05:00 2.9 C 4.9 g/m*3 2.9 C 0 km/h
279 17-03-2016 23:10:00 2.7 C 4.84 g/m*3 2.7 C 0 km/h
280 17-03-2016 23:15:00 2.6 C 4.86 g/m*3 2.6 C 0 km/h
281 17-03-2016 23:20:00 2.4 C 4.85 g/m*3 2.4 C 0 km/h
282 17-03-2016 23:25:00 2.3 C 4.82 g/m*3 2.3 C 0 km/h
283 17-03-2016 23:30:00 2.1 C 4.76 g/m*3 2.1 C 0 km/h
284 17-03-2016 23:35:00 2.1 C 4.81 g/m*3 2.1 C 0 km/h
285 17-03-2016 23:40:00 2.1 C 4.87 g/m*3 2.1 C 0 km/h
286 17-03-2016 23:45:00 2.1 C 4.81 g/m*3 2.1 C 0 km/h
287 17-03-2016 23:50:00 2 C 4.78 g/m*3 2 C 0 km/h
288 17-03-2016 23:55:00 1.9 C 4.75 g/m*3 1.9 C 0 km/h
289 18-03-2016 00:00:00 1.8 C 4.71 g/m*3 1.8 C 0 km/h
290 18-03-2016 00:05:00 1.8 C 4.77 g/m*3 1.8 C 0 km/h
291 18-03-2016 00:10:00 1.7 C 4.74 g/m*3 1.7 C 0 km/h
292 18-03-2016 00:15:00 1.6 C 4.7 g/m*3 1.6 C 0 km/h
293 18-03-2016 00:20:00 1.6 C 4.7 g/m*3 1.6 C 0 km/h
294 18-03-2016 00:25:00 1.4 C 4.69 g/m*3 1.4 C 0 km/h
295 18-03-2016 00:30:00 1.4 C 4.69 g/m*3 1.4 C 0 km/h
296 18-03-2016 00:35:00 1.4 C 4.69 g/m*3 1.4 C 0 km/h
297 18-03-2016 00:40:00 1.3 C 4.66 g/m*3 1.3 C 0 km/h
298 18-03-2016 00:45:00 1.3 C 4.72 g/m*3 1.3 C 0 km/h
299 18-03-2016 00:50:00 1.3 C 4.72 g/m*3 1.3 C 0 km/h
300 18-03-2016 00:55:00 1.3 C 4.66 g/m*3 1.3 C 0 km/h
Sensor: Nr:Datum:Temp:Abs-Feuchte:Windchill:Wind:
Aussen-T/F 301 18-03-2016 01:00:00 1.2 C 4.68 g/m*3 1.2 C 0 km/h
302 18-03-2016 01:05:00 1.3 C 4.72 g/m*3 1.3 C 0 km/h
303 18-03-2016 01:10:00 1.3 C 4.72 g/m*3 1.3 C 0 km/h
304 18-03-2016 01:15:00 1.2 C 4.63 g/m*3 1.2 C 0 km/h
305 18-03-2016 01:20:00 1.2 C 4.63 g/m*3 1.2 C 0 km/h
306 18-03-2016 01:25:00 1.1 C 4.6 g/m*3 1.1 C 0 km/h
307 18-03-2016 01:30:00 0.8 C 4.51 g/m*3 0.8 C 0 km/h
308 18-03-2016 01:35:00 0.8 C 4.56 g/m*3 0.8 C 0 km/h
309 18-03-2016 01:40:00 0.9 C 4.64 g/m*3 0.9 C 0 km/h
310 18-03-2016 01:45:00 0.9 C 4.64 g/m*3 0.9 C 0 km/h
311 18-03-2016 01:50:00 1 C 4.67 g/m*3 1 C 1.6 km/h
312 18-03-2016 01:55:00 1 C 4.67 g/m*3 1 C 0 km/h
313 18-03-2016 02:00:00 1 C 4.67 g/m*3 1 C 1.6 km/h
314 18-03-2016 02:05:00 1.1 C 4.65 g/m*3 1.1 C 0 km/h
315 18-03-2016 02:10:00 1 C 4.62 g/m*3 1 C 0 km/h
316 18-03-2016 02:15:00 0.9 C 4.59 g/m*3 0.9 C 0 km/h
317 18-03-2016 02:20:00 0.8 C 4.56 g/m*3 0.8 C 0 km/h
318 18-03-2016 02:25:00 0.8 C 4.56 g/m*3 0.8 C 0 km/h
319 18-03-2016 02:30:00 0.8 C 4.61 g/m*3 0.8 C 1.6 km/h
320 18-03-2016 02:35:00 0.7 C 4.58 g/m*3 0.7 C 0 km/h
321 18-03-2016 02:40:00 0.6 C 4.49 g/m*3 0.6 C 0 km/h
322 18-03-2016 02:45:00 0.3 C 4.4 g/m*3 0.3 C 0 km/h
323 18-03-2016 02:50:00 0.2 C 4.37 g/m*3 0.2 C 0 km/h
324 18-03-2016 02:55:00 0.1 C 4.39 g/m*3 0.1 C 0 km/h
325 18-03-2016 03:00:00 0.2 C 4.47 g/m*3 0.2 C 1.6 km/h
Sensor: Nr:Datum:Temp:Abs-Feuchte:Windchill:Wind:
Aussen-T/F 326 18-03-2016 03:05:00 0.2 C 4.47 g/m*3 0.2 C 0 km/h
327 18-03-2016 03:10:00 0.3 C 4.5 g/m*3 0.3 C 0 km/h
328 18-03-2016 03:15:00 0.2 C 4.47 g/m*3 0.2 C 0 km/h
329 18-03-2016 03:20:00 0.1 C 4.39 g/m*3 0.1 C 0 km/h
330 18-03-2016 03:25:00 0 C 4.41 g/m*3 0 C 0 km/h
331 18-03-2016 03:30:00 -0.1 C 4.33 g/m*3 -0.1 C 0 km/h
332 18-03-2016 03:35:00 -0.1 C 4.38 g/m*3 -0.1 C 0 km/h
333 18-03-2016 03:40:00 -0.2 C 4.35 g/m*3 -0.2 C 0 km/h
334 18-03-2016 03:45:00 -0.3 C 4.32 g/m*3 -0.3 C 0 km/h
335 18-03-2016 03:50:00 -0.3 C 4.32 g/m*3 -0.3 C 0 km/h
336 18-03-2016 03:55:00 -0.3 C 4.37 g/m*3 -0.3 C 0 km/h
337 18-03-2016 04:00:00 -0.3 C 4.37 g/m*3 -0.3 C 0 km/h
338 18-03-2016 04:05:00 -0.3 C 4.37 g/m*3 -0.3 C 0 km/h
339 18-03-2016 04:10:00 -0.3 C 4.37 g/m*3 -0.3 C 0 km/h
340 18-03-2016 04:15:00 -0.4 C 4.34 g/m*3 -0.4 C 0 km/h
341 18-03-2016 04:20:00 -0.3 C 4.37 g/m*3 -0.3 C 0 km/h
342 18-03-2016 04:25:00 -0.3 C 4.37 g/m*3 -0.3 C 0 km/h
343 18-03-2016 04:30:00 -0.4 C 4.34 g/m*3 -0.4 C 0 km/h
344 18-03-2016 04:35:00 -0.6 C 4.28 g/m*3 -0.6 C 0 km/h
345 18-03-2016 04:40:00 -0.6 C 4.28 g/m*3 -0.6 C 1.6 km/h
346 18-03-2016 04:45:00 -0.6 C 4.28 g/m*3 -0.6 C 0 km/h
347 18-03-2016 04:50:00 -0.6 C 4.28 g/m*3 -0.6 C 0 km/h
348 18-03-2016 04:55:00 -0.7 C 4.25 g/m*3 -0.7 C 0 km/h
349 18-03-2016 05:00:00 -0.7 C 4.29 g/m*3 -0.7 C 0 km/h
350 18-03-2016 05:05:00 -0.7 C 4.29 g/m*3 -0.7 C 0 km/h
Sensor: Nr:Datum:Temp:Abs-Feuchte:Windchill:Wind:
Aussen-T/F 351 18-03-2016 05:10:00 -0.7 C 4.29 g/m*3 -0.7 C 1.6 km/h
352 18-03-2016 05:15:00 -0.7 C 4.29 g/m*3 -0.7 C 0 km/h
353 18-03-2016 05:20:00 -0.6 C 4.32 g/m*3 -0.6 C 0 km/h
354 18-03-2016 05:25:00 -0.6 C 4.32 g/m*3 -0.6 C 0 km/h
355 18-03-2016 05:30:00 -0.7 C 4.29 g/m*3 -0.7 C 0 km/h
356 18-03-2016 05:35:00 -0.8 C 4.26 g/m*3 -0.8 C 0 km/h
357 18-03-2016 05:40:00 -0.9 C 4.19 g/m*3 -0.9 C 0 km/h
358 18-03-2016 05:45:00 -0.9 C 4.19 g/m*3 -0.9 C 0 km/h
359 18-03-2016 05:50:00 -1.1 C 4.17 g/m*3 -1.1 C 0 km/h
360 18-03-2016 05:55:00 -0.9 C 4.23 g/m*3 -0.9 C 0 km/h
361 18-03-2016 06:00:00 -0.9 C 4.23 g/m*3 -0.9 C 1.6 km/h
362 18-03-2016 06:05:00 -0.9 C 4.23 g/m*3 -0.9 C 0 km/h
363 18-03-2016 06:10:00 -1.1 C 4.17 g/m*3 -1.1 C 0 km/h
364 18-03-2016 06:15:00 -1.2 C 4.1 g/m*3 -1.2 C 0 km/h
365 18-03-2016 06:20:00 -1.3 C 4.12 g/m*3 -1.3 C 0 km/h
366 18-03-2016 06:25:00 -1.3 C 4.12 g/m*3 -1.3 C 0 km/h
367 18-03-2016 06:30:00 -1.4 C 4.09 g/m*3 -1.4 C 0 km/h
368 18-03-2016 06:35:00 -1.3 C 4.12 g/m*3 -1.3 C 0 km/h
369 18-03-2016 06:40:00 -1.3 C 4.12 g/m*3 -1.3 C 0 km/h
370 18-03-2016 06:45:00 -1.3 C 4.12 g/m*3 -1.3 C 0 km/h
371 18-03-2016 06:50:00 -1.3 C 4.12 g/m*3 -1.3 C 0 km/h
372 18-03-2016 06:55:00 -1.3 C 4.16 g/m*3 -1.3 C 0 km/h
373 18-03-2016 07:00:00 -1.2 C 4.19 g/m*3 -1.2 C 0 km/h
374 18-03-2016 07:05:00 -1.1 C 4.22 g/m*3 -1.1 C 0 km/h
375 18-03-2016 07:10:00 -1.1 C 4.22 g/m*3 -1.1 C 3.2 km/h
Sensor: Nr:Datum:Temp:Abs-Feuchte:Windchill:Wind:
Aussen-T/F 376 18-03-2016 07:15:00 -1 C 4.25 g/m*3 -1 C 1.6 km/h
377 18-03-2016 07:20:00 -0.9 C 4.28 g/m*3 -0.9 C 0 km/h
378 18-03-2016 07:25:00 -0.9 C 4.28 g/m*3 -0.9 C 0 km/h
379 18-03-2016 07:30:00 -0.9 C 4.28 g/m*3 -0.9 C 0 km/h
380 18-03-2016 07:35:00 -0.9 C 4.28 g/m*3 -0.9 C 0 km/h
381 18-03-2016 07:40:00 -0.9 C 4.28 g/m*3 -0.9 C 0 km/h
382 18-03-2016 07:45:00 -1 C 4.25 g/m*3 -1 C 0 km/h
383 18-03-2016 07:50:00 -1 C 4.25 g/m*3 -1 C 0 km/h
384 18-03-2016 07:55:00 -1 C 4.25 g/m*3 -1 C 0 km/h
385 18-03-2016 08:00:00 -1 C 4.25 g/m*3 -1 C 0 km/h
386 18-03-2016 08:05:00 -0.9 C 4.28 g/m*3 -0.9 C 0 km/h
387 18-03-2016 08:10:00 -0.8 C 4.31 g/m*3 -0.8 C 0 km/h
388 18-03-2016 08:15:00 -0.8 C 4.31 g/m*3 -0.8 C 0 km/h
389 18-03-2016 08:20:00 -0.7 C 4.34 g/m*3 -0.7 C 0 km/h
390 18-03-2016 08:25:00 -0.7 C 4.34 g/m*3 -0.7 C 1.6 km/h
391 18-03-2016 08:30:00 -0.5 C 4.4 g/m*3 -0.5 C 0 km/h
392 18-03-2016 08:35:00 -0.4 C 4.43 g/m*3 -0.4 C 0 km/h
393 18-03-2016 08:40:00 -0.3 C 4.46 g/m*3 -0.3 C 0 km/h
394 18-03-2016 08:45:00 -0.3 C 4.46 g/m*3 -0.3 C 0 km/h
395 18-03-2016 08:50:00 -0.2 C 4.49 g/m*3 -0.2 C 0 km/h
396 18-03-2016 08:55:00 0 C 4.6 g/m*3 0 C 0 km/h
397 18-03-2016 09:00:00 0.2 C 4.62 g/m*3 0.2 C 0 km/h
398 18-03-2016 09:05:00 0.3 C 4.65 g/m*3 0.3 C 0 km/h
399 18-03-2016 09:10:00 0.4 C 4.68 g/m*3 0.4 C 0 km/h
400 18-03-2016 09:15:00 0.4 C 4.68 g/m*3 0.4 C 0 km/h
Sensor: Nr:Datum:Temp:Abs-Feuchte:Windchill:Wind:
Aussen-T/F 401 18-03-2016 09:20:00 0.6 C 4.75 g/m*3 0.6 C 0 km/h
402 18-03-2016 09:25:00 0.7 C 4.78 g/m*3 0.7 C 0 km/h
403 18-03-2016 09:30:00 0.9 C 4.85 g/m*3 0.9 C 3.2 km/h
404 18-03-2016 09:35:00 1.1 C 4.91 g/m*3 1.1 C 0 km/h
405 18-03-2016 09:40:00 1.2 C 4.95 g/m*3 1.2 C 0 km/h
406 18-03-2016 09:45:00 1.4 C 5.01 g/m*3 1.4 C 1.6 km/h
407 18-03-2016 09:50:00 1.7 C 5.12 g/m*3 1.7 C 0 km/h
408 18-03-2016 09:55:00 1.9 C 5.19 g/m*3 1.9 C 0 km/h
409 18-03-2016 10:00:00 2.2 C 5.24 g/m*3 2.2 C 0 km/h
410 18-03-2016 10:05:00 2.4 C 5.25 g/m*3 2.4 C 0 km/h
411 18-03-2016 10:10:00 2.7 C 5.3 g/m*3 2.7 C 0 km/h
412 18-03-2016 10:15:00 2.9 C 5.37 g/m*3 2.9 C 0 km/h
413 18-03-2016 10:20:00 3.2 C 5.42 g/m*3 3.2 C 0 km/h
414 18-03-2016 10:25:00 3.3 C 5.46 g/m*3 3.3 C 0 km/h
415 18-03-2016 10:30:00 3.5 C 5.53 g/m*3 3.5 C 0 km/h
416 18-03-2016 10:35:00 3.7 C 5.55 g/m*3 3.7 C 0 km/h
417 18-03-2016 10:40:00 4 C 5.66 g/m*3 4 C 0 km/h
418 18-03-2016 10:45:00 4.3 C 5.64 g/m*3 4.3 C 0 km/h
419 18-03-2016 10:50:00 4.6 C 5.76 g/m*3 4.6 C 0 km/h
420 18-03-2016 10:55:00 4.9 C 5.81 g/m*3 4.9 C 1.6 km/h
421 18-03-2016 11:00:00 5.3 C 5.82 g/m*3 5.3 C 1.6 km/h
422 18-03-2016 11:05:00 5.7 C 5.84 g/m*3 5.7 C 1.6 km/h
423 18-03-2016 11:10:00 5.9 C 5.91 g/m*3 5.9 C 1.6 km/h
424 18-03-2016 11:15:00 6.3 C 5.92 g/m*3 6.3 C 1.6 km/h
425 18-03-2016 11:20:00 6.6 C 6.04 g/m*3 6.6 C 1.6 km/h
Sensor: Nr:Datum:Temp:Abs-Feuchte:Windchill:Wind:
Aussen-T/F 426 18-03-2016 11:25:00 6.8 C 5.97 g/m*3 6.8 C 1.6 km/h
427 18-03-2016 11:30:00 7.1 C 6.08 g/m*3 7.1 C 0 km/h
428 18-03-2016 11:35:00 7.3 C 6.08 g/m*3 7.3 C 4.8 km/h
429 18-03-2016 11:40:00 7.6 C 6.04 g/m*3 6.6 C 6.4 km/h
430 18-03-2016 11:45:00 7.8 C 6.04 g/m*3 6.83 C 6.4 km/h
431 18-03-2016 11:50:00 8.1 C 5.99 g/m*3 6.75 C 8.1 km/h
432 18-03-2016 11:55:00 8.3 C 5.98 g/m*3 5.89 C 14.5 km/h
433 18-03-2016 12:00:00 8.6 C 6.02 g/m*3 6.25 C 14.5 km/h
434 18-03-2016 12:05:00 8.7 C 6.05 g/m*3 8.7 C 4.8 km/h
435 18-03-2016 12:10:00 8.9 C 6.04 g/m*3 7.37 C 9.7 km/h
436 18-03-2016 12:15:00 9.1 C 6.12 g/m*3 8.33 C 6.4 km/h
437 18-03-2016 12:20:00 9.3 C 6.11 g/m*3 7.85 C 9.7 km/h
438 18-03-2016 12:25:00 9.4 C 5.97 g/m*3 8.68 C 6.4 km/h
439 18-03-2016 12:30:00 9.6 C 5.95 g/m*3 8.91 C 6.4 km/h
440 18-03-2016 12:35:00 9.7 C 6.08 g/m*3 8.63 C 8.1 km/h
441 18-03-2016 12:40:00 9.9 C 6.07 g/m*3 8.87 C 8.1 km/h
442 18-03-2016 12:45:00 10.1 C 6.05 g/m*3 9.1 C 8.1 km/h
443 18-03-2016 12:50:00 10.1 C 6.05 g/m*3 10.1 C 4.8 km/h
444 18-03-2016 12:55:00 10.2 C 6 g/m*3 9.22 C 8.1 km/h
445 18-03-2016 13:00:00 10.2 C 5.9 g/m*3 8.92 C 9.7 km/h
446 18-03-2016 13:05:00 10.3 C 6.03 g/m*3 9.72 C 6.4 km/h
447 18-03-2016 13:10:00 10.3 C 5.94 g/m*3 9.72 C 6.4 km/h
448 18-03-2016 13:15:00 10.4 C 5.98 g/m*3 9.46 C 8.1 km/h
449 18-03-2016 13:20:00 10.6 C 6.05 g/m*3 9.4 C 9.7 km/h
450 18-03-2016 13:25:00 10.7 C 5.99 g/m*3 9.04 C 12.9 km/h
Sensor: Nr:Datum:Temp:Abs-Feuchte:Windchill:Wind:
Aussen-T/F 451 18-03-2016 13:30:00 10.8 C 6.03 g/m*3 9.64 C 9.7 km/h
452 18-03-2016 13:35:00 10.9 C 6.07 g/m*3 9.28 C 12.9 km/h
453 18-03-2016 13:40:00 11 C 6.11 g/m*3 9.63 C 11.3 km/h
454 18-03-2016 13:45:00 11.1 C 6.14 g/m*3 11.1 C 12.9 km/h
455 18-03-2016 13:50:00 11.2 C 6.08 g/m*3 11.2 C 11.3 km/h
456 18-03-2016 13:55:00 11.2 C 5.98 g/m*3 11.2 C 11.3 km/h
457 18-03-2016 14:00:00 11.1 C 6.04 g/m*3 11.1 C 16.1 km/h
458 18-03-2016 14:05:00 11.1 C 6.14 g/m*3 11.1 C 14.5 km/h
459 18-03-2016 14:10:00 10.9 C 6.07 g/m*3 9.28 C 12.9 km/h
460 18-03-2016 14:15:00 10.9 C 5.87 g/m*3 9.08 C 14.5 km/h
461 18-03-2016 14:20:00 10.8 C 5.83 g/m*3 8.61 C 17.7 km/h
462 18-03-2016 14:25:00 10.7 C 5.7 g/m*3 8.48 C 17.7 km/h
463 18-03-2016 14:30:00 10.6 C 5.76 g/m*3 8.2 C 19.3 km/h
464 18-03-2016 14:35:00 10.4 C 5.69 g/m*3 7.95 C 19.3 km/h
465 18-03-2016 14:40:00 10.3 C 5.55 g/m*3 8.34 C 14.5 km/h
466 18-03-2016 14:45:00 10.3 C 5.55 g/m*3 7.98 C 17.7 km/h
467 18-03-2016 14:50:00 10.3 C 5.55 g/m*3 8.16 C 16.1 km/h
468 18-03-2016 14:55:00 10.2 C 5.42 g/m*3 7.86 C 17.7 km/h
469 18-03-2016 15:00:00 10.2 C 5.52 g/m*3 7.7 C 19.3 km/h
470 18-03-2016 15:05:00 10.2 C 5.61 g/m*3 7.86 C 17.7 km/h
471 18-03-2016 15:10:00 10.2 C 5.61 g/m*3 8.03 C 16.1 km/h
472 18-03-2016 15:15:00 10.1 C 5.77 g/m*3 7.91 C 16.1 km/h
473 18-03-2016 15:20:00 9.9 C 5.79 g/m*3 7.85 C 14.5 km/h
474 18-03-2016 15:25:00 9.8 C 5.75 g/m*3 7.54 C 16.1 km/h
475 18-03-2016 15:30:00 9.4 C 5.7 g/m*3 7.24 C 14.5 km/h
Sensor: Nr:Datum:Temp:Abs-Feuchte:Windchill:Wind:
Aussen-T/F 476 18-03-2016 15:35:00 9.3 C 5.57 g/m*3 6.92 C 16.1 km/h
477 18-03-2016 15:40:00 9.2 C 5.45 g/m*3 6.99 C 14.5 km/h
478 18-03-2016 15:45:00 9.2 C 5.54 g/m*3 6.99 C 14.5 km/h
479 18-03-2016 15:50:00 9.2 C 5.45 g/m*3 8.45 C 6.4 km/h
480 18-03-2016 15:55:00 9.3 C 5.3 g/m*3 7.12 C 14.5 km/h
481 18-03-2016 16:00:00 9.2 C 5.54 g/m*3 7.46 C 11.3 km/h
482 18-03-2016 16:05:00 9.3 C 5.39 g/m*3 8.16 C 8.1 km/h
483 18-03-2016 16:10:00 9.1 C 5.41 g/m*3 7.09 C 12.9 km/h
484 18-03-2016 16:15:00 8.9 C 5.52 g/m*3 6.62 C 14.5 km/h
485 18-03-2016 16:20:00 8.8 C 5.48 g/m*3 6.5 C 14.5 km/h
486 18-03-2016 16:25:00 8.6 C 5.5 g/m*3 6.48 C 12.9 km/h
487 18-03-2016 16:30:00 8.7 C 5.71 g/m*3 6.85 C 11.3 km/h
488 18-03-2016 16:35:00 8.4 C 5.68 g/m*3 7.52 C 6.4 km/h
489 18-03-2016 16:40:00 8.5 C 5.72 g/m*3 6.9 C 9.7 km/h
490 18-03-2016 16:45:00 8.4 C 5.77 g/m*3 5.8 C 16.1 km/h
491 18-03-2016 16:50:00 8.3 C 5.73 g/m*3 6.37 C 11.3 km/h
492 18-03-2016 16:55:00 8.2 C 5.69 g/m*3 5.76 C 14.5 km/h
493 18-03-2016 17:00:00 8.2 C 5.86 g/m*3 5.76 C 14.5 km/h
494 18-03-2016 17:05:00 8.2 C 5.69 g/m*3 6.25 C 11.3 km/h
495 18-03-2016 17:10:00 7.9 C 5.75 g/m*3 5.18 C 16.1 km/h
496 18-03-2016 17:15:00 7.6 C 5.64 g/m*3 5.26 C 12.9 km/h
497 18-03-2016 17:20:00 7.5 C 5.68 g/m*3 5.41 C 11.3 km/h
498 18-03-2016 17:25:00 7.3 C 5.69 g/m*3 4.66 C 14.5 km/h
499 18-03-2016 17:30:00 7.2 C 5.65 g/m*3 4.31 C 16.1 km/h
500 18-03-2016 17:35:00 6.9 C 5.62 g/m*3 4.41 C 12.9 km/h
Sensor: Nr:Datum:Temp:Abs-Feuchte:Windchill:Wind:
Aussen-T/F 501 18-03-2016 17:40:00 6.7 C 5.55 g/m*3 3.92 C 14.5 km/h
502 18-03-2016 17:45:00 6.4 C 5.44 g/m*3 4.08 C 11.3 km/h
503 18-03-2016 17:50:00 6.2 C 5.44 g/m*3 3.3 C 14.5 km/h
504 18-03-2016 17:55:00 6 C 5.44 g/m*3 2.41 C 19.3 km/h
505 18-03-2016 18:00:00 5.7 C 5.41 g/m*3 2.69 C 14.5 km/h
506 18-03-2016 18:05:00 5.4 C 5.37 g/m*3 2.87 C 11.3 km/h
507 18-03-2016 18:10:00 5.2 C 5.37 g/m*3 2.63 C 11.3 km/h
508 18-03-2016 18:15:00 5.1 C 5.4 g/m*3 3.71 C 6.4 km/h
509 18-03-2016 18:20:00 5 C 5.44 g/m*3 3.11 C 8.1 km/h
510 18-03-2016 18:25:00 4.9 C 5.47 g/m*3 3.48 C 6.4 km/h
511 18-03-2016 18:30:00 4.8 C 5.5 g/m*3 2.15 C 11.3 km/h
512 18-03-2016 18:35:00 4.8 C 5.57 g/m*3 3.36 C 6.4 km/h
513 18-03-2016 18:40:00 4.8 C 5.57 g/m*3 3.36 C 6.4 km/h
514 18-03-2016 18:45:00 4.7 C 5.6 g/m*3 2.76 C 8.1 km/h
515 18-03-2016 18:50:00 4.7 C 5.6 g/m*3 2.76 C 8.1 km/h
516 18-03-2016 18:55:00 4.6 C 5.62 g/m*3 2.25 C 9.7 km/h
517 18-03-2016 19:00:00 4.6 C 5.62 g/m*3 1.91 C 11.3 km/h
518 18-03-2016 19:05:00 4.4 C 5.55 g/m*3 2.01 C 9.7 km/h
519 18-03-2016 19:10:00 4.3 C 5.58 g/m*3 2.29 C 8.1 km/h
520 18-03-2016 19:15:00 4.2 C 5.61 g/m*3 1.43 C 11.3 km/h
521 18-03-2016 19:20:00 4.2 C 5.61 g/m*3 2.17 C 8.1 km/h
522 18-03-2016 19:25:00 4.1 C 5.57 g/m*3 2.05 C 8.1 km/h
523 18-03-2016 19:30:00 4.1 C 5.63 g/m*3 1 C 12.9 km/h
524 18-03-2016 19:35:00 4 C 5.59 g/m*3 2.44 C 6.4 km/h
525 18-03-2016 19:40:00 4 C 5.59 g/m*3 1.93 C 8.1 km/h
Sensor: Nr:Datum:Temp:Abs-Feuchte:Windchill:Wind:
Aussen-T/F 526 18-03-2016 19:45:00 4 C 5.59 g/m*3 1.53 C 9.7 km/h
527 18-03-2016 19:50:00 4 C 5.59 g/m*3 1.18 C 11.3 km/h
528 18-03-2016 19:55:00 4 C 5.59 g/m*3 1.93 C 8.1 km/h
529 18-03-2016 20:00:00 4 C 5.59 g/m*3 2.44 C 6.4 km/h
530 18-03-2016 20:05:00 4 C 5.66 g/m*3 1.53 C 9.7 km/h
531 18-03-2016 20:10:00 4.1 C 5.63 g/m*3 1.31 C 11.3 km/h
532 18-03-2016 20:15:00 4.1 C 5.63 g/m*3 1.31 C 11.3 km/h
533 18-03-2016 20:20:00 4.1 C 5.63 g/m*3 1.31 C 11.3 km/h
534 18-03-2016 20:25:00 4.1 C 5.63 g/m*3 1.65 C 9.7 km/h
535 18-03-2016 20:30:00 4.1 C 5.7 g/m*3 1 C 12.9 km/h
536 18-03-2016 20:35:00 4.1 C 5.7 g/m*3 1.65 C 9.7 km/h
537 18-03-2016 20:40:00 4.1 C 5.7 g/m*3 1 C 12.9 km/h
538 18-03-2016 20:45:00 4.1 C 5.7 g/m*3 1.65 C 9.7 km/h
539 18-03-2016 20:50:00 4.1 C 5.7 g/m*3 2.55 C 6.4 km/h
540 18-03-2016 20:55:00 4.2 C 5.73 g/m*3 2.67 C 6.4 km/h
541 18-03-2016 21:00:00 4.2 C 5.73 g/m*3 2.17 C 8.1 km/h
542 18-03-2016 21:05:00 4.2 C 5.8 g/m*3 2.67 C 6.4 km/h
543 18-03-2016 21:10:00 4.2 C 5.8 g/m*3 1.77 C 9.7 km/h
544 18-03-2016 21:15:00 4.2 C 5.8 g/m*3 2.67 C 6.4 km/h
545 18-03-2016 21:20:00 4.2 C 5.8 g/m*3 4.2 C 4.8 km/h
546 18-03-2016 21:25:00 4.3 C 5.84 g/m*3 4.3 C 3.2 km/h
547 18-03-2016 21:30:00 4.3 C 5.84 g/m*3 1.89 C 9.7 km/h
548 18-03-2016 21:35:00 4.3 C 5.84 g/m*3 1.89 C 9.7 km/h
549 18-03-2016 21:40:00 4.3 C 5.84 g/m*3 2.29 C 8.1 km/h
550 18-03-2016 21:45:00 4.3 C 5.84 g/m*3 1.24 C 12.9 km/h
Sensor: Nr:Datum:Temp:Abs-Feuchte:Windchill:Wind:
Aussen-T/F 551 18-03-2016 21:50:00 4.3 C 5.84 g/m*3 2.29 C 8.1 km/h
552 18-03-2016 21:55:00 4.3 C 5.84 g/m*3 2.78 C 6.4 km/h
553 18-03-2016 22:00:00 4.4 C 5.88 g/m*3 2.4 C 8.1 km/h
554 18-03-2016 22:05:00 4.4 C 5.88 g/m*3 4.4 C 4.8 km/h
555 18-03-2016 22:10:00 4.4 C 5.88 g/m*3 2.9 C 6.4 km/h
556 18-03-2016 22:15:00 4.4 C 5.88 g/m*3 4.4 C 4.8 km/h
557 18-03-2016 22:20:00 4.4 C 5.88 g/m*3 2.9 C 6.4 km/h
558 18-03-2016 22:25:00 4.4 C 5.81 g/m*3 2.9 C 6.4 km/h
559 18-03-2016 22:30:00 4.4 C 5.81 g/m*3 4.4 C 4.8 km/h
560 18-03-2016 22:35:00 4.5 C 5.92 g/m*3 4.5 C 1.6 km/h
561 18-03-2016 22:40:00 4.5 C 5.92 g/m*3 4.5 C 3.2 km/h
562 18-03-2016 22:45:00 4.5 C 5.85 g/m*3 2.52 C 8.1 km/h
563 18-03-2016 22:50:00 4.5 C 5.85 g/m*3 3.02 C 6.4 km/h
564 18-03-2016 22:55:00 4.5 C 5.85 g/m*3 4.5 C 3.2 km/h
565 18-03-2016 23:00:00 4.6 C 5.89 g/m*3 4.6 C 4.8 km/h
566 18-03-2016 23:05:00 4.6 C 5.89 g/m*3 4.6 C 4.8 km/h
567 18-03-2016 23:10:00 4.6 C 5.89 g/m*3 4.6 C 4.8 km/h
568 18-03-2016 23:15:00 4.6 C 5.96 g/m*3 4.6 C 1.6 km/h
569 18-03-2016 23:20:00 4.6 C 5.96 g/m*3 2.64 C 8.1 km/h
570 18-03-2016 23:25:00 4.6 C 5.96 g/m*3 4.6 C 4.8 km/h
571 18-03-2016 23:30:00 4.6 C 5.96 g/m*3 4.6 C 3.2 km/h
572 18-03-2016 23:35:00 4.7 C 6 g/m*3 4.7 C 4.8 km/h
573 18-03-2016 23:40:00 4.7 C 6 g/m*3 4.7 C 1.6 km/h
574 18-03-2016 23:45:00 4.7 C 6 g/m*3 4.7 C 0 km/h
575 18-03-2016 23:50:00 4.7 C 6 g/m*3 4.7 C 1.6 km/h
Sensor: Nr:Datum:Temp:Abs-Feuchte:Windchill:Wind:
Aussen-T/F 576 18-03-2016 23:55:00 4.7 C 6 g/m*3 4.7 C 4.8 km/h
577 19-03-2016 00:00:00 4.7 C 6 g/m*3 2.76 C 8.1 km/h
578 19-03-2016 00:05:00 4.7 C 6 g/m*3 4.7 C 3.2 km/h
579 19-03-2016 00:10:00 4.7 C 6 g/m*3 4.7 C 3.2 km/h
580 19-03-2016 00:15:00 4.7 C 6 g/m*3 3.25 C 6.4 km/h
581 19-03-2016 00:20:00 4.8 C 6.04 g/m*3 4.8 C 4.8 km/h
582 19-03-2016 00:25:00 4.8 C 6.04 g/m*3 4.8 C 3.2 km/h
583 19-03-2016 00:30:00 4.8 C 6.04 g/m*3 2.87 C 8.1 km/h
584 19-03-2016 00:35:00 4.8 C 6.04 g/m*3 2.15 C 11.3 km/h
585 19-03-2016 00:40:00 4.8 C 6.04 g/m*3 4.8 C 4.8 km/h
586 19-03-2016 00:45:00 4.8 C 6.04 g/m*3 3.36 C 6.4 km/h
587 19-03-2016 00:50:00 4.8 C 6.04 g/m*3 2.87 C 8.1 km/h
588 19-03-2016 00:55:00 4.8 C 6.04 g/m*3 4.8 C 4.8 km/h
589 19-03-2016 01:00:00 4.9 C 6.08 g/m*3 3.48 C 6.4 km/h
590 19-03-2016 01:05:00 4.9 C 6.08 g/m*3 4.9 C 4.8 km/h
591 19-03-2016 01:10:00 4.9 C 6.08 g/m*3 4.9 C 1.6 km/h
592 19-03-2016 01:15:00 4.9 C 6.08 g/m*3 4.9 C 3.2 km/h
593 19-03-2016 01:20:00 4.9 C 6.08 g/m*3 4.9 C 1.6 km/h
594 19-03-2016 01:25:00 4.9 C 6.08 g/m*3 4.9 C 3.2 km/h
595 19-03-2016 01:30:00 4.9 C 6.08 g/m*3 4.9 C 0 km/h
596 19-03-2016 01:35:00 4.9 C 6.08 g/m*3 4.9 C 3.2 km/h
597 19-03-2016 01:40:00 4.9 C 6.14 g/m*3 4.9 C 3.2 km/h
598 19-03-2016 01:45:00 4.9 C 6.14 g/m*3 4.9 C 3.2 km/h
599 19-03-2016 01:50:00 4.9 C 6.14 g/m*3 4.9 C 1.6 km/h
600 19-03-2016 01:55:00 4.9 C 6.14 g/m*3 4.9 C 1.6 km/h
Sensor: Nr:Datum:Temp:Abs-Feuchte:Windchill:Wind:
Aussen-T/F 601 19-03-2016 02:00:00 4.9 C 6.14 g/m*3 4.9 C 1.6 km/h
602 19-03-2016 02:05:00 4.9 C 6.14 g/m*3 4.9 C 3.2 km/h
603 19-03-2016 02:10:00 4.9 C 6.14 g/m*3 4.9 C 1.6 km/h
604 19-03-2016 02:15:00 4.9 C 6.14 g/m*3 4.9 C 3.2 km/h
605 19-03-2016 02:20:00 4.8 C 6.1 g/m*3 4.8 C 0 km/h
606 19-03-2016 02:25:00 4.9 C 6.14 g/m*3 3.48 C 6.4 km/h
607 19-03-2016 02:30:00 4.9 C 6.14 g/m*3 4.9 C 4.8 km/h
608 19-03-2016 02:35:00 4.9 C 6.14 g/m*3 4.9 C 3.2 km/h
609 19-03-2016 02:40:00 4.9 C 6.14 g/m*3 4.9 C 1.6 km/h
610 19-03-2016 02:45:00 4.9 C 6.14 g/m*3 4.9 C 3.2 km/h
611 19-03-2016 02:50:00 4.9 C 6.14 g/m*3 2.99 C 8.1 km/h
612 19-03-2016 02:55:00 4.9 C 6.21 g/m*3 3.48 C 6.4 km/h
613 19-03-2016 03:00:00 4.9 C 6.21 g/m*3 4.9 C 1.6 km/h
614 19-03-2016 03:05:00 4.9 C 6.21 g/m*3 4.9 C 0 km/h
615 19-03-2016 03:10:00 4.9 C 6.21 g/m*3 4.9 C 1.6 km/h
616 19-03-2016 03:15:00 4.9 C 6.21 g/m*3 4.9 C 3.2 km/h
617 19-03-2016 03:20:00 4.8 C 6.17 g/m*3 4.8 C 3.2 km/h
618 19-03-2016 03:25:00 4.8 C 6.17 g/m*3 4.8 C 4.8 km/h
619 19-03-2016 03:30:00 4.8 C 6.17 g/m*3 4.8 C 4.8 km/h
620 19-03-2016 03:35:00 4.9 C 6.21 g/m*3 4.9 C 3.2 km/h
621 19-03-2016 03:40:00 4.9 C 6.21 g/m*3 4.9 C 3.2 km/h
622 19-03-2016 03:45:00 4.9 C 6.21 g/m*3 4.9 C 1.6 km/h
623 19-03-2016 03:50:00 4.9 C 6.21 g/m*3 4.9 C 0 km/h
624 19-03-2016 03:55:00 4.9 C 6.21 g/m*3 4.9 C 1.6 km/h
625 19-03-2016 04:00:00 4.9 C 6.21 g/m*3 4.9 C 3.2 km/h
Sensor: Nr:Datum:Temp:Abs-Feuchte:Windchill:Wind:
Aussen-T/F 626 19-03-2016 04:05:00 4.9 C 6.21 g/m*3 4.9 C 3.2 km/h
627 19-03-2016 04:10:00 4.9 C 6.21 g/m*3 4.9 C 4.8 km/h
628 19-03-2016 04:15:00 4.9 C 6.21 g/m*3 4.9 C 1.6 km/h
629 19-03-2016 04:20:00 4.9 C 6.21 g/m*3 4.9 C 1.6 km/h
630 19-03-2016 04:25:00 4.9 C 6.21 g/m*3 4.9 C 1.6 km/h
631 19-03-2016 04:30:00 4.9 C 6.21 g/m*3 4.9 C 3.2 km/h
632 19-03-2016 04:35:00 4.9 C 6.21 g/m*3 4.9 C 1.6 km/h
633 19-03-2016 04:40:00 4.9 C 6.21 g/m*3 4.9 C 3.2 km/h
634 19-03-2016 04:45:00 4.9 C 6.21 g/m*3 4.9 C 0 km/h
635 19-03-2016 04:50:00 4.8 C 6.17 g/m*3 4.8 C 3.2 km/h
636 19-03-2016 04:55:00 4.8 C 6.17 g/m*3 4.8 C 3.2 km/h
637 19-03-2016 05:00:00 4.8 C 6.17 g/m*3 4.8 C 1.6 km/h
638 19-03-2016 05:05:00 4.8 C 6.17 g/m*3 4.8 C 1.6 km/h
639 19-03-2016 05:10:00 4.8 C 6.17 g/m*3 4.8 C 0 km/h
640 19-03-2016 05:15:00 4.8 C 6.17 g/m*3 4.8 C 0 km/h
641 19-03-2016 05:20:00 4.8 C 6.17 g/m*3 4.8 C 0 km/h
642 19-03-2016 05:25:00 4.8 C 6.17 g/m*3 4.8 C 0 km/h
643 19-03-2016 05:30:00 4.7 C 6.13 g/m*3 4.7 C 0 km/h
644 19-03-2016 05:35:00 4.7 C 6.19 g/m*3 4.7 C 0 km/h
645 19-03-2016 05:40:00 4.7 C 6.19 g/m*3 4.7 C 0 km/h
646 19-03-2016 05:45:00 4.7 C 6.19 g/m*3 4.7 C 0 km/h
647 19-03-2016 05:50:00 4.7 C 6.19 g/m*3 4.7 C 0 km/h
648 19-03-2016 05:55:00 4.7 C 6.19 g/m*3 4.7 C 0 km/h
649 19-03-2016 06:00:00 4.7 C 6.19 g/m*3 4.7 C 0 km/h
650 19-03-2016 06:05:00 4.7 C 6.19 g/m*3 4.7 C 0 km/h
Sensor: Nr:Datum:Temp:Abs-Feuchte:Windchill:Wind:
Aussen-T/F 651 19-03-2016 06:10:00 4.6 C 6.22 g/m*3 4.6 C 0 km/h
652 19-03-2016 06:15:00 4.6 C 6.22 g/m*3 4.6 C 0 km/h
653 19-03-2016 06:20:00 4.6 C 6.22 g/m*3 4.6 C 0 km/h
654 19-03-2016 06:25:00 4.6 C 6.22 g/m*3 4.6 C 0 km/h
655 19-03-2016 06:30:00 4.6 C 6.22 g/m*3 4.6 C 1.6 km/h
656 19-03-2016 06:35:00 4.6 C 6.22 g/m*3 4.6 C 0 km/h
657 19-03-2016 06:40:00 4.6 C 6.22 g/m*3 4.6 C 0 km/h
658 19-03-2016 06:45:00 4.6 C 6.22 g/m*3 4.6 C 0 km/h
659 19-03-2016 06:50:00 4.6 C 6.22 g/m*3 4.6 C 0 km/h
660 19-03-2016 06:55:00 4.6 C 6.22 g/m*3 4.6 C 0 km/h
661 19-03-2016 07:00:00 4.6 C 6.22 g/m*3 4.6 C 0 km/h
662 19-03-2016 07:05:00 4.6 C 6.22 g/m*3 4.6 C 0 km/h
663 19-03-2016 07:10:00 4.6 C 6.22 g/m*3 4.6 C 0 km/h
664 19-03-2016 07:15:00 4.6 C 6.29 g/m*3 4.6 C 0 km/h
665 19-03-2016 07:20:00 4.6 C 6.29 g/m*3 4.6 C 0 km/h
666 19-03-2016 07:25:00 4.6 C 6.29 g/m*3 4.6 C 0 km/h
667 19-03-2016 07:30:00 4.6 C 6.29 g/m*3 4.6 C 0 km/h
668 19-03-2016 07:35:00 4.6 C 6.29 g/m*3 4.6 C 0 km/h
669 19-03-2016 07:40:00 4.6 C 6.29 g/m*3 4.6 C 0 km/h
670 19-03-2016 07:45:00 4.7 C 6.33 g/m*3 4.7 C 0 km/h
671 19-03-2016 07:50:00 4.7 C 6.33 g/m*3 4.7 C 0 km/h
672 19-03-2016 07:55:00 4.7 C 6.33 g/m*3 4.7 C 0 km/h
673 19-03-2016 08:00:00 4.7 C 6.33 g/m*3 2.76 C 8.1 km/h
674 19-03-2016 08:05:00 4.7 C 6.33 g/m*3 4.7 C 4.8 km/h
675 19-03-2016 08:10:00 4.7 C 6.33 g/m*3 2.37 C 9.7 km/h
Sensor: Nr:Datum:Temp:Abs-Feuchte:Windchill:Wind:
Aussen-T/F 676 19-03-2016 08:15:00 4.7 C 6.26 g/m*3 2.03 C 11.3 km/h
677 19-03-2016 08:20:00 4.7 C 6.26 g/m*3 2.76 C 8.1 km/h
678 19-03-2016 08:25:00 4.7 C 6.26 g/m*3 4.7 C 4.8 km/h
679 19-03-2016 08:30:00 4.7 C 6.26 g/m*3 4.7 C 3.2 km/h
680 19-03-2016 08:35:00 4.7 C 6.26 g/m*3 3.25 C 6.4 km/h
681 19-03-2016 08:40:00 4.7 C 6.19 g/m*3 3.25 C 6.4 km/h
682 19-03-2016 08:45:00 4.7 C 6.19 g/m*3 4.7 C 4.8 km/h
683 19-03-2016 08:50:00 4.7 C 6.19 g/m*3 4.7 C 4.8 km/h
684 19-03-2016 08:55:00 4.8 C 6.17 g/m*3 4.8 C 3.2 km/h
685 19-03-2016 09:00:00 4.8 C 6.17 g/m*3 4.8 C 1.6 km/h
686 19-03-2016 09:05:00 4.8 C 6.17 g/m*3 4.8 C 4.8 km/h
687 19-03-2016 09:10:00 4.8 C 6.1 g/m*3 4.8 C 4.8 km/h
688 19-03-2016 09:15:00 4.8 C 6.1 g/m*3 4.8 C 3.2 km/h
689 19-03-2016 09:20:00 4.9 C 6.14 g/m*3 4.9 C 1.6 km/h
690 19-03-2016 09:25:00 4.9 C 6.14 g/m*3 4.9 C 3.2 km/h
691 19-03-2016 09:30:00 4.9 C 6.08 g/m*3 4.9 C 1.6 km/h
692 19-03-2016 09:35:00 5 C 6.12 g/m*3 5 C 3.2 km/h
693 19-03-2016 09:40:00 5.1 C 6.09 g/m*3 5.1 C 4.8 km/h
694 19-03-2016 09:45:00 5.1 C 6.09 g/m*3 5.1 C 4.8 km/h
695 19-03-2016 09:50:00 5.1 C 6.02 g/m*3 3.71 C 6.4 km/h
696 19-03-2016 09:55:00 5.1 C 6.02 g/m*3 5.1 C 1.6 km/h
697 19-03-2016 10:00:00 5.2 C 6.06 g/m*3 5.2 C 4.8 km/h
698 19-03-2016 10:05:00 5.2 C 5.99 g/m*3 5.2 C 4.8 km/h
699 19-03-2016 10:10:00 5.3 C 5.96 g/m*3 5.3 C 4.8 km/h
700 19-03-2016 10:15:00 5.4 C 6 g/m*3 4.06 C 6.4 km/h
Sensor: Nr:Datum:Temp:Abs-Feuchte:Windchill:Wind:
Aussen-T/F 701 19-03-2016 10:20:00 5.4 C 5.79 g/m*3 4.06 C 6.4 km/h
702 19-03-2016 10:25:00 5.6 C 5.8 g/m*3 5.6 C 1.6 km/h
703 19-03-2016 10:30:00 5.6 C 5.87 g/m*3 5.6 C 1.6 km/h
704 19-03-2016 10:35:00 5.7 C 5.84 g/m*3 5.7 C 3.2 km/h
705 19-03-2016 10:40:00 5.8 C 5.95 g/m*3 5.8 C 0 km/h
706 19-03-2016 10:45:00 5.9 C 5.91 g/m*3 5.9 C 4.8 km/h
707 19-03-2016 10:50:00 5.9 C 5.91 g/m*3 5.9 C 4.8 km/h
708 19-03-2016 10:55:00 6 C 5.88 g/m*3 4.28 C 8.1 km/h
709 19-03-2016 11:00:00 6.1 C 5.99 g/m*3 4.4 C 8.1 km/h
710 19-03-2016 11:05:00 6.1 C 5.92 g/m*3 6.1 C 3.2 km/h
711 19-03-2016 11:10:00 6.1 C 5.92 g/m*3 4.4 C 8.1 km/h
712 19-03-2016 11:15:00 6.1 C 5.99 g/m*3 4.4 C 8.1 km/h
713 19-03-2016 11:20:00 6.1 C 6.06 g/m*3 6.1 C 4.8 km/h
714 19-03-2016 11:25:00 6.1 C 5.99 g/m*3 4.86 C 6.4 km/h
715 19-03-2016 11:30:00 6.2 C 6.1 g/m*3 6.2 C 3.2 km/h
716 19-03-2016 11:35:00 6.2 C 6.1 g/m*3 6.2 C 3.2 km/h
717 19-03-2016 11:40:00 6.2 C 6.18 g/m*3 6.2 C 3.2 km/h
718 19-03-2016 11:45:00 6.3 C 6.22 g/m*3 5.1 C 6.4 km/h
719 19-03-2016 11:50:00 6.3 C 6.14 g/m*3 5.1 C 6.4 km/h
720 19-03-2016 11:55:00 6.4 C 6.26 g/m*3 5.21 C 6.4 km/h
721 19-03-2016 12:00:00 6.4 C 6.26 g/m*3 6.4 C 4.8 km/h
722 19-03-2016 12:05:00 6.4 C 6.18 g/m*3 4.75 C 8.1 km/h
723 19-03-2016 12:10:00 6.4 C 6.18 g/m*3 6.4 C 3.2 km/h
724 19-03-2016 12:15:00 6.4 C 6.26 g/m*3 5.21 C 6.4 km/h
725 19-03-2016 12:20:00 6.4 C 6.18 g/m*3 6.4 C 4.8 km/h
Sensor: Nr:Datum:Temp:Abs-Feuchte:Windchill:Wind:
Aussen-T/F 726 19-03-2016 12:25:00 6.4 C 6.18 g/m*3 6.4 C 3.2 km/h
727 19-03-2016 12:30:00 6.4 C 6.26 g/m*3 6.4 C 3.2 km/h
728 19-03-2016 12:35:00 6.4 C 6.26 g/m*3 6.4 C 4.8 km/h
729 19-03-2016 12:40:00 6.5 C 6.22 g/m*3 6.5 C 4.8 km/h
730 19-03-2016 12:45:00 6.5 C 6.3 g/m*3 6.5 C 3.2 km/h
731 19-03-2016 12:50:00 6.6 C 6.34 g/m*3 6.6 C 4.8 km/h
732 19-03-2016 12:55:00 6.6 C 6.27 g/m*3 6.6 C 4.8 km/h
733 19-03-2016 13:00:00 6.7 C 6.31 g/m*3 6.7 C 4.8 km/h
734 19-03-2016 13:05:00 6.6 C 6.19 g/m*3 6.6 C 3.2 km/h
735 19-03-2016 13:10:00 6.6 C 6.19 g/m*3 5.44 C 6.4 km/h
736 19-03-2016 13:15:00 6.7 C 6.23 g/m*3 6.7 C 3.2 km/h
737 19-03-2016 13:20:00 6.7 C 6.31 g/m*3 6.7 C 0 km/h
738 19-03-2016 13:25:00 6.7 C 6.23 g/m*3 5.56 C 6.4 km/h
739 19-03-2016 13:30:00 6.7 C 6.23 g/m*3 6.7 C 4.8 km/h
740 19-03-2016 13:35:00 6.7 C 6.23 g/m*3 4.75 C 9.7 km/h
741 19-03-2016 13:40:00 6.7 C 6.23 g/m*3 6.7 C 3.2 km/h
742 19-03-2016 13:45:00 6.7 C 6.31 g/m*3 6.7 C 3.2 km/h
743 19-03-2016 13:50:00 6.7 C 6.31 g/m*3 6.7 C 1.6 km/h
744 19-03-2016 13:55:00 6.7 C 6.23 g/m*3 6.7 C 0 km/h
745 19-03-2016 14:00:00 6.7 C 6.23 g/m*3 6.7 C 0 km/h
746 19-03-2016 14:05:00 6.7 C 6.23 g/m*3 6.7 C 0 km/h
747 19-03-2016 14:10:00 6.7 C 6.23 g/m*3 6.7 C 0 km/h
748 19-03-2016 14:15:00 6.8 C 6.27 g/m*3 6.8 C 1.6 km/h
749 19-03-2016 14:20:00 6.8 C 6.19 g/m*3 6.8 C 1.6 km/h
750 19-03-2016 14:25:00 6.8 C 6.19 g/m*3 6.8 C 0 km/h
Sensor: Nr:Datum:Temp:Abs-Feuchte:Windchill:Wind:
Aussen-T/F 751 19-03-2016 14:30:00 6.9 C 6.24 g/m*3 5.79 C 6.4 km/h
752 19-03-2016 14:35:00 6.9 C 6.24 g/m*3 5.79 C 6.4 km/h
753 19-03-2016 14:40:00 6.9 C 6.31 g/m*3 6.9 C 4.8 km/h
754 19-03-2016 14:45:00 6.9 C 6.31 g/m*3 5.34 C 8.1 km/h
755 19-03-2016 14:50:00 6.9 C 6.31 g/m*3 6.9 C 3.2 km/h
756 19-03-2016 14:55:00 6.9 C 6.24 g/m*3 5.79 C 6.4 km/h
757 19-03-2016 15:00:00 7 C 6.28 g/m*3 4.8 C 11.3 km/h
758 19-03-2016 15:05:00 6.9 C 6.16 g/m*3 4.99 C 9.7 km/h
759 19-03-2016 15:10:00 6.9 C 6.16 g/m*3 4.99 C 9.7 km/h
760 19-03-2016 15:15:00 6.9 C 6.24 g/m*3 5.34 C 8.1 km/h
761 19-03-2016 15:20:00 7 C 6.2 g/m*3 5.46 C 8.1 km/h
762 19-03-2016 15:25:00 7 C 6.2 g/m*3 5.11 C 9.7 km/h
763 19-03-2016 15:30:00 7 C 6.2 g/m*3 5.46 C 8.1 km/h
764 19-03-2016 15:35:00 7 C 6.2 g/m*3 5.46 C 8.1 km/h
765 19-03-2016 15:40:00 7 C 6.28 g/m*3 5.46 C 8.1 km/h
766 19-03-2016 15:45:00 7 C 6.2 g/m*3 5.11 C 9.7 km/h
767 19-03-2016 15:50:00 7 C 6.28 g/m*3 5.46 C 8.1 km/h
768 19-03-2016 15:55:00 7 C 6.28 g/m*3 7 C 4.8 km/h
769 19-03-2016 16:00:00 7.1 C 6.24 g/m*3 5.58 C 8.1 km/h
770 19-03-2016 16:05:00 7.1 C 6.32 g/m*3 6.02 C 6.4 km/h
771 19-03-2016 16:10:00 7 C 6.28 g/m*3 5.46 C 8.1 km/h
772 19-03-2016 16:15:00 7 C 6.35 g/m*3 5.46 C 8.1 km/h
773 19-03-2016 16:20:00 6.9 C 6.31 g/m*3 5.79 C 6.4 km/h
774 19-03-2016 16:25:00 6.9 C 6.24 g/m*3 5.34 C 8.1 km/h
775 19-03-2016 16:30:00 6.8 C 6.19 g/m*3 4.87 C 9.7 km/h
Sensor: Nr:Datum:Temp:Abs-Feuchte:Windchill:Wind:
Aussen-T/F 776 19-03-2016 16:35:00 6.8 C 6.19 g/m*3 6.8 C 4.8 km/h
777 19-03-2016 16:40:00 6.8 C 6.27 g/m*3 4.87 C 9.7 km/h
778 19-03-2016 16:45:00 6.8 C 6.27 g/m*3 6.8 C 4.8 km/h
779 19-03-2016 16:50:00 6.8 C 6.27 g/m*3 6.8 C 3.2 km/h
780 19-03-2016 16:55:00 6.8 C 6.35 g/m*3 5.67 C 6.4 km/h
781 19-03-2016 17:00:00 6.8 C 6.35 g/m*3 5.22 C 8.1 km/h
782 19-03-2016 17:05:00 6.7 C 6.38 g/m*3 6.7 C 4.8 km/h
783 19-03-2016 17:10:00 6.7 C 6.38 g/m*3 5.56 C 6.4 km/h
784 19-03-2016 17:15:00 6.7 C 6.38 g/m*3 5.56 C 6.4 km/h
785 19-03-2016 17:20:00 6.6 C 6.34 g/m*3 6.6 C 4.8 km/h
786 19-03-2016 17:25:00 6.6 C 6.42 g/m*3 5.44 C 6.4 km/h
787 19-03-2016 17:30:00 6.6 C 6.42 g/m*3 5.44 C 6.4 km/h
788 19-03-2016 17:35:00 6.6 C 6.42 g/m*3 5.44 C 6.4 km/h
789 19-03-2016 17:40:00 6.6 C 6.42 g/m*3 5.44 C 6.4 km/h
790 19-03-2016 17:45:00 6.6 C 6.42 g/m*3 6.6 C 0 km/h
791 19-03-2016 17:50:00 6.6 C 6.42 g/m*3 6.6 C 1.6 km/h
792 19-03-2016 17:55:00 6.6 C 6.42 g/m*3 5.44 C 6.4 km/h
793 19-03-2016 18:00:00 6.5 C 6.37 g/m*3 6.5 C 1.6 km/h
794 19-03-2016 18:05:00 6.5 C 6.37 g/m*3 5.33 C 6.4 km/h
795 19-03-2016 18:10:00 6.5 C 6.37 g/m*3 4.87 C 8.1 km/h
796 19-03-2016 18:15:00 6.5 C 6.37 g/m*3 6.5 C 3.2 km/h
797 19-03-2016 18:20:00 6.4 C 6.33 g/m*3 6.4 C 0 km/h
798 19-03-2016 18:25:00 6.4 C 6.33 g/m*3 4.08 C 11.3 km/h
799 19-03-2016 18:30:00 6.4 C 6.33 g/m*3 6.4 C 3.2 km/h
800 19-03-2016 18:35:00 6.4 C 6.33 g/m*3 6.4 C 4.8 km/h
Sensor: Nr:Datum:Temp:Abs-Feuchte:Windchill:Wind:
Aussen-T/F 801 19-03-2016 18:40:00 6.3 C 6.29 g/m*3 6.3 C 3.2 km/h
802 19-03-2016 18:45:00 6.3 C 6.37 g/m*3 6.3 C 3.2 km/h
803 19-03-2016 18:50:00 6.3 C 6.37 g/m*3 6.3 C 4.8 km/h
804 19-03-2016 18:55:00 6.3 C 6.37 g/m*3 5.1 C 6.4 km/h
805 19-03-2016 19:00:00 6.3 C 6.37 g/m*3 6.3 C 4.8 km/h
806 19-03-2016 19:05:00 6.3 C 6.37 g/m*3 6.3 C 3.2 km/h
807 19-03-2016 19:10:00 6.3 C 6.37 g/m*3 6.3 C 3.2 km/h
808 19-03-2016 19:15:00 6.2 C 6.32 g/m*3 4.98 C 6.4 km/h
809 19-03-2016 19:20:00 6.2 C 6.32 g/m*3 4.52 C 8.1 km/h
810 19-03-2016 19:25:00 6.2 C 6.32 g/m*3 4.98 C 6.4 km/h
811 19-03-2016 19:30:00 6.2 C 6.32 g/m*3 4.98 C 6.4 km/h
812 19-03-2016 19:35:00 6.2 C 6.32 g/m*3 4.98 C 6.4 km/h
813 19-03-2016 19:40:00 6.2 C 6.32 g/m*3 3.84 C 11.3 km/h
814 19-03-2016 19:45:00 6.2 C 6.32 g/m*3 4.98 C 6.4 km/h
815 19-03-2016 19:50:00 6.2 C 6.32 g/m*3 4.52 C 8.1 km/h
816 19-03-2016 19:55:00 6.1 C 6.28 g/m*3 6.1 C 4.8 km/h
817 19-03-2016 20:00:00 6.1 C 6.28 g/m*3 4.86 C 6.4 km/h
818 19-03-2016 20:05:00 6.1 C 6.28 g/m*3 4.86 C 6.4 km/h
819 19-03-2016 20:10:00 6.1 C 6.28 g/m*3 6.1 C 3.2 km/h
820 19-03-2016 20:15:00 6.1 C 6.28 g/m*3 6.1 C 4.8 km/h
821 19-03-2016 20:20:00 6.1 C 6.28 g/m*3 6.1 C 4.8 km/h
822 19-03-2016 20:25:00 6.1 C 6.28 g/m*3 4.86 C 6.4 km/h
823 19-03-2016 20:30:00 6.1 C 6.28 g/m*3 6.1 C 4.8 km/h
824 19-03-2016 20:35:00 6.1 C 6.28 g/m*3 6.1 C 4.8 km/h
825 19-03-2016 20:40:00 6.1 C 6.28 g/m*3 6.1 C 3.2 km/h
Sensor: Nr:Datum:Temp:Abs-Feuchte:Windchill:Wind:
Aussen-T/F 826 19-03-2016 20:45:00 6.1 C 6.28 g/m*3 4.86 C 6.4 km/h
827 19-03-2016 20:50:00 6 C 6.17 g/m*3 6 C 3.2 km/h
828 19-03-2016 20:55:00 6 C 6.24 g/m*3 6 C 3.2 km/h
829 19-03-2016 21:00:00 6 C 6.17 g/m*3 6 C 4.8 km/h
830 19-03-2016 21:05:00 6 C 6.24 g/m*3 6 C 1.6 km/h
831 19-03-2016 21:10:00 5.9 C 6.2 g/m*3 5.9 C 1.6 km/h
832 19-03-2016 21:15:00 5.9 C 6.2 g/m*3 5.9 C 1.6 km/h
833 19-03-2016 21:20:00 5.9 C 6.2 g/m*3 4.63 C 6.4 km/h
834 19-03-2016 21:25:00 5.9 C 6.2 g/m*3 5.9 C 3.2 km/h
835 19-03-2016 21:30:00 5.9 C 6.2 g/m*3 4.17 C 8.1 km/h
836 19-03-2016 21:35:00 5.8 C 6.09 g/m*3 5.8 C 4.8 km/h
837 19-03-2016 21:40:00 5.8 C 6.16 g/m*3 5.8 C 4.8 km/h
838 19-03-2016 21:45:00 5.8 C 6.16 g/m*3 5.8 C 3.2 km/h
839 19-03-2016 21:50:00 5.8 C 6.16 g/m*3 5.8 C 3.2 km/h
840 19-03-2016 21:55:00 5.8 C 6.16 g/m*3 5.8 C 4.8 km/h
841 19-03-2016 22:00:00 5.8 C 6.16 g/m*3 5.8 C 4.8 km/h
842 19-03-2016 22:05:00 5.8 C 6.16 g/m*3 5.8 C 1.6 km/h
843 19-03-2016 22:10:00 5.8 C 6.16 g/m*3 5.8 C 1.6 km/h
844 19-03-2016 22:15:00 5.8 C 6.09 g/m*3 4.52 C 6.4 km/h
845 19-03-2016 22:20:00 5.8 C 6.09 g/m*3 5.8 C 1.6 km/h
846 19-03-2016 22:25:00 5.8 C 6.09 g/m*3 5.8 C 4.8 km/h
847 19-03-2016 22:30:00 5.7 C 6.05 g/m*3 5.7 C 3.2 km/h
848 19-03-2016 22:35:00 5.7 C 6.12 g/m*3 5.7 C 0 km/h
849 19-03-2016 22:40:00 5.7 C 6.05 g/m*3 5.7 C 4.8 km/h
850 19-03-2016 22:45:00 5.7 C 6.05 g/m*3 5.7 C 1.6 km/h
Sensor: Nr:Datum:Temp:Abs-Feuchte:Windchill:Wind:
Aussen-T/F 851 19-03-2016 22:50:00 5.7 C 6.05 g/m*3 5.7 C 0 km/h
852 19-03-2016 22:55:00 5.7 C 6.05 g/m*3 5.7 C 0 km/h
853 19-03-2016 23:00:00 5.7 C 6.05 g/m*3 5.7 C 0 km/h
854 19-03-2016 23:05:00 5.6 C 5.94 g/m*3 4.29 C 6.4 km/h
855 19-03-2016 23:10:00 5.6 C 5.94 g/m*3 5.6 C 1.6 km/h
856 19-03-2016 23:15:00 5.6 C 5.87 g/m*3 3.11 C 11.3 km/h
857 19-03-2016 23:20:00 5.6 C 5.8 g/m*3 3.81 C 8.1 km/h
858 19-03-2016 23:25:00 5.7 C 5.69 g/m*3 3.56 C 9.7 km/h
859 19-03-2016 23:30:00 5.7 C 5.69 g/m*3 4.4 C 6.4 km/h
860 19-03-2016 23:35:00 5.7 C 5.69 g/m*3 3.56 C 9.7 km/h
861 19-03-2016 23:40:00 5.7 C 5.69 g/m*3 3.93 C 8.1 km/h
862 19-03-2016 23:45:00 5.7 C 5.62 g/m*3 5.7 C 4.8 km/h
863 19-03-2016 23:50:00 5.7 C 5.62 g/m*3 3.93 C 8.1 km/h
864 19-03-2016 23:55:00 5.7 C 5.62 g/m*3 5.7 C 4.8 km/h
865 20-03-2016 00:00:00 5.7 C 5.62 g/m*3 3.93 C 8.1 km/h
866 20-03-2016 00:05:00 5.7 C 5.62 g/m*3 4.4 C 6.4 km/h
867 20-03-2016 00:10:00 5.7 C 5.69 g/m*3 5.7 C 3.2 km/h
868 20-03-2016 00:15:00 5.6 C 5.66 g/m*3 5.6 C 3.2 km/h
869 20-03-2016 00:20:00 5.6 C 5.66 g/m*3 5.6 C 1.6 km/h
870 20-03-2016 00:25:00 5.6 C 5.66 g/m*3 5.6 C 3.2 km/h
871 20-03-2016 00:30:00 5.6 C 5.66 g/m*3 5.6 C 3.2 km/h
872 20-03-2016 00:35:00 5.5 C 5.69 g/m*3 5.5 C 4.8 km/h
873 20-03-2016 00:40:00 5.5 C 5.69 g/m*3 5.5 C 3.2 km/h
874 20-03-2016 00:45:00 5.4 C 5.58 g/m*3 4.06 C 6.4 km/h
875 20-03-2016 00:50:00 5.4 C 5.58 g/m*3 4.06 C 6.4 km/h
Sensor: Nr:Datum:Temp:Abs-Feuchte:Windchill:Wind:
Aussen-T/F 876 20-03-2016 00:55:00 5.4 C 5.58 g/m*3 4.06 C 6.4 km/h
877 20-03-2016 01:00:00 5.4 C 5.51 g/m*3 3.58 C 8.1 km/h
878 20-03-2016 01:05:00 5.4 C 5.51 g/m*3 5.4 C 4.8 km/h
879 20-03-2016 01:10:00 5.3 C 5.48 g/m*3 3.08 C 9.7 km/h
880 20-03-2016 01:15:00 5.3 C 5.48 g/m*3 3.46 C 8.1 km/h
881 20-03-2016 01:20:00 5.3 C 5.48 g/m*3 3.08 C 9.7 km/h
882 20-03-2016 01:25:00 5.3 C 5.48 g/m*3 3.08 C 9.7 km/h
883 20-03-2016 01:30:00 5.3 C 5.48 g/m*3 5.3 C 4.8 km/h
884 20-03-2016 01:35:00 5.3 C 5.48 g/m*3 5.3 C 4.8 km/h
885 20-03-2016 01:40:00 5.2 C 5.44 g/m*3 3.82 C 6.4 km/h
886 20-03-2016 01:45:00 5.2 C 5.44 g/m*3 3.82 C 6.4 km/h
887 20-03-2016 01:50:00 5.2 C 5.44 g/m*3 3.34 C 8.1 km/h
888 20-03-2016 01:55:00 5.2 C 5.44 g/m*3 2.96 C 9.7 km/h
889 20-03-2016 02:00:00 5.1 C 5.34 g/m*3 3.23 C 8.1 km/h
890 20-03-2016 02:05:00 5.1 C 5.4 g/m*3 5.1 C 4.8 km/h
891 20-03-2016 02:10:00 5.1 C 5.4 g/m*3 3.23 C 8.1 km/h
892 20-03-2016 02:15:00 5.1 C 5.34 g/m*3 3.23 C 8.1 km/h
893 20-03-2016 02:20:00 5 C 5.3 g/m*3 3.59 C 6.4 km/h
894 20-03-2016 02:25:00 5 C 5.23 g/m*3 2.72 C 9.7 km/h
895 20-03-2016 02:30:00 5 C 5.3 g/m*3 5 C 0 km/h
896 20-03-2016 02:35:00 5 C 5.3 g/m*3 5 C 4.8 km/h
897 20-03-2016 02:40:00 5 C 5.3 g/m*3 5 C 3.2 km/h
898 20-03-2016 02:45:00 5 C 5.37 g/m*3 5 C 0 km/h
899 20-03-2016 02:50:00 4.9 C 5.4 g/m*3 4.9 C 0 km/h
900 20-03-2016 02:55:00 4.8 C 5.36 g/m*3 4.8 C 0 km/h
Sensor: Nr:Datum:Temp:Abs-Feuchte:Windchill:Wind:
Aussen-T/F 901 20-03-2016 03:00:00 4.8 C 5.36 g/m*3 4.8 C 0 km/h
902 20-03-2016 03:05:00 4.7 C 5.4 g/m*3 4.7 C 0 km/h
903 20-03-2016 03:10:00 4.7 C 5.4 g/m*3 4.7 C 0 km/h
904 20-03-2016 03:15:00 4.6 C 5.36 g/m*3 4.6 C 0 km/h
905 20-03-2016 03:20:00 4.6 C 5.36 g/m*3 4.6 C 0 km/h
906 20-03-2016 03:25:00 4.6 C 5.43 g/m*3 4.6 C 0 km/h
907 20-03-2016 03:30:00 4.6 C 5.43 g/m*3 4.6 C 0 km/h
908 20-03-2016 03:35:00 4.5 C 5.39 g/m*3 4.5 C 0 km/h
909 20-03-2016 03:40:00 4.5 C 5.39 g/m*3 4.5 C 0 km/h
910 20-03-2016 03:45:00 4.5 C 5.32 g/m*3 4.5 C 0 km/h
911 20-03-2016 03:50:00 4.6 C 5.36 g/m*3 4.6 C 4.8 km/h
912 20-03-2016 03:55:00 4.7 C 5.4 g/m*3 3.25 C 6.4 km/h
913 20-03-2016 04:00:00 4.8 C 5.43 g/m*3 4.8 C 1.6 km/h
914 20-03-2016 04:05:00 4.8 C 5.43 g/m*3 2.49 C 9.7 km/h
915 20-03-2016 04:10:00 4.9 C 5.4 g/m*3 2.99 C 8.1 km/h
916 20-03-2016 04:15:00 4.9 C 5.4 g/m*3 3.48 C 6.4 km/h
917 20-03-2016 04:20:00 4.9 C 5.47 g/m*3 4.9 C 0 km/h
918 20-03-2016 04:25:00 4.9 C 5.47 g/m*3 4.9 C 0 km/h
919 20-03-2016 04:30:00 4.8 C 5.43 g/m*3 4.8 C 0 km/h
920 20-03-2016 04:35:00 4.8 C 5.43 g/m*3 4.8 C 3.2 km/h
921 20-03-2016 04:40:00 4.8 C 5.43 g/m*3 4.8 C 1.6 km/h
922 20-03-2016 04:45:00 4.8 C 5.43 g/m*3 4.8 C 0 km/h
923 20-03-2016 04:50:00 4.8 C 5.43 g/m*3 4.8 C 0 km/h
924 20-03-2016 04:55:00 4.8 C 5.43 g/m*3 4.8 C 3.2 km/h
925 20-03-2016 05:00:00 4.8 C 5.43 g/m*3 4.8 C 0 km/h
Sensor: Nr:Datum:Temp:Abs-Feuchte:Windchill:Wind:
Aussen-T/F 926 20-03-2016 05:05:00 4.8 C 5.43 g/m*3 4.8 C 0 km/h
927 20-03-2016 05:10:00 4.8 C 5.5 g/m*3 4.8 C 4.8 km/h
928 20-03-2016 05:15:00 4.8 C 5.43 g/m*3 4.8 C 1.6 km/h
929 20-03-2016 05:20:00 4.8 C 5.43 g/m*3 4.8 C 4.8 km/h
930 20-03-2016 05:25:00 4.8 C 5.43 g/m*3 3.36 C 6.4 km/h
931 20-03-2016 05:30:00 4.9 C 5.47 g/m*3 4.9 C 4.8 km/h
932 20-03-2016 05:35:00 4.9 C 5.47 g/m*3 4.9 C 1.6 km/h
933 20-03-2016 05:40:00 4.9 C 5.47 g/m*3 3.48 C 6.4 km/h
934 20-03-2016 05:45:00 4.9 C 5.47 g/m*3 3.48 C 6.4 km/h
935 20-03-2016 05:50:00 4.9 C 5.47 g/m*3 3.48 C 6.4 km/h
936 20-03-2016 05:55:00 4.9 C 5.47 g/m*3 4.9 C 4.8 km/h
937 20-03-2016 06:00:00 4.9 C 5.47 g/m*3 3.48 C 6.4 km/h
938 20-03-2016 06:05:00 4.9 C 5.47 g/m*3 3.48 C 6.4 km/h
939 20-03-2016 06:10:00 4.9 C 5.47 g/m*3 4.9 C 4.8 km/h
940 20-03-2016 06:15:00 4.9 C 5.47 g/m*3 4.9 C 3.2 km/h
941 20-03-2016 06:20:00 4.9 C 5.47 g/m*3 4.9 C 3.2 km/h
942 20-03-2016 06:25:00 4.9 C 5.47 g/m*3 4.9 C 4.8 km/h
943 20-03-2016 06:30:00 4.9 C 5.54 g/m*3 4.9 C 4.8 km/h
944 20-03-2016 06:35:00 4.9 C 5.54 g/m*3 2.99 C 8.1 km/h
945 20-03-2016 06:40:00 4.9 C 5.54 g/m*3 2.99 C 8.1 km/h
946 20-03-2016 06:45:00 4.9 C 5.54 g/m*3 3.48 C 6.4 km/h
947 20-03-2016 06:50:00 4.9 C 5.54 g/m*3 4.9 C 3.2 km/h
948 20-03-2016 06:55:00 4.9 C 5.54 g/m*3 4.9 C 4.8 km/h
949 20-03-2016 07:00:00 4.9 C 5.54 g/m*3 3.48 C 6.4 km/h
950 20-03-2016 07:05:00 4.8 C 5.5 g/m*3 2.87 C 8.1 km/h
Sensor: Nr:Datum:Temp:Abs-Feuchte:Windchill:Wind:
Aussen-T/F 951 20-03-2016 07:10:00 4.8 C 5.5 g/m*3 3.36 C 6.4 km/h
952 20-03-2016 07:15:00 4.8 C 5.5 g/m*3 3.36 C 6.4 km/h
953 20-03-2016 07:20:00 4.9 C 5.54 g/m*3 4.9 C 4.8 km/h
954 20-03-2016 07:25:00 4.9 C 5.6 g/m*3 4.9 C 3.2 km/h
955 20-03-2016 07:30:00 4.8 C 5.57 g/m*3 3.36 C 6.4 km/h
956 20-03-2016 07:35:00 4.8 C 5.57 g/m*3 4.8 C 3.2 km/h
957 20-03-2016 07:40:00 4.9 C 5.6 g/m*3 3.48 C 6.4 km/h
958 20-03-2016 07:45:00 4.8 C 5.57 g/m*3 4.8 C 3.2 km/h
959 20-03-2016 07:50:00 4.9 C 5.6 g/m*3 4.9 C 3.2 km/h
960 20-03-2016 07:55:00 4.8 C 5.57 g/m*3 2.15 C 11.3 km/h
961 20-03-2016 08:00:00 4.9 C 5.6 g/m*3 4.9 C 4.8 km/h
962 20-03-2016 08:05:00 4.9 C 5.6 g/m*3 1.7 C 14.5 km/h
963 20-03-2016 08:10:00 4.8 C 5.57 g/m*3 2.49 C 9.7 km/h
964 20-03-2016 08:15:00 4.8 C 5.57 g/m*3 2.87 C 8.1 km/h
965 20-03-2016 08:20:00 4.8 C 5.63 g/m*3 2.49 C 9.7 km/h
966 20-03-2016 08:25:00 4.8 C 5.63 g/m*3 2.49 C 9.7 km/h
967 20-03-2016 08:30:00 4.8 C 5.63 g/m*3 2.49 C 9.7 km/h
968 20-03-2016 08:35:00 4.8 C 5.63 g/m*3 2.87 C 8.1 km/h
969 20-03-2016 08:40:00 4.8 C 5.63 g/m*3 2.87 C 8.1 km/h
970 20-03-2016 08:45:00 4.8 C 5.63 g/m*3 4.8 C 4.8 km/h
971 20-03-2016 08:50:00 4.8 C 5.63 g/m*3 2.87 C 8.1 km/h
972 20-03-2016 08:55:00 4.8 C 5.63 g/m*3 3.36 C 6.4 km/h
973 20-03-2016 09:00:00 4.8 C 5.63 g/m*3 2.87 C 8.1 km/h
974 20-03-2016 09:05:00 4.8 C 5.63 g/m*3 2.87 C 8.1 km/h
975 20-03-2016 09:10:00 4.8 C 5.7 g/m*3 4.8 C 4.8 km/h
Sensor: Nr:Datum:Temp:Abs-Feuchte:Windchill:Wind:
Aussen-T/F 976 20-03-2016 09:15:00 4.8 C 5.7 g/m*3 4.8 C 4.8 km/h
977 20-03-2016 09:20:00 4.8 C 5.7 g/m*3 2.87 C 8.1 km/h
978 20-03-2016 09:25:00 4.8 C 5.7 g/m*3 2.15 C 11.3 km/h
979 20-03-2016 09:30:00 4.8 C 5.7 g/m*3 1.85 C 12.9 km/h
980 20-03-2016 09:35:00 4.8 C 5.7 g/m*3 2.49 C 9.7 km/h
981 20-03-2016 09:40:00 4.8 C 5.63 g/m*3 2.49 C 9.7 km/h
982 20-03-2016 09:45:00 4.8 C 5.63 g/m*3 2.87 C 8.1 km/h
983 20-03-2016 09:50:00 4.9 C 5.74 g/m*3 4.9 C 4.8 km/h
984 20-03-2016 09:55:00 4.9 C 5.74 g/m*3 4.9 C 4.8 km/h
985 20-03-2016 10:00:00 4.9 C 5.74 g/m*3 4.9 C 4.8 km/h
986 20-03-2016 10:05:00 4.9 C 5.74 g/m*3 3.48 C 6.4 km/h
987 20-03-2016 10:10:00 4.9 C 5.74 g/m*3 4.9 C 4.8 km/h
988 20-03-2016 10:15:00 4.9 C 5.74 g/m*3 4.9 C 4.8 km/h
989 20-03-2016 10:20:00 4.9 C 5.74 g/m*3 2.99 C 8.1 km/h
990 20-03-2016 10:25:00 5 C 5.78 g/m*3 5 C 3.2 km/h
991 20-03-2016 10:30:00 5.1 C 5.81 g/m*3 5.1 C 3.2 km/h
992 20-03-2016 10:35:00 5.1 C 5.81 g/m*3 5.1 C 3.2 km/h
993 20-03-2016 10:40:00 5.2 C 5.85 g/m*3 5.2 C 4.8 km/h
994 20-03-2016 10:45:00 5.2 C 5.78 g/m*3 2.96 C 9.7 km/h
995 20-03-2016 10:50:00 5.3 C 5.89 g/m*3 5.3 C 4.8 km/h
996 20-03-2016 10:55:00 5.3 C 5.89 g/m*3 5.3 C 1.6 km/h
997 20-03-2016 11:00:00 5.4 C 5.93 g/m*3 5.4 C 3.2 km/h
998 20-03-2016 11:05:00 5.7 C 5.98 g/m*3 5.7 C 3.2 km/h
999 20-03-2016 11:10:00 5.7 C 5.91 g/m*3 5.7 C 3.2 km/h
1000 20-03-2016 11:15:00 5.8 C 5.95 g/m*3 5.8 C 4.8 km/h
Sensor: Nr:Datum:Temp:Abs-Feuchte:Windchill:Wind:
Aussen-T/F 1001 20-03-2016 11:20:00 5.9 C 5.98 g/m*3 4.63 C 6.4 km/h
1002 20-03-2016 11:25:00 5.8 C 5.87 g/m*3 3.68 C 9.7 km/h
1003 20-03-2016 11:30:00 5.8 C 5.95 g/m*3 5.8 C 3.2 km/h
1004 20-03-2016 11:35:00 5.8 C 5.95 g/m*3 4.52 C 6.4 km/h
1005 20-03-2016 11:40:00 5.8 C 5.95 g/m*3 5.8 C 4.8 km/h
1006 20-03-2016 11:45:00 5.8 C 5.95 g/m*3 3.68 C 9.7 km/h
1007 20-03-2016 11:50:00 5.8 C 6.02 g/m*3 4.05 C 8.1 km/h
1008 20-03-2016 11:55:00 5.7 C 5.98 g/m*3 5.7 C 4.8 km/h
1009 20-03-2016 12:00:00 5.7 C 6.05 g/m*3 4.4 C 6.4 km/h
1010 20-03-2016 12:05:00 5.7 C 6.05 g/m*3 3.93 C 8.1 km/h
1011 20-03-2016 12:10:00 5.7 C 6.05 g/m*3 5.7 C 3.2 km/h
1012 20-03-2016 12:15:00 5.8 C 6.16 g/m*3 4.52 C 6.4 km/h
1013 20-03-2016 12:20:00 5.7 C 6.05 g/m*3 3.56 C 9.7 km/h
1014 20-03-2016 12:25:00 5.7 C 6.12 g/m*3 3.56 C 9.7 km/h
1015 20-03-2016 12:30:00 5.7 C 6.12 g/m*3 3.23 C 11.3 km/h
1016 20-03-2016 12:35:00 5.8 C 6.16 g/m*3 4.05 C 8.1 km/h
1017 20-03-2016 12:40:00 5.8 C 6.16 g/m*3 3.36 C 11.3 km/h
1018 20-03-2016 12:45:00 5.7 C 6.12 g/m*3 4.4 C 6.4 km/h
1019 20-03-2016 12:50:00 5.7 C 6.12 g/m*3 4.4 C 6.4 km/h
1020 20-03-2016 12:55:00 5.7 C 6.12 g/m*3 4.4 C 6.4 km/h
1021 20-03-2016 13:00:00 5.7 C 6.12 g/m*3 4.4 C 6.4 km/h
1022 20-03-2016 13:05:00 5.7 C 6.12 g/m*3 3.93 C 8.1 km/h
1023 20-03-2016 13:10:00 5.7 C 6.12 g/m*3 4.4 C 6.4 km/h
1024 20-03-2016 13:15:00 5.9 C 6.27 g/m*3 5.9 C 4.8 km/h
1025 20-03-2016 13:20:00 6.1 C 6.28 g/m*3 6.1 C 1.6 km/h
Sensor: Nr:Datum:Temp:Abs-Feuchte:Windchill:Wind:
Aussen-T/F 1026 20-03-2016 13:25:00 6.2 C 6.25 g/m*3 6.2 C 3.2 km/h
1027 20-03-2016 13:30:00 6.3 C 6.14 g/m*3 6.3 C 3.2 km/h
1028 20-03-2016 13:35:00 6.4 C 6.11 g/m*3 5.21 C 6.4 km/h
1029 20-03-2016 13:40:00 6.4 C 6.11 g/m*3 5.21 C 6.4 km/h
1030 20-03-2016 13:45:00 6.6 C 6.19 g/m*3 5.44 C 6.4 km/h
1031 20-03-2016 13:50:00 6.6 C 6.11 g/m*3 4.99 C 8.1 km/h
1032 20-03-2016 13:55:00 6.7 C 6.15 g/m*3 5.56 C 6.4 km/h
1033 20-03-2016 14:00:00 6.7 C 6.08 g/m*3 4.75 C 9.7 km/h
1034 20-03-2016 14:05:00 6.7 C 6 g/m*3 5.11 C 8.1 km/h
1035 20-03-2016 14:10:00 6.8 C 6.04 g/m*3 5.67 C 6.4 km/h
1036 20-03-2016 14:15:00 6.7 C 6 g/m*3 6.7 C 3.2 km/h
1037 20-03-2016 14:20:00 6.7 C 6 g/m*3 5.11 C 8.1 km/h
1038 20-03-2016 14:25:00 6.7 C 6.08 g/m*3 6.7 C 4.8 km/h
1039 20-03-2016 14:30:00 6.8 C 6.04 g/m*3 5.67 C 6.4 km/h
1040 20-03-2016 14:35:00 6.8 C 6.04 g/m*3 6.8 C 4.8 km/h
1041 20-03-2016 14:40:00 6.8 C 6.04 g/m*3 6.8 C 4.8 km/h
1042 20-03-2016 14:45:00 6.8 C 5.97 g/m*3 5.67 C 6.4 km/h
1043 20-03-2016 14:50:00 6.8 C 5.97 g/m*3 5.22 C 8.1 km/h
1044 20-03-2016 14:55:00 6.8 C 5.97 g/m*3 5.67 C 6.4 km/h
1045 20-03-2016 15:00:00 6.8 C 5.97 g/m*3 6.8 C 4.8 km/h
1046 20-03-2016 15:05:00 6.8 C 5.97 g/m*3 4.56 C 11.3 km/h
1047 20-03-2016 15:10:00 6.8 C 6.04 g/m*3 6.8 C 4.8 km/h
1048 20-03-2016 15:15:00 6.8 C 5.81 g/m*3 4.87 C 9.7 km/h
1049 20-03-2016 15:20:00 6.9 C 5.85 g/m*3 5.34 C 8.1 km/h
1050 20-03-2016 15:25:00 6.9 C 5.93 g/m*3 6.9 C 4.8 km/h
Sensor: Nr:Datum:Temp:Abs-Feuchte:Windchill:Wind:
Aussen-T/F 1051 20-03-2016 15:30:00 7.1 C 5.93 g/m*3 5.58 C 8.1 km/h
1052 20-03-2016 15:35:00 7.1 C 6.01 g/m*3 6.02 C 6.4 km/h
1053 20-03-2016 15:40:00 7.3 C 6 g/m*3 7.3 C 4.8 km/h
1054 20-03-2016 15:45:00 7.4 C 5.96 g/m*3 7.4 C 3.2 km/h
1055 20-03-2016 15:50:00 7.6 C 5.96 g/m*3 6.16 C 8.1 km/h
1056 20-03-2016 15:55:00 7.5 C 5.68 g/m*3 5.7 C 9.7 km/h
1057 20-03-2016 16:00:00 7.4 C 5.65 g/m*3 5.93 C 8.1 km/h
1058 20-03-2016 16:05:00 7.4 C 5.65 g/m*3 6.37 C 6.4 km/h
1059 20-03-2016 16:10:00 7.4 C 5.73 g/m*3 7.4 C 4.8 km/h
1060 20-03-2016 16:15:00 7.4 C 5.65 g/m*3 6.37 C 6.4 km/h
1061 20-03-2016 16:20:00 7.4 C 5.57 g/m*3 7.4 C 4.8 km/h
1062 20-03-2016 16:25:00 7.4 C 5.65 g/m*3 7.4 C 3.2 km/h
1063 20-03-2016 16:30:00 7.5 C 5.76 g/m*3 7.5 C 1.6 km/h
1064 20-03-2016 16:35:00 7.5 C 5.68 g/m*3 7.5 C 1.6 km/h
1065 20-03-2016 16:40:00 7.5 C 5.68 g/m*3 7.5 C 3.2 km/h
1066 20-03-2016 16:45:00 7.6 C 5.72 g/m*3 7.6 C 3.2 km/h
1067 20-03-2016 16:50:00 7.6 C 5.72 g/m*3 7.6 C 3.2 km/h
1068 20-03-2016 16:55:00 7.6 C 5.72 g/m*3 7.6 C 3.2 km/h
1069 20-03-2016 17:00:00 7.6 C 5.8 g/m*3 7.6 C 3.2 km/h
1070 20-03-2016 17:05:00 7.6 C 5.8 g/m*3 7.6 C 0 km/h
1071 20-03-2016 17:10:00 7.6 C 5.8 g/m*3 7.6 C 4.8 km/h
1072 20-03-2016 17:15:00 7.6 C 5.8 g/m*3 7.6 C 3.2 km/h
1073 20-03-2016 17:20:00 7.6 C 5.88 g/m*3 6.6 C 6.4 km/h
1074 20-03-2016 17:25:00 7.7 C 5.92 g/m*3 7.7 C 4.8 km/h
1075 20-03-2016 17:30:00 7.7 C 6 g/m*3 7.7 C 4.8 km/h
Sensor: Nr:Datum:Temp:Abs-Feuchte:Windchill:Wind:
Aussen-T/F 1076 20-03-2016 17:35:00 7.7 C 6 g/m*3 6.71 C 6.4 km/h
1077 20-03-2016 17:40:00 7.7 C 6 g/m*3 7.7 C 4.8 km/h
1078 20-03-2016 17:45:00 7.6 C 5.96 g/m*3 7.6 C 3.2 km/h
1079 20-03-2016 17:50:00 7.6 C 5.96 g/m*3 6.16 C 8.1 km/h
1080 20-03-2016 17:55:00 7.6 C 5.96 g/m*3 6.6 C 6.4 km/h
1081 20-03-2016 18:00:00 7.6 C 5.96 g/m*3 7.6 C 3.2 km/h
1082 20-03-2016 18:05:00 7.5 C 6 g/m*3 7.5 C 3.2 km/h
1083 20-03-2016 18:10:00 7.4 C 5.88 g/m*3 7.4 C 4.8 km/h
1084 20-03-2016 18:15:00 7.4 C 5.96 g/m*3 5.93 C 8.1 km/h
1085 20-03-2016 18:20:00 7.4 C 5.96 g/m*3 7.4 C 4.8 km/h
1086 20-03-2016 18:25:00 7.4 C 5.96 g/m*3 7.4 C 1.6 km/h
1087 20-03-2016 18:30:00 7.4 C 5.96 g/m*3 5.93 C 8.1 km/h
1088 20-03-2016 18:35:00 7.3 C 6 g/m*3 7.3 C 0 km/h
1089 20-03-2016 18:40:00 7.3 C 6 g/m*3 7.3 C 0 km/h
1090 20-03-2016 18:45:00 7.2 C 6.04 g/m*3 7.2 C 1.6 km/h
1091 20-03-2016 18:50:00 7.1 C 6.01 g/m*3 7.1 C 0 km/h
1092 20-03-2016 18:55:00 7 C 5.97 g/m*3 7 C 3.2 km/h
1093 20-03-2016 19:00:00 7 C 5.97 g/m*3 7 C 0 km/h
1094 20-03-2016 19:05:00 6.9 C 6 g/m*3 6.9 C 1.6 km/h
1095 20-03-2016 19:10:00 6.9 C 6 g/m*3 6.9 C 1.6 km/h
1096 20-03-2016 19:15:00 6.8 C 5.97 g/m*3 6.8 C 3.2 km/h
1097 20-03-2016 19:20:00 6.8 C 6.04 g/m*3 6.8 C 3.2 km/h
1098 20-03-2016 19:25:00 6.7 C 6 g/m*3 6.7 C 0 km/h
1099 20-03-2016 19:30:00 6.7 C 6 g/m*3 6.7 C 1.6 km/h
1100 20-03-2016 19:35:00 6.7 C 6.08 g/m*3 6.7 C 1.6 km/h
Sensor: Nr:Datum:Temp:Abs-Feuchte:Windchill:Wind:
Aussen-T/F 1101 20-03-2016 19:40:00 6.7 C 6 g/m*3 6.7 C 4.8 km/h
1102 20-03-2016 19:45:00 6.7 C 5.93 g/m*3 6.7 C 1.6 km/h
1103 20-03-2016 19:50:00 6.8 C 6.04 g/m*3 6.8 C 0 km/h
1104 20-03-2016 19:55:00 6.8 C 5.97 g/m*3 6.8 C 3.2 km/h
1105 20-03-2016 20:00:00 6.9 C 6 g/m*3 6.9 C 1.6 km/h
1106 20-03-2016 20:05:00 6.9 C 6 g/m*3 6.9 C 3.2 km/h
1107 20-03-2016 20:10:00 6.9 C 6.08 g/m*3 6.9 C 0 km/h
1108 20-03-2016 20:15:00 6.9 C 6.08 g/m*3 6.9 C 0 km/h
1109 20-03-2016 20:20:00 6.8 C 6.04 g/m*3 6.8 C 0 km/h
1110 20-03-2016 20:25:00 6.8 C 6.12 g/m*3 6.8 C 0 km/h
1111 20-03-2016 20:30:00 6.8 C 6.12 g/m*3 6.8 C 0 km/h
1112 20-03-2016 20:35:00 6.7 C 6.15 g/m*3 6.7 C 0 km/h
1113 20-03-2016 20:40:00 6.7 C 6.15 g/m*3 6.7 C 0 km/h
1114 20-03-2016 20:45:00 6.6 C 6.19 g/m*3 6.6 C 1.6 km/h
1115 20-03-2016 20:50:00 6.6 C 6.19 g/m*3 6.6 C 3.2 km/h
1116 20-03-2016 20:55:00 6.6 C 6.11 g/m*3 6.6 C 1.6 km/h
1117 20-03-2016 21:00:00 6.6 C 6.19 g/m*3 6.6 C 0 km/h
1118 20-03-2016 21:05:00 6.6 C 6.27 g/m*3 6.6 C 1.6 km/h
1119 20-03-2016 21:10:00 6.6 C 6.27 g/m*3 6.6 C 1.6 km/h
1120 20-03-2016 21:15:00 6.6 C 6.27 g/m*3 6.6 C 0 km/h
1121 20-03-2016 21:20:00 6.5 C 6.22 g/m*3 6.5 C 3.2 km/h
1122 20-03-2016 21:25:00 6.6 C 6.27 g/m*3 6.6 C 3.2 km/h
1123 20-03-2016 21:30:00 6.6 C 6.27 g/m*3 6.6 C 0 km/h
1124 20-03-2016 21:35:00 6.5 C 6.22 g/m*3 6.5 C 0 km/h
1125 20-03-2016 21:40:00 6.4 C 6.26 g/m*3 6.4 C 1.6 km/h
Sensor: Nr:Datum:Temp:Abs-Feuchte:Windchill:Wind:
Aussen-T/F 1126 20-03-2016 21:45:00 6.4 C 6.26 g/m*3 6.4 C 0 km/h
1127 20-03-2016 21:50:00 6.4 C 6.26 g/m*3 6.4 C 1.6 km/h
1128 20-03-2016 21:55:00 6.4 C 6.33 g/m*3 6.4 C 0 km/h
1129 20-03-2016 22:00:00 6.4 C 6.33 g/m*3 6.4 C 0 km/h
1130 20-03-2016 22:05:00 6.4 C 6.33 g/m*3 6.4 C 1.6 km/h
1131 20-03-2016 22:10:00 6.4 C 6.41 g/m*3 6.4 C 1.6 km/h
1132 20-03-2016 22:15:00 6.4 C 6.41 g/m*3 6.4 C 1.6 km/h
1133 20-03-2016 22:20:00 6.4 C 6.48 g/m*3 6.4 C 1.6 km/h
1134 20-03-2016 22:25:00 6.5 C 6.52 g/m*3 6.5 C 1.6 km/h
1135 20-03-2016 22:30:00 6.5 C 6.52 g/m*3 6.5 C 0 km/h
1136 20-03-2016 22:35:00 6.5 C 6.52 g/m*3 6.5 C 0 km/h
1137 20-03-2016 22:40:00 6.5 C 6.52 g/m*3 6.5 C 0 km/h
1138 20-03-2016 22:45:00 6.5 C 6.52 g/m*3 6.5 C 0 km/h
1139 20-03-2016 22:50:00 6.5 C 6.6 g/m*3 6.5 C 1.6 km/h
1140 20-03-2016 22:55:00 6.5 C 6.6 g/m*3 6.5 C 0 km/h
1141 20-03-2016 23:00:00 6.5 C 6.6 g/m*3 6.5 C 1.6 km/h
1142 20-03-2016 23:05:00 6.5 C 6.6 g/m*3 6.5 C 0 km/h
1143 20-03-2016 23:10:00 6.4 C 6.56 g/m*3 6.4 C 0 km/h
1144 20-03-2016 23:15:00 6.5 C 6.6 g/m*3 6.5 C 0 km/h
1145 20-03-2016 23:20:00 6.4 C 6.63 g/m*3 6.4 C 0 km/h
1146 20-03-2016 23:25:00 6.4 C 6.63 g/m*3 6.4 C 0 km/h
1147 20-03-2016 23:30:00 6.4 C 6.63 g/m*3 6.4 C 0 km/h
1148 20-03-2016 23:35:00 6.4 C 6.63 g/m*3 6.4 C 0 km/h
1149 20-03-2016 23:40:00 6.4 C 6.63 g/m*3 6.4 C 0 km/h
1150 20-03-2016 23:45:00 6.4 C 6.63 g/m*3 6.4 C 0 km/h
Sensor: Nr:Datum:Temp:Abs-Feuchte:Windchill:Wind:
Aussen-T/F 1151 20-03-2016 23:50:00 6.4 C 6.63 g/m*3 6.4 C 4.8 km/h
1152 20-03-2016 23:55:00 6.5 C 6.67 g/m*3 6.5 C 0 km/h
1153 21-03-2016 00:00:00 6.5 C 6.75 g/m*3 6.5 C 0 km/h
1154 21-03-2016 00:05:00 6.4 C 6.71 g/m*3 6.4 C 3.2 km/h
1155 21-03-2016 00:10:00 6.4 C 6.71 g/m*3 6.4 C 0 km/h
1156 21-03-2016 00:15:00 6.4 C 6.71 g/m*3 6.4 C 0 km/h
1157 21-03-2016 00:20:00 6.4 C 6.78 g/m*3 6.4 C 4.8 km/h
1158 21-03-2016 00:25:00 6.3 C 6.74 g/m*3 6.3 C 0 km/h
1159 21-03-2016 00:30:00 6.3 C 6.74 g/m*3 6.3 C 3.2 km/h
1160 21-03-2016 00:35:00 6.2 C 6.69 g/m*3 6.2 C 0 km/h
1161 21-03-2016 00:40:00 6.2 C 6.77 g/m*3 6.2 C 0 km/h
1162 21-03-2016 00:45:00 6.2 C 6.77 g/m*3 6.2 C 4.8 km/h
1163 21-03-2016 00:50:00 6.1 C 6.72 g/m*3 6.1 C 0 km/h
1164 21-03-2016 00:55:00 6.1 C 6.72 g/m*3 6.1 C 4.8 km/h
1165 21-03-2016 01:00:00 6.1 C 6.72 g/m*3 6.1 C 0 km/h
1166 21-03-2016 01:05:00 6.1 C 6.72 g/m*3 6.1 C 1.6 km/h
1167 21-03-2016 01:10:00 6 C 6.68 g/m*3 6 C 1.6 km/h
1168 21-03-2016 01:15:00 6 C 6.68 g/m*3 6 C 1.6 km/h
1169 21-03-2016 01:20:00 6 C 6.75 g/m*3 6 C 0 km/h
1170 21-03-2016 01:25:00 5.9 C 6.71 g/m*3 5.9 C 0 km/h
1171 21-03-2016 01:30:00 5.9 C 6.71 g/m*3 5.9 C 0 km/h
1172 21-03-2016 01:35:00 5.9 C 6.71 g/m*3 5.9 C 3.2 km/h
1173 21-03-2016 01:40:00 5.9 C 6.71 g/m*3 5.9 C 1.6 km/h
1174 21-03-2016 01:45:00 5.9 C 6.71 g/m*3 5.9 C 0 km/h
1175 21-03-2016 01:50:00 5.9 C 6.71 g/m*3 5.9 C 1.6 km/h
Sensor: Nr:Datum:Temp:Abs-Feuchte:Windchill:Wind:
Aussen-T/F 1176 21-03-2016 01:55:00 5.9 C 6.78 g/m*3 5.9 C 0 km/h
1177 21-03-2016 02:00:00 5.9 C 6.78 g/m*3 5.9 C 1.6 km/h
1178 21-03-2016 02:05:00 5.9 C 6.78 g/m*3 5.9 C 1.6 km/h
1179 21-03-2016 02:10:00 5.9 C 6.78 g/m*3 5.9 C 1.6 km/h
1180 21-03-2016 02:15:00 5.9 C 6.78 g/m*3 5.9 C 0 km/h
1181 21-03-2016 02:20:00 5.9 C 6.78 g/m*3 5.9 C 0 km/h
1182 21-03-2016 02:25:00 5.9 C 6.78 g/m*3 5.9 C 0 km/h
1183 21-03-2016 02:30:00 5.9 C 6.78 g/m*3 5.9 C 0 km/h
1184 21-03-2016 02:35:00 5.9 C 6.78 g/m*3 5.9 C 1.6 km/h
1185 21-03-2016 02:40:00 5.9 C 6.78 g/m*3 5.9 C 0 km/h
1186 21-03-2016 02:45:00 6 C 6.82 g/m*3 6 C 0 km/h
1187 21-03-2016 02:50:00 6.1 C 6.87 g/m*3 6.1 C 0 km/h
1188 21-03-2016 02:55:00 6.1 C 6.87 g/m*3 6.1 C 0 km/h
1189 21-03-2016 03:00:00 6.1 C 6.87 g/m*3 6.1 C 0 km/h
1190 21-03-2016 03:05:00 6.1 C 6.87 g/m*3 6.1 C 0 km/h
1191 21-03-2016 03:10:00 6.1 C 6.87 g/m*3 6.1 C 0 km/h
1192 21-03-2016 03:15:00 6.1 C 6.87 g/m*3 6.1 C 0 km/h
1193 21-03-2016 03:20:00 6 C 6.82 g/m*3 6 C 0 km/h
1194 21-03-2016 03:25:00 6 C 6.82 g/m*3 6 C 1.6 km/h
1195 21-03-2016 03:30:00 6 C 6.9 g/m*3 6 C 1.6 km/h
1196 21-03-2016 03:35:00 6 C 6.9 g/m*3 6 C 3.2 km/h
1197 21-03-2016 03:40:00 6.1 C 6.94 g/m*3 6.1 C 1.6 km/h
1198 21-03-2016 03:45:00 6.1 C 6.94 g/m*3 6.1 C 3.2 km/h
1199 21-03-2016 03:50:00 6.2 C 6.99 g/m*3 6.2 C 1.6 km/h
1200 21-03-2016 03:55:00 6.2 C 6.99 g/m*3 6.2 C 1.6 km/h
Sensor: Nr:Datum:Temp:Abs-Feuchte:Windchill:Wind:
Aussen-T/F 1201 21-03-2016 04:00:00 6.2 C 6.99 g/m*3 6.2 C 0 km/h
1202 21-03-2016 04:05:00 6.2 C 6.99 g/m*3 6.2 C 3.2 km/h
1203 21-03-2016 04:10:00 6.2 C 6.99 g/m*3 4.98 C 6.4 km/h
1204 21-03-2016 04:15:00 6.2 C 6.99 g/m*3 6.2 C 1.6 km/h
1205 21-03-2016 04:20:00 6.2 C 6.99 g/m*3 6.2 C 0 km/h
1206 21-03-2016 04:25:00 6.2 C 6.99 g/m*3 6.2 C 0 km/h
1207 21-03-2016 04:30:00 6.2 C 6.99 g/m*3 6.2 C 0 km/h
1208 21-03-2016 04:35:00 6.2 C 6.99 g/m*3 6.2 C 1.6 km/h
1209 21-03-2016 04:40:00 6.2 C 6.99 g/m*3 6.2 C 4.8 km/h
1210 21-03-2016 04:45:00 6.2 C 6.99 g/m*3 4.52 C 8.1 km/h
1211 21-03-2016 04:50:00 6.2 C 6.99 g/m*3 4.52 C 8.1 km/h
1212 21-03-2016 04:55:00 6.2 C 6.99 g/m*3 6.2 C 3.2 km/h
1213 21-03-2016 05:00:00 6.2 C 6.99 g/m*3 6.2 C 3.2 km/h
1214 21-03-2016 05:05:00 6.2 C 6.99 g/m*3 6.2 C 3.2 km/h
1215 21-03-2016 05:10:00 6.2 C 6.91 g/m*3 6.2 C 4.8 km/h
1216 21-03-2016 05:15:00 6.2 C 6.91 g/m*3 4.98 C 6.4 km/h
1217 21-03-2016 05:20:00 6.1 C 6.87 g/m*3 4.86 C 6.4 km/h
1218 21-03-2016 05:25:00 6.1 C 6.87 g/m*3 6.1 C 4.8 km/h
1219 21-03-2016 05:30:00 6.1 C 6.87 g/m*3 6.1 C 4.8 km/h
1220 21-03-2016 05:35:00 6.1 C 6.79 g/m*3 6.1 C 1.6 km/h
1221 21-03-2016 05:40:00 6.1 C 6.79 g/m*3 4.04 C 9.7 km/h
1222 21-03-2016 05:45:00 6.1 C 6.79 g/m*3 6.1 C 3.2 km/h
1223 21-03-2016 05:50:00 6.1 C 6.79 g/m*3 6.1 C 4.8 km/h
1224 21-03-2016 05:55:00 6.1 C 6.79 g/m*3 4.86 C 6.4 km/h
1225 21-03-2016 06:00:00 6.1 C 6.72 g/m*3 4.4 C 8.1 km/h
Sensor: Nr:Datum:Temp:Abs-Feuchte:Windchill:Wind:
Aussen-T/F 1226 21-03-2016 06:05:00 6.1 C 6.72 g/m*3 6.1 C 0 km/h
1227 21-03-2016 06:10:00 6.1 C 6.72 g/m*3 6.1 C 3.2 km/h
1228 21-03-2016 06:15:00 6.1 C 6.72 g/m*3 4.04 C 9.7 km/h
1229 21-03-2016 06:20:00 6.1 C 6.72 g/m*3 4.4 C 8.1 km/h
1230 21-03-2016 06:25:00 6.1 C 6.72 g/m*3 4.04 C 9.7 km/h
1231 21-03-2016 06:30:00 6.1 C 6.72 g/m*3 4.86 C 6.4 km/h
1232 21-03-2016 06:35:00 6.1 C 6.72 g/m*3 6.1 C 4.8 km/h
1233 21-03-2016 06:40:00 6 C 6.68 g/m*3 6 C 3.2 km/h
1234 21-03-2016 06:45:00 6 C 6.68 g/m*3 4.75 C 6.4 km/h
1235 21-03-2016 06:50:00 6 C 6.68 g/m*3 6 C 3.2 km/h
1236 21-03-2016 06:55:00 5.9 C 6.63 g/m*3 5.9 C 1.6 km/h
1237 21-03-2016 07:00:00 5.9 C 6.63 g/m*3 5.9 C 4.8 km/h
1238 21-03-2016 07:05:00 5.9 C 6.63 g/m*3 5.9 C 4.8 km/h
1239 21-03-2016 07:10:00 5.9 C 6.63 g/m*3 5.9 C 1.6 km/h
1240 21-03-2016 07:15:00 5.9 C 6.63 g/m*3 3.8 C 9.7 km/h
1241 21-03-2016 07:20:00 5.9 C 6.63 g/m*3 5.9 C 0 km/h
1242 21-03-2016 07:25:00 6 C 6.68 g/m*3 6 C 0 km/h
1243 21-03-2016 07:30:00 6 C 6.68 g/m*3 6 C 3.2 km/h
1244 21-03-2016 07:35:00 6.1 C 6.72 g/m*3 6.1 C 0 km/h
1245 21-03-2016 07:40:00 6.1 C 6.72 g/m*3 6.1 C 3.2 km/h
1246 21-03-2016 07:45:00 6.1 C 6.72 g/m*3 6.1 C 3.2 km/h
1247 21-03-2016 07:50:00 6.1 C 6.65 g/m*3 6.1 C 4.8 km/h
1248 21-03-2016 07:55:00 6.1 C 6.72 g/m*3 6.1 C 3.2 km/h
1249 21-03-2016 08:00:00 6.1 C 6.72 g/m*3 6.1 C 4.8 km/h
1250 21-03-2016 08:05:00 6.1 C 6.65 g/m*3 3.43 C 12.9 km/h
Sensor: Nr:Datum:Temp:Abs-Feuchte:Windchill:Wind:
Aussen-T/F 1251 21-03-2016 08:10:00 6 C 6.6 g/m*3 6 C 4.8 km/h
1252 21-03-2016 08:15:00 6 C 6.6 g/m*3 6 C 4.8 km/h
1253 21-03-2016 08:20:00 6 C 6.6 g/m*3 6 C 1.6 km/h
1254 21-03-2016 08:25:00 6.1 C 6.65 g/m*3 6.1 C 1.6 km/h
1255 21-03-2016 08:30:00 6.1 C 6.65 g/m*3 6.1 C 0 km/h
1256 21-03-2016 08:35:00 6.1 C 6.72 g/m*3 6.1 C 0 km/h
1257 21-03-2016 08:40:00 6.1 C 6.65 g/m*3 6.1 C 0 km/h
1258 21-03-2016 08:45:00 6.1 C 6.72 g/m*3 6.1 C 0 km/h
1259 21-03-2016 08:50:00 6.2 C 6.77 g/m*3 6.2 C 0 km/h
1260 21-03-2016 08:55:00 6.2 C 6.77 g/m*3 6.2 C 1.6 km/h
1261 21-03-2016 09:00:00 6.2 C 6.69 g/m*3 6.2 C 4.8 km/h
1262 21-03-2016 09:05:00 6.2 C 6.62 g/m*3 6.2 C 3.2 km/h
1263 21-03-2016 09:10:00 6.2 C 6.62 g/m*3 6.2 C 0 km/h
1264 21-03-2016 09:15:00 6.3 C 6.74 g/m*3 6.3 C 0 km/h
1265 21-03-2016 09:20:00 6.4 C 6.78 g/m*3 6.4 C 4.8 km/h
1266 21-03-2016 09:25:00 6.4 C 6.78 g/m*3 6.4 C 3.2 km/h
1267 21-03-2016 09:30:00 6.5 C 6.75 g/m*3 6.5 C 1.6 km/h
1268 21-03-2016 09:35:00 6.6 C 6.79 g/m*3 6.6 C 1.6 km/h
1269 21-03-2016 09:40:00 6.7 C 6.84 g/m*3 6.7 C 0 km/h
1270 21-03-2016 09:45:00 6.8 C 6.88 g/m*3 6.8 C 0 km/h
1271 21-03-2016 09:50:00 6.8 C 6.88 g/m*3 6.8 C 4.8 km/h
1272 21-03-2016 09:55:00 6.9 C 6.85 g/m*3 6.9 C 0 km/h
1273 21-03-2016 10:00:00 6.9 C 6.77 g/m*3 6.9 C 1.6 km/h
1274 21-03-2016 10:05:00 7 C 6.9 g/m*3 7 C 3.2 km/h
1275 21-03-2016 10:10:00 7.1 C 6.86 g/m*3 7.1 C 4.8 km/h
Sensor: Nr:Datum:Temp:Abs-Feuchte:Windchill:Wind:
Aussen-T/F 1276 21-03-2016 10:15:00 7.2 C 6.91 g/m*3 7.2 C 4.8 km/h
1277 21-03-2016 10:20:00 7.3 C 6.79 g/m*3 5.81 C 8.1 km/h
1278 21-03-2016 10:25:00 7.3 C 6.87 g/m*3 7.3 C 4.8 km/h
1279 21-03-2016 10:30:00 7.3 C 6.79 g/m*3 7.3 C 4.8 km/h
1280 21-03-2016 10:35:00 7.4 C 6.84 g/m*3 5.58 C 9.7 km/h
1281 21-03-2016 10:40:00 7.4 C 6.84 g/m*3 5.93 C 8.1 km/h
1282 21-03-2016 10:45:00 7.6 C 6.85 g/m*3 5.82 C 9.7 km/h
1283 21-03-2016 10:50:00 7.6 C 6.85 g/m*3 6.16 C 8.1 km/h
1284 21-03-2016 10:55:00 7.7 C 6.89 g/m*3 6.71 C 6.4 km/h
1285 21-03-2016 11:00:00 7.8 C 6.94 g/m*3 6.83 C 6.4 km/h
1286 21-03-2016 11:05:00 7.8 C 6.94 g/m*3 7.8 C 4.8 km/h
1287 21-03-2016 11:10:00 7.9 C 6.9 g/m*3 6.52 C 8.1 km/h
1288 21-03-2016 11:15:00 8 C 7.03 g/m*3 7.06 C 6.4 km/h
1289 21-03-2016 11:20:00 8.1 C 6.99 g/m*3 6.42 C 9.7 km/h
1290 21-03-2016 11:25:00 8.2 C 7.03 g/m*3 6.54 C 9.7 km/h
1291 21-03-2016 11:30:00 8.3 C 6.91 g/m*3 6.66 C 9.7 km/h
1292 21-03-2016 11:35:00 8.3 C 6.91 g/m*3 6.99 C 8.1 km/h
1293 21-03-2016 11:40:00 8.3 C 6.91 g/m*3 6.99 C 8.1 km/h
1294 21-03-2016 11:45:00 8.3 C 6.91 g/m*3 6.99 C 8.1 km/h
1295 21-03-2016 11:50:00 8.3 C 6.91 g/m*3 6.99 C 8.1 km/h
1296 21-03-2016 11:55:00 8.3 C 6.91 g/m*3 6.66 C 9.7 km/h
1297 21-03-2016 12:00:00 8.3 C 6.83 g/m*3 6.99 C 8.1 km/h
1298 21-03-2016 12:05:00 8.3 C 6.83 g/m*3 6.66 C 9.7 km/h
1299 21-03-2016 12:10:00 8.4 C 6.87 g/m*3 7.11 C 8.1 km/h
1300 21-03-2016 12:15:00 8.5 C 6.92 g/m*3 7.22 C 8.1 km/h
Sensor: Nr:Datum:Temp:Abs-Feuchte:Windchill:Wind:
Aussen-T/F 1301 21-03-2016 12:20:00 8.6 C 6.96 g/m*3 6.73 C 11.3 km/h
1302 21-03-2016 12:25:00 8.6 C 6.87 g/m*3 7.01 C 9.7 km/h
1303 21-03-2016 12:30:00 8.5 C 6.92 g/m*3 6.36 C 12.9 km/h
1304 21-03-2016 12:35:00 8.5 C 6.83 g/m*3 6.61 C 11.3 km/h
1305 21-03-2016 12:40:00 8.4 C 6.79 g/m*3 6.24 C 12.9 km/h
1306 21-03-2016 12:45:00 8.3 C 6.83 g/m*3 6.37 C 11.3 km/h
1307 21-03-2016 12:50:00 8.2 C 6.78 g/m*3 6.25 C 11.3 km/h
1308 21-03-2016 12:55:00 8.2 C 6.78 g/m*3 6.25 C 11.3 km/h
1309 21-03-2016 13:00:00 8.2 C 6.78 g/m*3 6.87 C 8.1 km/h
1310 21-03-2016 13:05:00 8.2 C 6.78 g/m*3 6.87 C 8.1 km/h
1311 21-03-2016 13:10:00 8.3 C 6.83 g/m*3 6.37 C 11.3 km/h
1312 21-03-2016 13:15:00 8.4 C 6.87 g/m*3 6.24 C 12.9 km/h
1313 21-03-2016 13:20:00 8.5 C 6.92 g/m*3 7.22 C 8.1 km/h
1314 21-03-2016 13:25:00 8.5 C 6.83 g/m*3 6.9 C 9.7 km/h
1315 21-03-2016 13:30:00 8.4 C 6.7 g/m*3 6.49 C 11.3 km/h
1316 21-03-2016 13:35:00 8.4 C 6.62 g/m*3 6.78 C 9.7 km/h
1317 21-03-2016 13:40:00 8.3 C 6.57 g/m*3 6.37 C 11.3 km/h
1318 21-03-2016 13:45:00 8.2 C 6.45 g/m*3 5.99 C 12.9 km/h
1319 21-03-2016 13:50:00 8.2 C 6.53 g/m*3 6.25 C 11.3 km/h
1320 21-03-2016 13:55:00 8.2 C 6.62 g/m*3 6.54 C 9.7 km/h
1321 21-03-2016 14:00:00 8.2 C 6.62 g/m*3 6.54 C 9.7 km/h
1322 21-03-2016 14:05:00 8.1 C 6.49 g/m*3 6.75 C 8.1 km/h
1323 21-03-2016 14:10:00 8.1 C 6.49 g/m*3 7.17 C 6.4 km/h
1324 21-03-2016 14:15:00 8.1 C 6.49 g/m*3 7.17 C 6.4 km/h
1325 21-03-2016 14:20:00 8.1 C 6.49 g/m*3 6.13 C 11.3 km/h
Sensor: Nr:Datum:Temp:Abs-Feuchte:Windchill:Wind:
Aussen-T/F 1326 21-03-2016 14:25:00 8.1 C 6.57 g/m*3 6.42 C 9.7 km/h
1327 21-03-2016 14:30:00 8.1 C 6.57 g/m*3 5.87 C 12.9 km/h
1328 21-03-2016 14:35:00 8 C 6.61 g/m*3 5.75 C 12.9 km/h
1329 21-03-2016 14:40:00 7.9 C 6.49 g/m*3 5.63 C 12.9 km/h
1330 21-03-2016 14:45:00 7.8 C 6.37 g/m*3 5.77 C 11.3 km/h
1331 21-03-2016 14:50:00 7.8 C 6.37 g/m*3 6.83 C 6.4 km/h
1332 21-03-2016 14:55:00 7.8 C 6.37 g/m*3 6.83 C 6.4 km/h
1333 21-03-2016 15:00:00 7.8 C 6.37 g/m*3 7.8 C 4.8 km/h
1334 21-03-2016 15:05:00 7.8 C 6.28 g/m*3 6.83 C 6.4 km/h
1335 21-03-2016 15:10:00 7.9 C 6.32 g/m*3 7.9 C 4.8 km/h
1336 21-03-2016 15:15:00 8 C 6.37 g/m*3 8 C 3.2 km/h
1337 21-03-2016 15:20:00 8.1 C 6.41 g/m*3 7.17 C 6.4 km/h
1338 21-03-2016 15:25:00 8.3 C 6.41 g/m*3 6.66 C 9.7 km/h
1339 21-03-2016 15:30:00 8.4 C 6.45 g/m*3 6.78 C 9.7 km/h
1340 21-03-2016 15:35:00 8.4 C 6.36 g/m*3 6.78 C 9.7 km/h
1341 21-03-2016 15:40:00 8.4 C 6.36 g/m*3 6.78 C 9.7 km/h
1342 21-03-2016 15:45:00 8.4 C 6.36 g/m*3 6.78 C 9.7 km/h
1343 21-03-2016 15:50:00 8.4 C 6.45 g/m*3 7.52 C 6.4 km/h
1344 21-03-2016 15:55:00 8.4 C 6.45 g/m*3 6.49 C 11.3 km/h
1345 21-03-2016 16:00:00 8.4 C 6.45 g/m*3 7.52 C 6.4 km/h
1346 21-03-2016 16:05:00 8.4 C 6.53 g/m*3 8.4 C 3.2 km/h
1347 21-03-2016 16:10:00 8.5 C 6.49 g/m*3 8.5 C 1.6 km/h
1348 21-03-2016 16:15:00 8.5 C 6.49 g/m*3 8.5 C 4.8 km/h
1349 21-03-2016 16:20:00 8.5 C 6.4 g/m*3 7.64 C 6.4 km/h
1350 21-03-2016 16:25:00 8.5 C 6.32 g/m*3 6.9 C 9.7 km/h
Sensor: Nr:Datum:Temp:Abs-Feuchte:Windchill:Wind:
Aussen-T/F 1351 21-03-2016 16:30:00 8.5 C 6.4 g/m*3 7.22 C 8.1 km/h
1352 21-03-2016 16:35:00 8.4 C 6.36 g/m*3 6.49 C 11.3 km/h
1353 21-03-2016 16:40:00 8.4 C 6.36 g/m*3 6.49 C 11.3 km/h
1354 21-03-2016 16:45:00 8.3 C 6.32 g/m*3 5.89 C 14.5 km/h
1355 21-03-2016 16:50:00 8.3 C 6.32 g/m*3 8.3 C 4.8 km/h
1356 21-03-2016 16:55:00 8.3 C 6.41 g/m*3 6.99 C 8.1 km/h
1357 21-03-2016 17:00:00 8.3 C 6.41 g/m*3 8.3 C 4.8 km/h
1358 21-03-2016 17:05:00 8.3 C 6.41 g/m*3 6.99 C 8.1 km/h
1359 21-03-2016 17:10:00 8.4 C 6.45 g/m*3 8.4 C 4.8 km/h
1360 21-03-2016 17:15:00 8.5 C 6.4 g/m*3 7.64 C 6.4 km/h
1361 21-03-2016 17:20:00 8.5 C 6.49 g/m*3 8.5 C 3.2 km/h
1362 21-03-2016 17:25:00 8.5 C 6.4 g/m*3 8.5 C 4.8 km/h
1363 21-03-2016 17:30:00 8.5 C 6.49 g/m*3 8.5 C 0 km/h
1364 21-03-2016 17:35:00 8.4 C 6.45 g/m*3 7.52 C 6.4 km/h
1365 21-03-2016 17:40:00 8.4 C 6.36 g/m*3 8.4 C 3.2 km/h
1366 21-03-2016 17:45:00 8.4 C 6.28 g/m*3 8.4 C 1.6 km/h
1367 21-03-2016 17:50:00 8.3 C 6.24 g/m*3 8.3 C 1.6 km/h
1368 21-03-2016 17:55:00 8.3 C 6.24 g/m*3 6.99 C 8.1 km/h
1369 21-03-2016 18:00:00 8.2 C 6.2 g/m*3 8.2 C 4.8 km/h
1370 21-03-2016 18:05:00 8.2 C 6.2 g/m*3 8.2 C 3.2 km/h
1371 21-03-2016 18:10:00 8.1 C 6.16 g/m*3 8.1 C 3.2 km/h
1372 21-03-2016 18:15:00 8.1 C 6.24 g/m*3 8.1 C 1.6 km/h
1373 21-03-2016 18:20:00 8 C 6.2 g/m*3 8 C 4.8 km/h
1374 21-03-2016 18:25:00 7.9 C 6.16 g/m*3 7.9 C 1.6 km/h
1375 21-03-2016 18:30:00 7.9 C 6.24 g/m*3 7.9 C 0 km/h
Sensor: Nr:Datum:Temp:Abs-Feuchte:Windchill:Wind:
Aussen-T/F 1376 21-03-2016 18:35:00 7.9 C 6.24 g/m*3 7.9 C 1.6 km/h
1377 21-03-2016 18:40:00 7.8 C 6.28 g/m*3 7.8 C 0 km/h
1378 21-03-2016 18:45:00 7.7 C 6.32 g/m*3 7.7 C 0 km/h
1379 21-03-2016 18:50:00 7.6 C 6.28 g/m*3 7.6 C 1.6 km/h
1380 21-03-2016 18:55:00 7.6 C 6.28 g/m*3 7.6 C 1.6 km/h
1381 21-03-2016 19:00:00 7.5 C 6.32 g/m*3 7.5 C 3.2 km/h
1382 21-03-2016 19:05:00 7.4 C 6.28 g/m*3 7.4 C 1.6 km/h
1383 21-03-2016 19:10:00 7.3 C 6.32 g/m*3 7.3 C 1.6 km/h
1384 21-03-2016 19:15:00 7.3 C 6.24 g/m*3 7.3 C 1.6 km/h
1385 21-03-2016 19:20:00 7.3 C 6.24 g/m*3 7.3 C 1.6 km/h
1386 21-03-2016 19:25:00 7.3 C 6.24 g/m*3 7.3 C 1.6 km/h
1387 21-03-2016 19:30:00 7.3 C 6.16 g/m*3 7.3 C 1.6 km/h
1388 21-03-2016 19:35:00 7.3 C 6.16 g/m*3 7.3 C 1.6 km/h
1389 21-03-2016 19:40:00 7.3 C 6.16 g/m*3 7.3 C 1.6 km/h
1390 21-03-2016 19:45:00 7.3 C 6.16 g/m*3 7.3 C 0 km/h
1391 21-03-2016 19:50:00 7.4 C 6.2 g/m*3 7.4 C 1.6 km/h
1392 21-03-2016 19:55:00 7.4 C 6.2 g/m*3 7.4 C 0 km/h
1393 21-03-2016 20:00:00 7.4 C 6.12 g/m*3 7.4 C 1.6 km/h
1394 21-03-2016 20:05:00 7.4 C 6.12 g/m*3 7.4 C 1.6 km/h
1395 21-03-2016 20:10:00 7.4 C 6.2 g/m*3 7.4 C 1.6 km/h
1396 21-03-2016 20:15:00 7.4 C 6.2 g/m*3 7.4 C 1.6 km/h
1397 21-03-2016 20:20:00 7.3 C 6.08 g/m*3 7.3 C 0 km/h
1398 21-03-2016 20:25:00 7.3 C 6.08 g/m*3 7.3 C 1.6 km/h
1399 21-03-2016 20:30:00 7.3 C 6.08 g/m*3 7.3 C 1.6 km/h
1400 21-03-2016 20:35:00 7.3 C 6.08 g/m*3 7.3 C 0 km/h
Sensor: Nr:Datum:Temp:Abs-Feuchte:Windchill:Wind:
Aussen-T/F 1401 21-03-2016 20:40:00 7.3 C 6 g/m*3 7.3 C 0 km/h
1402 21-03-2016 20:45:00 7.3 C 6.08 g/m*3 7.3 C 4.8 km/h
1403 21-03-2016 20:50:00 7.3 C 6 g/m*3 7.3 C 3.2 km/h
1404 21-03-2016 20:55:00 7.4 C 6.04 g/m*3 7.4 C 3.2 km/h
1405 21-03-2016 21:00:00 7.4 C 6.04 g/m*3 7.4 C 1.6 km/h
1406 21-03-2016 21:05:00 7.4 C 6.04 g/m*3 7.4 C 0 km/h
1407 21-03-2016 21:10:00 7.4 C 6.12 g/m*3 7.4 C 0 km/h
1408 21-03-2016 21:15:00 7.4 C 6.12 g/m*3 7.4 C 1.6 km/h
1409 21-03-2016 21:20:00 7.3 C 6.08 g/m*3 7.3 C 1.6 km/h
1410 21-03-2016 21:25:00 7.3 C 6.16 g/m*3 7.3 C 0 km/h
1411 21-03-2016 21:30:00 7.2 C 6.12 g/m*3 7.2 C 0 km/h
1412 21-03-2016 21:35:00 7.2 C 6.2 g/m*3 7.2 C 0 km/h
1413 21-03-2016 21:40:00 7.2 C 6.2 g/m*3 7.2 C 1.6 km/h
1414 21-03-2016 21:45:00 7.1 C 6.24 g/m*3 7.1 C 0 km/h
1415 21-03-2016 21:50:00 7 C 6.2 g/m*3 7 C 1.6 km/h
1416 21-03-2016 21:55:00 7 C 6.2 g/m*3 7 C 0 km/h
1417 21-03-2016 22:00:00 6.9 C 6.16 g/m*3 6.9 C 0 km/h
1418 21-03-2016 22:05:00 6.9 C 6.24 g/m*3 6.9 C 0 km/h
1419 21-03-2016 22:10:00 6.8 C 6.19 g/m*3 6.8 C 0 km/h
1420 21-03-2016 22:15:00 6.8 C 6.19 g/m*3 6.8 C 0 km/h
1421 21-03-2016 22:20:00 6.8 C 6.19 g/m*3 6.8 C 0 km/h
1422 21-03-2016 22:25:00 6.7 C 6.15 g/m*3 6.7 C 0 km/h
1423 21-03-2016 22:30:00 6.7 C 6.15 g/m*3 6.7 C 0 km/h
1424 21-03-2016 22:35:00 6.7 C 6.15 g/m*3 6.7 C 0 km/h
1425 21-03-2016 22:40:00 6.6 C 6.11 g/m*3 5.44 C 6.4 km/h
Sensor: Nr:Datum:Temp:Abs-Feuchte:Windchill:Wind:
Aussen-T/F 1426 21-03-2016 22:45:00 6.6 C 6.11 g/m*3 6.6 C 1.6 km/h
1427 21-03-2016 22:50:00 6.7 C 6.08 g/m*3 6.7 C 4.8 km/h
1428 21-03-2016 22:55:00 6.7 C 6.15 g/m*3 6.7 C 1.6 km/h
1429 21-03-2016 23:00:00 6.7 C 6.15 g/m*3 6.7 C 0 km/h
1430 21-03-2016 23:05:00 6.7 C 6.15 g/m*3 6.7 C 0 km/h
1431 21-03-2016 23:10:00 6.7 C 6.23 g/m*3 6.7 C 0 km/h
1432 21-03-2016 23:15:00 6.6 C 6.19 g/m*3 6.6 C 0 km/h
1433 21-03-2016 23:20:00 6.6 C 6.19 g/m*3 6.6 C 0 km/h
1434 21-03-2016 23:25:00 6.5 C 6.15 g/m*3 6.5 C 0 km/h
1435 21-03-2016 23:30:00 6.4 C 6.18 g/m*3 6.4 C 0 km/h
1436 21-03-2016 23:35:00 6.4 C 6.18 g/m*3 6.4 C 0 km/h
1437 21-03-2016 23:40:00 6.3 C 6.14 g/m*3 6.3 C 0 km/h
1438 21-03-2016 23:45:00 6.3 C 6.14 g/m*3 6.3 C 0 km/h
1439 21-03-2016 23:50:00 6.3 C 6.14 g/m*3 6.3 C 1.6 km/h
1440 21-03-2016 23:55:00 6.2 C 6.18 g/m*3 6.2 C 0 km/h
1441 22-03-2016 00:00:00 6.2 C 6.18 g/m*3 6.2 C 0 km/h
1442 22-03-2016 00:05:00 6.2 C 6.25 g/m*3 6.2 C 0 km/h
1443 22-03-2016 00:10:00 6.2 C 6.25 g/m*3 6.2 C 0 km/h
1444 22-03-2016 00:15:00 6.2 C 6.18 g/m*3 6.2 C 0 km/h
1445 22-03-2016 00:20:00 6.2 C 6.18 g/m*3 6.2 C 0 km/h
1446 22-03-2016 00:25:00 6.2 C 6.18 g/m*3 6.2 C 0 km/h
1447 22-03-2016 00:30:00 6.2 C 6.18 g/m*3 6.2 C 1.6 km/h
1448 22-03-2016 00:35:00 6.2 C 6.18 g/m*3 6.2 C 0 km/h
1449 22-03-2016 00:40:00 6.1 C 6.14 g/m*3 6.1 C 1.6 km/h
1450 22-03-2016 00:45:00 6.1 C 6.14 g/m*3 6.1 C 0 km/h
Sensor: Nr:Datum:Temp:Abs-Feuchte:Windchill:Wind:
Aussen-T/F 1451 22-03-2016 00:50:00 6.1 C 6.21 g/m*3 6.1 C 0 km/h
1452 22-03-2016 00:55:00 6.1 C 6.21 g/m*3 6.1 C 0 km/h
1453 22-03-2016 01:00:00 6.1 C 6.21 g/m*3 6.1 C 0 km/h
1454 22-03-2016 01:05:00 6.1 C 6.21 g/m*3 6.1 C 0 km/h
1455 22-03-2016 01:10:00 6.1 C 6.28 g/m*3 6.1 C 0 km/h
1456 22-03-2016 01:15:00 6.1 C 6.36 g/m*3 6.1 C 0 km/h
1457 22-03-2016 01:20:00 6.1 C 6.43 g/m*3 6.1 C 0 km/h
1458 22-03-2016 01:25:00 6.1 C 6.43 g/m*3 6.1 C 1.6 km/h
1459 22-03-2016 01:30:00 6.1 C 6.43 g/m*3 6.1 C 3.2 km/h
1460 22-03-2016 01:35:00 6.1 C 6.36 g/m*3 6.1 C 3.2 km/h
1461 22-03-2016 01:40:00 6.2 C 6.47 g/m*3 3.84 C 11.3 km/h
1462 22-03-2016 01:45:00 6.3 C 6.44 g/m*3 3.96 C 11.3 km/h
1463 22-03-2016 01:50:00 6.4 C 6.48 g/m*3 5.21 C 6.4 km/h
1464 22-03-2016 01:55:00 6.6 C 6.49 g/m*3 4.99 C 8.1 km/h
1465 22-03-2016 02:00:00 6.6 C 6.49 g/m*3 5.44 C 6.4 km/h
1466 22-03-2016 02:05:00 6.6 C 6.49 g/m*3 5.44 C 6.4 km/h
1467 22-03-2016 02:10:00 6.7 C 6.53 g/m*3 5.56 C 6.4 km/h
1468 22-03-2016 02:15:00 6.7 C 6.53 g/m*3 5.56 C 6.4 km/h
1469 22-03-2016 02:20:00 6.6 C 6.57 g/m*3 4.63 C 9.7 km/h
1470 22-03-2016 02:25:00 6.6 C 6.57 g/m*3 6.6 C 1.6 km/h
1471 22-03-2016 02:30:00 6.6 C 6.57 g/m*3 6.6 C 4.8 km/h
1472 22-03-2016 02:35:00 6.6 C 6.64 g/m*3 6.6 C 3.2 km/h
1473 22-03-2016 02:40:00 6.5 C 6.6 g/m*3 6.5 C 3.2 km/h
1474 22-03-2016 02:45:00 6.4 C 6.56 g/m*3 6.4 C 0 km/h
1475 22-03-2016 02:50:00 6.4 C 6.56 g/m*3 6.4 C 3.2 km/h
Sensor: Nr:Datum:Temp:Abs-Feuchte:Windchill:Wind:
Aussen-T/F 1476 22-03-2016 02:55:00 6.4 C 6.56 g/m*3 6.4 C 0 km/h
1477 22-03-2016 03:00:00 6.3 C 6.51 g/m*3 6.3 C 4.8 km/h
1478 22-03-2016 03:05:00 6.3 C 6.51 g/m*3 6.3 C 3.2 km/h
1479 22-03-2016 03:10:00 6.3 C 6.51 g/m*3 6.3 C 0 km/h
1480 22-03-2016 03:15:00 6.3 C 6.59 g/m*3 6.3 C 4.8 km/h
1481 22-03-2016 03:20:00 6.3 C 6.59 g/m*3 6.3 C 3.2 km/h
1482 22-03-2016 03:25:00 6.3 C 6.59 g/m*3 4.64 C 8.1 km/h
1483 22-03-2016 03:30:00 6.3 C 6.59 g/m*3 4.64 C 8.1 km/h
1484 22-03-2016 03:35:00 6.3 C 6.59 g/m*3 4.27 C 9.7 km/h
1485 22-03-2016 03:40:00 6.3 C 6.59 g/m*3 6.3 C 4.8 km/h
1486 22-03-2016 03:45:00 6.3 C 6.59 g/m*3 6.3 C 1.6 km/h
1487 22-03-2016 03:50:00 6.3 C 6.59 g/m*3 6.3 C 3.2 km/h
1488 22-03-2016 03:55:00 6.3 C 6.59 g/m*3 6.3 C 3.2 km/h
1489 22-03-2016 04:00:00 6.3 C 6.59 g/m*3 6.3 C 3.2 km/h
1490 22-03-2016 04:05:00 6.3 C 6.59 g/m*3 6.3 C 3.2 km/h
1491 22-03-2016 04:10:00 6.2 C 6.55 g/m*3 6.2 C 4.8 km/h
1492 22-03-2016 04:15:00 6.2 C 6.55 g/m*3 6.2 C 0 km/h
1493 22-03-2016 04:20:00 6.1 C 6.5 g/m*3 6.1 C 1.6 km/h
1494 22-03-2016 04:25:00 6 C 6.46 g/m*3 6 C 1.6 km/h
1495 22-03-2016 04:30:00 5.9 C 6.42 g/m*3 5.9 C 0 km/h
1496 22-03-2016 04:35:00 5.8 C 6.38 g/m*3 5.8 C 4.8 km/h
1497 22-03-2016 04:40:00 5.8 C 6.38 g/m*3 5.8 C 4.8 km/h
1498 22-03-2016 04:45:00 5.7 C 6.33 g/m*3 5.7 C 0 km/h
1499 22-03-2016 04:50:00 5.7 C 6.33 g/m*3 5.7 C 1.6 km/h
1500 22-03-2016 04:55:00 5.7 C 6.33 g/m*3 5.7 C 0 km/h
Sensor: Nr:Datum:Temp:Abs-Feuchte:Windchill:Wind:
Aussen-T/F 1501 22-03-2016 05:00:00 5.6 C 6.29 g/m*3 5.6 C 1.6 km/h
1502 22-03-2016 05:05:00 5.6 C 6.29 g/m*3 5.6 C 1.6 km/h
1503 22-03-2016 05:10:00 5.6 C 6.29 g/m*3 5.6 C 1.6 km/h
1504 22-03-2016 05:15:00 5.5 C 6.25 g/m*3 5.5 C 1.6 km/h
1505 22-03-2016 05:20:00 5.6 C 6.29 g/m*3 5.6 C 0 km/h
1506 22-03-2016 05:25:00 5.6 C 6.29 g/m*3 5.6 C 3.2 km/h
1507 22-03-2016 05:30:00 5.6 C 6.29 g/m*3 5.6 C 4.8 km/h
1508 22-03-2016 05:35:00 5.6 C 6.29 g/m*3 5.6 C 3.2 km/h
1509 22-03-2016 05:40:00 5.6 C 6.29 g/m*3 5.6 C 1.6 km/h
1510 22-03-2016 05:45:00 5.6 C 6.29 g/m*3 5.6 C 0 km/h
1511 22-03-2016 05:50:00 5.5 C 6.25 g/m*3 5.5 C 1.6 km/h
1512 22-03-2016 05:55:00 5.5 C 6.25 g/m*3 5.5 C 1.6 km/h
1513 22-03-2016 06:00:00 5.4 C 6.21 g/m*3 5.4 C 0 km/h
1514 22-03-2016 06:05:00 5.4 C 6.21 g/m*3 5.4 C 0 km/h
1515 22-03-2016 06:10:00 5.4 C 6.21 g/m*3 5.4 C 0 km/h
1516 22-03-2016 06:15:00 5.4 C 6.21 g/m*3 5.4 C 0 km/h
1517 22-03-2016 06:20:00 5.3 C 6.17 g/m*3 5.3 C 3.2 km/h
1518 22-03-2016 06:25:00 5.3 C 6.17 g/m*3 3.46 C 8.1 km/h
1519 22-03-2016 06:30:00 5.3 C 6.17 g/m*3 5.3 C 3.2 km/h
1520 22-03-2016 06:35:00 5.2 C 6.06 g/m*3 5.2 C 3.2 km/h
1521 22-03-2016 06:40:00 5.1 C 6.02 g/m*3 5.1 C 4.8 km/h
1522 22-03-2016 06:45:00 4.9 C 6.01 g/m*3 4.9 C 3.2 km/h
1523 22-03-2016 06:50:00 4.8 C 5.97 g/m*3 4.8 C 1.6 km/h
1524 22-03-2016 06:55:00 4.7 C 5.93 g/m*3 4.7 C 4.8 km/h
1525 22-03-2016 07:00:00 4.6 C 5.96 g/m*3 4.6 C 3.2 km/h
Sensor: Nr:Datum:Temp:Abs-Feuchte:Windchill:Wind:
Aussen-T/F 1526 22-03-2016 07:05:00 4.6 C 5.96 g/m*3 4.6 C 3.2 km/h
1527 22-03-2016 07:10:00 4.6 C 5.96 g/m*3 4.6 C 4.8 km/h
1528 22-03-2016 07:15:00 4.6 C 6.02 g/m*3 4.6 C 1.6 km/h
1529 22-03-2016 07:20:00 4.7 C 6 g/m*3 4.7 C 1.6 km/h
1530 22-03-2016 07:25:00 4.7 C 6 g/m*3 4.7 C 4.8 km/h
1531 22-03-2016 07:30:00 4.8 C 6.04 g/m*3 4.8 C 1.6 km/h
1532 22-03-2016 07:35:00 4.9 C 6.08 g/m*3 4.9 C 3.2 km/h
1533 22-03-2016 07:40:00 5.1 C 6.16 g/m*3 3.71 C 6.4 km/h
1534 22-03-2016 07:45:00 5.3 C 6.17 g/m*3 5.3 C 4.8 km/h
1535 22-03-2016 07:50:00 5.4 C 6.21 g/m*3 5.4 C 4.8 km/h
1536 22-03-2016 07:55:00 5.5 C 6.18 g/m*3 5.5 C 3.2 km/h
1537 22-03-2016 08:00:00 5.6 C 6.22 g/m*3 5.6 C 3.2 km/h
1538 22-03-2016 08:05:00 5.7 C 6.26 g/m*3 5.7 C 1.6 km/h
1539 22-03-2016 08:10:00 5.8 C 6.23 g/m*3 5.8 C 0 km/h
1540 22-03-2016 08:15:00 5.8 C 6.3 g/m*3 5.8 C 0 km/h
1541 22-03-2016 08:20:00 5.9 C 6.35 g/m*3 5.9 C 0 km/h
1542 22-03-2016 08:25:00 6 C 6.31 g/m*3 6 C 0 km/h
1543 22-03-2016 08:30:00 6.2 C 6.4 g/m*3 6.2 C 1.6 km/h
1544 22-03-2016 08:35:00 6.3 C 6.44 g/m*3 6.3 C 0 km/h
1545 22-03-2016 08:40:00 6.4 C 6.41 g/m*3 6.4 C 1.6 km/h
1546 22-03-2016 08:45:00 6.4 C 6.33 g/m*3 6.4 C 3.2 km/h
1547 22-03-2016 08:50:00 6.4 C 6.33 g/m*3 6.4 C 4.8 km/h
1548 22-03-2016 08:55:00 6.5 C 6.37 g/m*3 6.5 C 1.6 km/h
1549 22-03-2016 09:00:00 6.6 C 6.42 g/m*3 6.6 C 1.6 km/h
1550 22-03-2016 09:05:00 6.6 C 6.34 g/m*3 4.99 C 8.1 km/h
Sensor: Nr:Datum:Temp:Abs-Feuchte:Windchill:Wind:
Aussen-T/F 1551 22-03-2016 09:10:00 6.6 C 6.34 g/m*3 6.6 C 4.8 km/h
1552 22-03-2016 09:15:00 6.6 C 6.34 g/m*3 4.99 C 8.1 km/h
1553 22-03-2016 09:20:00 6.7 C 6.46 g/m*3 5.56 C 6.4 km/h
1554 22-03-2016 09:25:00 6.8 C 6.42 g/m*3 4.56 C 11.3 km/h
1555 22-03-2016 09:30:00 6.8 C 6.35 g/m*3 5.22 C 8.1 km/h
1556 22-03-2016 09:35:00 6.8 C 6.35 g/m*3 6.8 C 1.6 km/h
1557 22-03-2016 09:40:00 6.9 C 6.39 g/m*3 5.79 C 6.4 km/h
1558 22-03-2016 09:45:00 7 C 6.43 g/m*3 5.11 C 9.7 km/h
1559 22-03-2016 09:50:00 7.2 C 6.44 g/m*3 7.2 C 4.8 km/h
1560 22-03-2016 09:55:00 7.4 C 6.52 g/m*3 6.37 C 6.4 km/h
1561 22-03-2016 10:00:00 7.6 C 6.53 g/m*3 6.6 C 6.4 km/h
1562 22-03-2016 10:05:00 7.7 C 6.57 g/m*3 6.71 C 6.4 km/h
1563 22-03-2016 10:10:00 7.8 C 6.61 g/m*3 7.8 C 4.8 km/h
1564 22-03-2016 10:15:00 7.9 C 6.57 g/m*3 6.94 C 6.4 km/h
1565 22-03-2016 10:20:00 7.9 C 6.49 g/m*3 6.52 C 8.1 km/h
1566 22-03-2016 10:25:00 7.9 C 6.57 g/m*3 6.94 C 6.4 km/h
1567 22-03-2016 10:30:00 7.8 C 6.45 g/m*3 7.8 C 4.8 km/h
1568 22-03-2016 10:35:00 7.9 C 6.57 g/m*3 6.94 C 6.4 km/h
1569 22-03-2016 10:40:00 8.2 C 6.62 g/m*3 6.54 C 9.7 km/h
1570 22-03-2016 10:45:00 8.3 C 6.57 g/m*3 7.41 C 6.4 km/h
1571 22-03-2016 10:50:00 8.4 C 6.62 g/m*3 7.52 C 6.4 km/h
1572 22-03-2016 10:55:00 8.7 C 6.75 g/m*3 7.87 C 6.4 km/h
1573 22-03-2016 11:00:00 8.8 C 6.7 g/m*3 7.58 C 8.1 km/h
1574 22-03-2016 11:05:00 8.8 C 6.7 g/m*3 7.98 C 6.4 km/h
1575 22-03-2016 11:10:00 8.8 C 6.61 g/m*3 7.98 C 6.4 km/h
Sensor: Nr:Datum:Temp:Abs-Feuchte:Windchill:Wind:
Aussen-T/F 1576 22-03-2016 11:15:00 8.9 C 6.57 g/m*3 7.09 C 11.3 km/h
1577 22-03-2016 11:20:00 9 C 6.7 g/m*3 7.21 C 11.3 km/h
1578 22-03-2016 11:25:00 9.1 C 6.65 g/m*3 8.33 C 6.4 km/h
1579 22-03-2016 11:30:00 9.2 C 6.7 g/m*3 8.05 C 8.1 km/h
1580 22-03-2016 11:35:00 9.2 C 6.61 g/m*3 8.45 C 6.4 km/h
1581 22-03-2016 11:40:00 9.3 C 6.74 g/m*3 7.58 C 11.3 km/h
1582 22-03-2016 11:45:00 9.4 C 6.69 g/m*3 7.97 C 9.7 km/h
1583 22-03-2016 11:50:00 9.4 C 6.69 g/m*3 8.28 C 8.1 km/h
1584 22-03-2016 11:55:00 9.6 C 6.69 g/m*3 8.21 C 9.7 km/h
1585 22-03-2016 12:00:00 9.7 C 6.73 g/m*3 8.63 C 8.1 km/h
1586 22-03-2016 12:05:00 9.8 C 6.68 g/m*3 8.75 C 8.1 km/h
1587 22-03-2016 12:10:00 9.8 C 6.68 g/m*3 8.18 C 11.3 km/h
1588 22-03-2016 12:15:00 9.8 C 6.59 g/m*3 8.45 C 9.7 km/h
1589 22-03-2016 12:20:00 9.8 C 6.68 g/m*3 7.73 C 14.5 km/h
1590 22-03-2016 12:25:00 10.1 C 6.62 g/m*3 8.1 C 14.5 km/h
1591 22-03-2016 12:30:00 10.1 C 6.62 g/m*3 8.31 C 12.9 km/h
1592 22-03-2016 12:35:00 10.3 C 6.8 g/m*3 9.34 C 8.1 km/h
1593 22-03-2016 12:40:00 10.5 C 6.6 g/m*3 8.59 C 14.5 km/h
1594 22-03-2016 12:45:00 10.7 C 6.78 g/m*3 8.65 C 16.1 km/h
1595 22-03-2016 12:50:00 10.9 C 6.56 g/m*3 9.76 C 9.7 km/h
1596 22-03-2016 12:55:00 11.1 C 6.75 g/m*3 11.1 C 20.9 km/h
1597 22-03-2016 13:00:00 11.2 C 6.69 g/m*3 11.2 C 20.9 km/h
1598 22-03-2016 13:05:00 11.3 C 6.63 g/m*3 11.3 C 16.1 km/h
1599 22-03-2016 13:10:00 11.1 C 6.65 g/m*3 11.1 C 14.5 km/h
1600 22-03-2016 13:15:00 11 C 6.61 g/m*3 9.88 C 9.7 km/h
Sensor: Nr:Datum:Temp:Abs-Feuchte:Windchill:Wind:
Aussen-T/F 1601 22-03-2016 13:20:00 10.9 C 6.47 g/m*3 9.76 C 9.7 km/h
1602 22-03-2016 13:25:00 11.1 C 6.55 g/m*3 11.1 C 17.7 km/h
1603 22-03-2016 13:30:00 11.2 C 6.59 g/m*3 11.2 C 11.3 km/h
1604 22-03-2016 13:35:00 11.2 C 6.39 g/m*3 11.2 C 16.1 km/h
1605 22-03-2016 13:40:00 11.2 C 6.49 g/m*3 11.2 C 16.1 km/h
1606 22-03-2016 13:45:00 11.1 C 6.25 g/m*3 11.1 C 12.9 km/h
1607 22-03-2016 13:50:00 11 C 6.31 g/m*3 9.21 C 14.5 km/h
1608 22-03-2016 13:55:00 10.9 C 6.27 g/m*3 10.41 C 6.4 km/h
1609 22-03-2016 14:00:00 10.9 C 6.37 g/m*3 9.28 C 12.9 km/h
1610 22-03-2016 14:05:00 10.8 C 6.23 g/m*3 8.96 C 14.5 km/h
1611 22-03-2016 14:10:00 10.8 C 6.13 g/m*3 9.38 C 11.3 km/h
1612 22-03-2016 14:15:00 10.8 C 6.13 g/m*3 9.64 C 9.7 km/h
1613 22-03-2016 14:20:00 10.8 C 6.13 g/m*3 9.38 C 11.3 km/h
1614 22-03-2016 14:25:00 10.8 C 6.23 g/m*3 9.38 C 11.3 km/h
1615 22-03-2016 14:30:00 10.9 C 6.37 g/m*3 9.51 C 11.3 km/h
1616 22-03-2016 14:35:00 11.1 C 6.14 g/m*3 11.1 C 9.7 km/h
1617 22-03-2016 14:40:00 11.1 C 6.14 g/m*3 11.1 C 9.7 km/h
1618 22-03-2016 14:45:00 11.1 C 6.14 g/m*3 11.1 C 17.7 km/h
1619 22-03-2016 14:50:00 11.1 C 6.14 g/m*3 11.1 C 11.3 km/h
1620 22-03-2016 14:55:00 11.1 C 6.14 g/m*3 11.1 C 9.7 km/h
1621 22-03-2016 15:00:00 11.2 C 6.08 g/m*3 11.2 C 8.1 km/h
1622 22-03-2016 15:05:00 11.2 C 6.08 g/m*3 11.2 C 9.7 km/h
1623 22-03-2016 15:10:00 11.3 C 6.22 g/m*3 11.3 C 8.1 km/h
1624 22-03-2016 15:15:00 11.4 C 6.26 g/m*3 11.4 C 3.2 km/h
1625 22-03-2016 15:20:00 11.6 C 6.24 g/m*3 11.6 C 8.1 km/h
Sensor: Nr:Datum:Temp:Abs-Feuchte:Windchill:Wind:
Aussen-T/F 1626 22-03-2016 15:25:00 11.6 C 6.24 g/m*3 11.6 C 9.7 km/h
1627 22-03-2016 15:30:00 11.6 C 6.13 g/m*3 11.6 C 8.1 km/h
1628 22-03-2016 15:35:00 11.6 C 6.13 g/m*3 11.6 C 6.4 km/h
1629 22-03-2016 15:40:00 11.5 C 6.2 g/m*3 11.5 C 9.7 km/h
1630 22-03-2016 15:45:00 11.4 C 6.16 g/m*3 11.4 C 6.4 km/h
1631 22-03-2016 15:50:00 11.4 C 6.16 g/m*3 11.4 C 8.1 km/h
1632 22-03-2016 15:55:00 11.4 C 6.16 g/m*3 11.4 C 9.7 km/h
1633 22-03-2016 16:00:00 11.3 C 6.12 g/m*3 11.3 C 9.7 km/h
1634 22-03-2016 16:05:00 11.2 C 5.98 g/m*3 11.2 C 12.9 km/h
1635 22-03-2016 16:10:00 11.2 C 5.98 g/m*3 11.2 C 8.1 km/h
1636 22-03-2016 16:15:00 11.2 C 5.98 g/m*3 11.2 C 11.3 km/h
1637 22-03-2016 16:20:00 11.2 C 6.08 g/m*3 11.2 C 11.3 km/h
1638 22-03-2016 16:25:00 11.2 C 6.08 g/m*3 11.2 C 12.9 km/h
1639 22-03-2016 16:30:00 11.1 C 6.14 g/m*3 11.1 C 9.7 km/h
1640 22-03-2016 16:35:00 11.1 C 6.14 g/m*3 11.1 C 11.3 km/h
1641 22-03-2016 16:40:00 11 C 6.21 g/m*3 9.21 C 14.5 km/h
1642 22-03-2016 16:45:00 10.9 C 6.27 g/m*3 9.76 C 9.7 km/h
1643 22-03-2016 16:50:00 10.8 C 6.33 g/m*3 9.38 C 11.3 km/h
1644 22-03-2016 16:55:00 10.8 C 6.52 g/m*3 9.64 C 9.7 km/h
1645 22-03-2016 17:00:00 10.8 C 6.52 g/m*3 10.29 C 6.4 km/h
1646 22-03-2016 17:05:00 10.8 C 6.52 g/m*3 9.64 C 9.7 km/h
1647 22-03-2016 17:10:00 10.8 C 6.52 g/m*3 10.29 C 6.4 km/h
1648 22-03-2016 17:15:00 10.7 C 6.48 g/m*3 9.52 C 9.7 km/h
1649 22-03-2016 17:20:00 10.7 C 6.58 g/m*3 10.7 C 4.8 km/h
1650 22-03-2016 17:25:00 10.6 C 6.54 g/m*3 10.6 C 4.8 km/h
Sensor: Nr:Datum:Temp:Abs-Feuchte:Windchill:Wind:
Aussen-T/F 1651 22-03-2016 17:30:00 10.6 C 6.64 g/m*3 10.6 C 4.8 km/h
1652 22-03-2016 17:35:00 10.6 C 6.64 g/m*3 10.6 C 3.2 km/h
1653 22-03-2016 17:40:00 10.6 C 6.64 g/m*3 10.6 C 3.2 km/h
1654 22-03-2016 17:45:00 10.6 C 6.73 g/m*3 9.69 C 8.1 km/h
1655 22-03-2016 17:50:00 10.6 C 6.73 g/m*3 10.06 C 6.4 km/h
1656 22-03-2016 17:55:00 10.5 C 6.69 g/m*3 9.57 C 8.1 km/h
1657 22-03-2016 18:00:00 10.5 C 6.69 g/m*3 9.57 C 8.1 km/h
1658 22-03-2016 18:05:00 10.4 C 6.75 g/m*3 9.83 C 6.4 km/h
1659 22-03-2016 18:10:00 10.4 C 6.65 g/m*3 8.9 C 11.3 km/h
1660 22-03-2016 18:15:00 10.4 C 6.75 g/m*3 9.46 C 8.1 km/h
1661 22-03-2016 18:20:00 10.3 C 6.7 g/m*3 9.34 C 8.1 km/h
1662 22-03-2016 18:25:00 10.3 C 6.7 g/m*3 9.72 C 6.4 km/h
1663 22-03-2016 18:30:00 10.2 C 6.66 g/m*3 10.2 C 4.8 km/h
1664 22-03-2016 18:35:00 10.2 C 6.76 g/m*3 10.2 C 4.8 km/h
1665 22-03-2016 18:40:00 10.2 C 6.76 g/m*3 10.2 C 1.6 km/h
1666 22-03-2016 18:45:00 10.1 C 6.71 g/m*3 9.48 C 6.4 km/h
1667 22-03-2016 18:50:00 10.1 C 6.81 g/m*3 10.1 C 4.8 km/h
1668 22-03-2016 18:55:00 10 C 6.86 g/m*3 10 C 4.8 km/h
1669 22-03-2016 19:00:00 9.9 C 6.72 g/m*3 8.06 C 12.9 km/h
1670 22-03-2016 19:05:00 9.9 C 6.91 g/m*3 8.56 C 9.7 km/h
1671 22-03-2016 19:10:00 9.8 C 6.96 g/m*3 8.18 C 11.3 km/h
1672 22-03-2016 19:15:00 9.7 C 7.01 g/m*3 8.33 C 9.7 km/h
1673 22-03-2016 19:20:00 9.6 C 7.05 g/m*3 8.21 C 9.7 km/h
1674 22-03-2016 19:25:00 9.6 C 7.15 g/m*3 9.6 C 3.2 km/h
1675 22-03-2016 19:30:00 9.4 C 7.15 g/m*3 8.28 C 8.1 km/h
Sensor: Nr:Datum:Temp:Abs-Feuchte:Windchill:Wind:
Aussen-T/F 1676 22-03-2016 19:35:00 9.3 C 7.19 g/m*3 7.58 C 11.3 km/h
1677 22-03-2016 19:40:00 9.3 C 7.19 g/m*3 8.16 C 8.1 km/h
1678 22-03-2016 19:45:00 9.2 C 7.23 g/m*3 9.2 C 4.8 km/h
1679 22-03-2016 19:50:00 9.1 C 7.19 g/m*3 7.93 C 8.1 km/h
1680 22-03-2016 19:55:00 9.1 C 7.28 g/m*3 7.09 C 12.9 km/h
1681 22-03-2016 20:00:00 9 C 7.23 g/m*3 7.81 C 8.1 km/h
1682 22-03-2016 20:05:00 8.9 C 7.27 g/m*3 7.69 C 8.1 km/h
1683 22-03-2016 20:10:00 8.9 C 7.27 g/m*3 8.9 C 4.8 km/h
1684 22-03-2016 20:15:00 8.8 C 7.31 g/m*3 7.98 C 6.4 km/h
1685 22-03-2016 20:20:00 8.8 C 7.31 g/m*3 8.8 C 4.8 km/h
1686 22-03-2016 20:25:00 8.7 C 7.26 g/m*3 8.7 C 3.2 km/h
1687 22-03-2016 20:30:00 8.7 C 7.35 g/m*3 8.7 C 3.2 km/h
1688 22-03-2016 20:35:00 8.6 C 7.3 g/m*3 8.6 C 4.8 km/h
1689 22-03-2016 20:40:00 8.6 C 7.39 g/m*3 8.6 C 1.6 km/h
1690 22-03-2016 20:45:00 8.5 C 7.34 g/m*3 8.5 C 3.2 km/h
1691 22-03-2016 20:50:00 8.4 C 7.3 g/m*3 7.52 C 6.4 km/h
1692 22-03-2016 20:55:00 8.4 C 7.38 g/m*3 8.4 C 3.2 km/h
1693 22-03-2016 21:00:00 8.3 C 7.33 g/m*3 8.3 C 1.6 km/h
1694 22-03-2016 21:05:00 8.3 C 7.42 g/m*3 8.3 C 3.2 km/h
1695 22-03-2016 21:10:00 8.2 C 7.37 g/m*3 8.2 C 3.2 km/h
1696 22-03-2016 21:15:00 8.1 C 7.32 g/m*3 8.1 C 3.2 km/h
1697 22-03-2016 21:20:00 8.1 C 7.32 g/m*3 8.1 C 1.6 km/h
1698 22-03-2016 21:25:00 8 C 7.28 g/m*3 8 C 4.8 km/h
1699 22-03-2016 21:30:00 7.9 C 7.23 g/m*3 7.9 C 4.8 km/h
1700 22-03-2016 21:35:00 7.9 C 7.23 g/m*3 5.89 C 11.3 km/h
Sensor: Nr:Datum:Temp:Abs-Feuchte:Windchill:Wind:
Aussen-T/F 1701 22-03-2016 21:40:00 7.9 C 7.23 g/m*3 7.9 C 4.8 km/h
1702 22-03-2016 21:45:00 7.9 C 7.23 g/m*3 7.9 C 4.8 km/h
1703 22-03-2016 21:50:00 7.9 C 7.23 g/m*3 6.94 C 6.4 km/h
1704 22-03-2016 21:55:00 7.9 C 7.23 g/m*3 6.52 C 8.1 km/h
1705 22-03-2016 22:00:00 7.9 C 7.23 g/m*3 6.52 C 8.1 km/h
1706 22-03-2016 22:05:00 7.9 C 7.23 g/m*3 7.9 C 4.8 km/h
1707 22-03-2016 22:10:00 7.9 C 7.23 g/m*3 7.9 C 3.2 km/h
1708 22-03-2016 22:15:00 7.9 C 7.23 g/m*3 6.94 C 6.4 km/h
1709 22-03-2016 22:20:00 7.9 C 7.23 g/m*3 7.9 C 0 km/h
1710 22-03-2016 22:25:00 7.8 C 7.18 g/m*3 7.8 C 1.6 km/h
1711 22-03-2016 22:30:00 7.8 C 7.18 g/m*3 7.8 C 1.6 km/h
1712 22-03-2016 22:35:00 7.8 C 7.18 g/m*3 7.8 C 0 km/h
1713 22-03-2016 22:40:00 7.8 C 7.26 g/m*3 7.8 C 1.6 km/h
1714 22-03-2016 22:45:00 7.8 C 7.26 g/m*3 7.8 C 0 km/h
1715 22-03-2016 22:50:00 7.8 C 7.26 g/m*3 7.8 C 4.8 km/h
1716 22-03-2016 22:55:00 7.7 C 7.22 g/m*3 6.71 C 6.4 km/h
1717 22-03-2016 23:00:00 7.7 C 7.22 g/m*3 7.7 C 1.6 km/h
1718 22-03-2016 23:05:00 7.7 C 7.22 g/m*3 7.7 C 0 km/h
1719 22-03-2016 23:10:00 7.8 C 7.26 g/m*3 7.8 C 3.2 km/h
1720 22-03-2016 23:15:00 7.7 C 7.22 g/m*3 7.7 C 1.6 km/h
1721 22-03-2016 23:20:00 7.7 C 7.22 g/m*3 6.28 C 8.1 km/h
1722 22-03-2016 23:25:00 7.8 C 7.18 g/m*3 6.83 C 6.4 km/h
1723 22-03-2016 23:30:00 7.8 C 7.18 g/m*3 7.8 C 3.2 km/h
1724 22-03-2016 23:35:00 7.8 C 7.18 g/m*3 7.8 C 4.8 km/h
1725 22-03-2016 23:40:00 7.8 C 7.18 g/m*3 7.8 C 1.6 km/h
Sensor: Nr:Datum:Temp:Abs-Feuchte:Windchill:Wind:
Aussen-T/F 1726 22-03-2016 23:45:00 7.8 C 7.18 g/m*3 7.8 C 1.6 km/h
1727 22-03-2016 23:50:00 7.8 C 7.18 g/m*3 6.83 C 6.4 km/h
1728 22-03-2016 23:55:00 7.8 C 7.18 g/m*3 7.8 C 4.8 km/h
1729 23-03-2016 00:00:00 7.9 C 7.23 g/m*3 7.9 C 4.8 km/h
1730 23-03-2016 00:05:00 7.9 C 7.23 g/m*3 6.94 C 6.4 km/h
1731 23-03-2016 00:10:00 7.9 C 7.23 g/m*3 6.94 C 6.4 km/h
1732 23-03-2016 00:15:00 7.9 C 7.23 g/m*3 7.9 C 3.2 km/h
1733 23-03-2016 00:20:00 7.8 C 7.18 g/m*3 6.83 C 6.4 km/h
1734 23-03-2016 00:25:00 7.8 C 7.18 g/m*3 7.8 C 3.2 km/h
1735 23-03-2016 00:30:00 7.8 C 7.18 g/m*3 7.8 C 4.8 km/h
1736 23-03-2016 00:35:00 7.8 C 7.18 g/m*3 7.8 C 3.2 km/h
1737 23-03-2016 00:40:00 7.8 C 7.18 g/m*3 7.8 C 3.2 km/h
1738 23-03-2016 00:45:00 7.8 C 7.18 g/m*3 7.8 C 1.6 km/h
1739 23-03-2016 00:50:00 7.8 C 7.18 g/m*3 7.8 C 0 km/h
1740 23-03-2016 00:55:00 7.8 C 7.18 g/m*3 7.8 C 3.2 km/h
1741 23-03-2016 01:00:00 7.8 C 7.18 g/m*3 7.8 C 3.2 km/h
1742 23-03-2016 01:05:00 7.8 C 7.18 g/m*3 7.8 C 1.6 km/h
1743 23-03-2016 01:10:00 7.7 C 7.14 g/m*3 7.7 C 4.8 km/h
1744 23-03-2016 01:15:00 7.7 C 7.14 g/m*3 6.71 C 6.4 km/h
1745 23-03-2016 01:20:00 7.7 C 7.14 g/m*3 5.94 C 9.7 km/h
1746 23-03-2016 01:25:00 7.7 C 7.14 g/m*3 6.71 C 6.4 km/h
1747 23-03-2016 01:30:00 7.7 C 7.14 g/m*3 6.28 C 8.1 km/h
1748 23-03-2016 01:35:00 7.7 C 7.14 g/m*3 7.7 C 3.2 km/h
1749 23-03-2016 01:40:00 7.7 C 7.14 g/m*3 6.71 C 6.4 km/h
1750 23-03-2016 01:45:00 7.7 C 7.14 g/m*3 7.7 C 4.8 km/h
Sensor: Nr:Datum:Temp:Abs-Feuchte:Windchill:Wind:
Aussen-T/F 1751 23-03-2016 01:50:00 7.7 C 7.14 g/m*3 7.7 C 4.8 km/h
1752 23-03-2016 01:55:00 7.7 C 7.22 g/m*3 6.71 C 6.4 km/h
1753 23-03-2016 02:00:00 7.7 C 7.22 g/m*3 6.71 C 6.4 km/h
1754 23-03-2016 02:05:00 7.7 C 7.22 g/m*3 5.94 C 9.7 km/h
1755 23-03-2016 02:10:00 7.6 C 7.17 g/m*3 6.6 C 6.4 km/h
1756 23-03-2016 02:15:00 7.6 C 7.17 g/m*3 7.6 C 3.2 km/h
1757 23-03-2016 02:20:00 7.6 C 7.17 g/m*3 7.6 C 0 km/h
1758 23-03-2016 02:25:00 7.6 C 7.25 g/m*3 6.6 C 6.4 km/h
1759 23-03-2016 02:30:00 7.6 C 7.25 g/m*3 7.6 C 3.2 km/h
1760 23-03-2016 02:35:00 7.5 C 7.2 g/m*3 7.5 C 4.8 km/h
1761 23-03-2016 02:40:00 7.5 C 7.2 g/m*3 5.14 C 12.9 km/h
1762 23-03-2016 02:45:00 7.4 C 7.16 g/m*3 6.37 C 6.4 km/h
1763 23-03-2016 02:50:00 7.4 C 7.16 g/m*3 5.58 C 9.7 km/h
1764 23-03-2016 02:55:00 7.3 C 7.19 g/m*3 5.81 C 8.1 km/h
1765 23-03-2016 03:00:00 7.3 C 7.19 g/m*3 7.3 C 4.8 km/h
1766 23-03-2016 03:05:00 7.3 C 7.19 g/m*3 5.16 C 11.3 km/h
1767 23-03-2016 03:10:00 7.3 C 7.19 g/m*3 5.81 C 8.1 km/h
1768 23-03-2016 03:15:00 7.2 C 7.14 g/m*3 6.13 C 6.4 km/h
1769 23-03-2016 03:20:00 7.2 C 7.14 g/m*3 6.13 C 6.4 km/h
1770 23-03-2016 03:25:00 7.2 C 7.22 g/m*3 5.35 C 9.7 km/h
1771 23-03-2016 03:30:00 7.1 C 7.18 g/m*3 6.02 C 6.4 km/h
1772 23-03-2016 03:35:00 7.1 C 7.18 g/m*3 6.02 C 6.4 km/h
1773 23-03-2016 03:40:00 7.1 C 7.18 g/m*3 5.58 C 8.1 km/h
1774 23-03-2016 03:45:00 7 C 7.13 g/m*3 5.11 C 9.7 km/h
1775 23-03-2016 03:50:00 6.9 C 7.08 g/m*3 4.41 C 12.9 km/h
Sensor: Nr:Datum:Temp:Abs-Feuchte:Windchill:Wind:
Aussen-T/F 1776 23-03-2016 03:55:00 6.9 C 7.08 g/m*3 5.34 C 8.1 km/h
1777 23-03-2016 04:00:00 6.9 C 7.16 g/m*3 4.99 C 9.7 km/h
1778 23-03-2016 04:05:00 6.8 C 7.11 g/m*3 4.29 C 12.9 km/h
1779 23-03-2016 04:10:00 6.8 C 7.11 g/m*3 6.8 C 3.2 km/h
1780 23-03-2016 04:15:00 6.8 C 7.11 g/m*3 4.87 C 9.7 km/h
1781 23-03-2016 04:20:00 6.8 C 7.11 g/m*3 6.8 C 4.8 km/h
1782 23-03-2016 04:25:00 6.8 C 7.11 g/m*3 5.67 C 6.4 km/h
1783 23-03-2016 04:30:00 6.8 C 7.11 g/m*3 5.22 C 8.1 km/h
1784 23-03-2016 04:35:00 6.7 C 7.07 g/m*3 5.56 C 6.4 km/h
1785 23-03-2016 04:40:00 6.7 C 7.07 g/m*3 5.56 C 6.4 km/h
1786 23-03-2016 04:45:00 6.7 C 7.14 g/m*3 6.7 C 3.2 km/h
1787 23-03-2016 04:50:00 6.7 C 7.14 g/m*3 5.56 C 6.4 km/h
1788 23-03-2016 04:55:00 6.7 C 7.14 g/m*3 4.75 C 9.7 km/h
1789 23-03-2016 05:00:00 6.7 C 7.14 g/m*3 6.7 C 4.8 km/h
1790 23-03-2016 05:05:00 6.7 C 7.14 g/m*3 6.7 C 3.2 km/h
1791 23-03-2016 05:10:00 6.7 C 7.14 g/m*3 4.44 C 11.3 km/h
1792 23-03-2016 05:15:00 6.7 C 7.14 g/m*3 6.7 C 1.6 km/h
1793 23-03-2016 05:20:00 6.7 C 7.14 g/m*3 6.7 C 3.2 km/h
1794 23-03-2016 05:25:00 6.7 C 7.14 g/m*3 5.56 C 6.4 km/h
1795 23-03-2016 05:30:00 6.6 C 7.1 g/m*3 6.6 C 1.6 km/h
1796 23-03-2016 05:35:00 6.6 C 7.02 g/m*3 6.6 C 3.2 km/h
1797 23-03-2016 05:40:00 6.6 C 7.02 g/m*3 6.6 C 0 km/h
1798 23-03-2016 05:45:00 6.6 C 7.1 g/m*3 6.6 C 1.6 km/h
1799 23-03-2016 05:50:00 6.6 C 7.02 g/m*3 6.6 C 0 km/h
1800 23-03-2016 05:55:00 6.6 C 7.02 g/m*3 6.6 C 4.8 km/h
Sensor: Nr:Datum:Temp:Abs-Feuchte:Windchill:Wind:
Aussen-T/F 1801 23-03-2016 06:00:00 6.6 C 7.02 g/m*3 6.6 C 3.2 km/h
1802 23-03-2016 06:05:00 6.6 C 7.02 g/m*3 6.6 C 4.8 km/h
1803 23-03-2016 06:10:00 6.6 C 7.02 g/m*3 6.6 C 4.8 km/h
1804 23-03-2016 06:15:00 6.6 C 7.02 g/m*3 5.44 C 6.4 km/h
1805 23-03-2016 06:20:00 6.6 C 7.02 g/m*3 6.6 C 1.6 km/h
1806 23-03-2016 06:25:00 6.6 C 7.02 g/m*3 5.44 C 6.4 km/h
1807 23-03-2016 06:30:00 6.6 C 7.02 g/m*3 5.44 C 6.4 km/h
1808 23-03-2016 06:35:00 6.6 C 7.02 g/m*3 6.6 C 4.8 km/h
1809 23-03-2016 06:40:00 6.6 C 7.02 g/m*3 6.6 C 1.6 km/h
1810 23-03-2016 06:45:00 6.6 C 7.02 g/m*3 6.6 C 3.2 km/h
1811 23-03-2016 06:50:00 6.6 C 7.02 g/m*3 6.6 C 4.8 km/h
1812 23-03-2016 06:55:00 6.6 C 7.02 g/m*3 6.6 C 4.8 km/h
1813 23-03-2016 07:00:00 6.6 C 7.02 g/m*3 6.6 C 1.6 km/h
1814 23-03-2016 07:05:00 6.6 C 7.02 g/m*3 6.6 C 3.2 km/h
1815 23-03-2016 07:10:00 6.6 C 6.95 g/m*3 6.6 C 3.2 km/h
1816 23-03-2016 07:15:00 6.6 C 6.95 g/m*3 6.6 C 0 km/h
1817 23-03-2016 07:20:00 6.6 C 6.95 g/m*3 6.6 C 0 km/h
1818 23-03-2016 07:25:00 6.6 C 6.95 g/m*3 6.6 C 1.6 km/h
1819 23-03-2016 07:30:00 6.6 C 6.95 g/m*3 6.6 C 0 km/h
1820 23-03-2016 07:35:00 6.6 C 7.02 g/m*3 6.6 C 0 km/h
1821 23-03-2016 07:40:00 6.6 C 7.02 g/m*3 6.6 C 3.2 km/h
1822 23-03-2016 07:45:00 6.6 C 6.95 g/m*3 6.6 C 0 km/h
1823 23-03-2016 07:50:00 6.6 C 6.95 g/m*3 6.6 C 4.8 km/h
1824 23-03-2016 07:55:00 6.6 C 6.95 g/m*3 6.6 C 4.8 km/h
1825 23-03-2016 08:00:00 6.6 C 6.95 g/m*3 5.44 C 6.4 km/h
Sensor: Nr:Datum:Temp:Abs-Feuchte:Windchill:Wind:
Aussen-T/F 1826 23-03-2016 08:05:00 6.7 C 6.99 g/m*3 6.7 C 4.8 km/h
1827 23-03-2016 08:10:00 6.7 C 6.99 g/m*3 6.7 C 4.8 km/h
1828 23-03-2016 08:15:00 6.7 C 6.99 g/m*3 6.7 C 3.2 km/h
1829 23-03-2016 08:20:00 6.7 C 6.99 g/m*3 6.7 C 4.8 km/h
1830 23-03-2016 08:25:00 6.7 C 6.99 g/m*3 6.7 C 4.8 km/h
1831 23-03-2016 08:30:00 6.8 C 7.04 g/m*3 6.8 C 3.2 km/h
1832 23-03-2016 08:35:00 6.8 C 6.96 g/m*3 6.8 C 1.6 km/h
1833 23-03-2016 08:40:00 6.8 C 7.04 g/m*3 6.8 C 1.6 km/h
1834 23-03-2016 08:45:00 6.8 C 6.96 g/m*3 6.8 C 3.2 km/h
1835 23-03-2016 08:50:00 6.8 C 6.96 g/m*3 6.8 C 0 km/h
1836 23-03-2016 08:55:00 6.8 C 6.96 g/m*3 5.67 C 6.4 km/h
1837 23-03-2016 09:00:00 6.8 C 6.96 g/m*3 5.67 C 6.4 km/h
1838 23-03-2016 09:05:00 6.8 C 6.96 g/m*3 6.8 C 1.6 km/h
1839 23-03-2016 09:10:00 6.8 C 6.88 g/m*3 6.8 C 4.8 km/h
1840 23-03-2016 09:15:00 6.9 C 6.93 g/m*3 5.79 C 6.4 km/h
1841 23-03-2016 09:20:00 6.9 C 6.85 g/m*3 5.79 C 6.4 km/h
1842 23-03-2016 09:25:00 7 C 6.9 g/m*3 5.9 C 6.4 km/h
1843 23-03-2016 09:30:00 7.1 C 6.86 g/m*3 7.1 C 4.8 km/h
1844 23-03-2016 09:35:00 7.2 C 6.91 g/m*3 7.2 C 3.2 km/h
1845 23-03-2016 09:40:00 7.2 C 6.83 g/m*3 5.69 C 8.1 km/h
1846 23-03-2016 09:45:00 7.3 C 6.79 g/m*3 6.25 C 6.4 km/h
1847 23-03-2016 09:50:00 7.4 C 6.84 g/m*3 7.4 C 3.2 km/h
1848 23-03-2016 09:55:00 7.4 C 6.76 g/m*3 4.78 C 14.5 km/h
1849 23-03-2016 10:00:00 7.5 C 6.72 g/m*3 5.7 C 9.7 km/h
1850 23-03-2016 10:05:00 7.6 C 6.77 g/m*3 5.82 C 9.7 km/h
Sensor: Nr:Datum:Temp:Abs-Feuchte:Windchill:Wind:
Aussen-T/F 1851 23-03-2016 10:10:00 7.7 C 6.73 g/m*3 5.65 C 11.3 km/h
1852 23-03-2016 10:15:00 7.7 C 6.65 g/m*3 5.94 C 9.7 km/h
1853 23-03-2016 10:20:00 7.8 C 6.77 g/m*3 5.51 C 12.9 km/h
1854 23-03-2016 10:25:00 7.9 C 6.74 g/m*3 5.39 C 14.5 km/h
1855 23-03-2016 10:30:00 7.9 C 6.65 g/m*3 6.52 C 8.1 km/h
1856 23-03-2016 10:35:00 8.1 C 6.74 g/m*3 6.42 C 9.7 km/h
1857 23-03-2016 10:40:00 8.1 C 6.66 g/m*3 6.42 C 9.7 km/h
1858 23-03-2016 10:45:00 8.1 C 6.74 g/m*3 6.75 C 8.1 km/h
1859 23-03-2016 10:50:00 8.2 C 6.78 g/m*3 6.87 C 8.1 km/h
1860 23-03-2016 10:55:00 8.2 C 6.7 g/m*3 6.54 C 9.7 km/h
1861 23-03-2016 11:00:00 8.3 C 6.83 g/m*3 7.41 C 6.4 km/h
1862 23-03-2016 11:05:00 8.4 C 6.79 g/m*3 7.11 C 8.1 km/h
1863 23-03-2016 11:10:00 8.5 C 7 g/m*3 7.22 C 8.1 km/h
1864 23-03-2016 11:15:00 8.6 C 7.05 g/m*3 7.34 C 8.1 km/h
1865 23-03-2016 11:20:00 8.6 C 6.87 g/m*3 7.01 C 9.7 km/h
1866 23-03-2016 11:25:00 8.6 C 6.87 g/m*3 7.75 C 6.4 km/h
1867 23-03-2016 11:30:00 8.7 C 6.92 g/m*3 8.7 C 4.8 km/h
1868 23-03-2016 11:35:00 8.8 C 6.96 g/m*3 7.98 C 6.4 km/h
1869 23-03-2016 11:40:00 8.8 C 6.88 g/m*3 7.58 C 8.1 km/h
1870 23-03-2016 11:45:00 9 C 7.05 g/m*3 7.49 C 9.7 km/h
1871 23-03-2016 11:50:00 9.1 C 6.92 g/m*3 7.33 C 11.3 km/h
1872 23-03-2016 11:55:00 9.1 C 6.92 g/m*3 8.33 C 6.4 km/h
1873 23-03-2016 12:00:00 9.1 C 6.83 g/m*3 7.61 C 9.7 km/h
1874 23-03-2016 12:05:00 9 C 6.88 g/m*3 6.54 C 16.1 km/h
1875 23-03-2016 12:10:00 8.9 C 6.83 g/m*3 7.09 C 11.3 km/h
Sensor: Nr:Datum:Temp:Abs-Feuchte:Windchill:Wind:
Aussen-T/F 1876 23-03-2016 12:15:00 8.9 C 6.92 g/m*3 7.37 C 9.7 km/h
1877 23-03-2016 12:20:00 8.9 C 6.83 g/m*3 7.69 C 8.1 km/h
1878 23-03-2016 12:25:00 9 C 6.88 g/m*3 7.81 C 8.1 km/h
1879 23-03-2016 12:30:00 9.1 C 6.74 g/m*3 7.09 C 12.9 km/h
1880 23-03-2016 12:35:00 9.2 C 6.79 g/m*3 7.21 C 12.9 km/h
1881 23-03-2016 12:40:00 9.3 C 6.65 g/m*3 7.58 C 11.3 km/h
1882 23-03-2016 12:45:00 9.4 C 6.78 g/m*3 7.97 C 9.7 km/h
1883 23-03-2016 12:50:00 9.4 C 6.6 g/m*3 7.46 C 12.9 km/h
1884 23-03-2016 12:55:00 9.3 C 6.47 g/m*3 7.85 C 9.7 km/h
1885 23-03-2016 13:00:00 9.3 C 6.56 g/m*3 8.16 C 8.1 km/h
1886 23-03-2016 13:05:00 9.3 C 6.74 g/m*3 8.56 C 6.4 km/h
1887 23-03-2016 13:10:00 9.3 C 6.74 g/m*3 7.33 C 12.9 km/h
1888 23-03-2016 13:15:00 9.3 C 6.83 g/m*3 7.58 C 11.3 km/h
1889 23-03-2016 13:20:00 9.3 C 6.83 g/m*3 8.16 C 8.1 km/h
1890 23-03-2016 13:25:00 9.2 C 6.7 g/m*3 7.73 C 9.7 km/h
1891 23-03-2016 13:30:00 9.2 C 6.7 g/m*3 8.05 C 8.1 km/h
1892 23-03-2016 13:35:00 9.3 C 6.65 g/m*3 8.56 C 6.4 km/h
1893 23-03-2016 13:40:00 9.4 C 6.6 g/m*3 8.28 C 8.1 km/h
1894 23-03-2016 13:45:00 9.6 C 6.6 g/m*3 7.48 C 14.5 km/h
1895 23-03-2016 13:50:00 9.7 C 6.64 g/m*3 7.82 C 12.9 km/h
1896 23-03-2016 13:55:00 9.8 C 6.68 g/m*3 7.94 C 12.9 km/h
1897 23-03-2016 14:00:00 9.8 C 6.59 g/m*3 7.36 C 17.7 km/h
1898 23-03-2016 14:05:00 9.9 C 6.63 g/m*3 7.85 C 14.5 km/h
1899 23-03-2016 14:10:00 9.8 C 6.59 g/m*3 8.18 C 11.3 km/h
1900 23-03-2016 14:15:00 9.8 C 6.59 g/m*3 7.94 C 12.9 km/h
Sensor: Nr:Datum:Temp:Abs-Feuchte:Windchill:Wind:
Aussen-T/F 1901 23-03-2016 14:20:00 9.7 C 6.64 g/m*3 7.82 C 12.9 km/h
1902 23-03-2016 14:25:00 9.6 C 6.6 g/m*3 9.6 C 4.8 km/h
1903 23-03-2016 14:30:00 9.6 C 6.6 g/m*3 7.48 C 14.5 km/h
1904 23-03-2016 14:35:00 9.7 C 6.64 g/m*3 7.82 C 12.9 km/h
1905 23-03-2016 14:40:00 9.9 C 6.72 g/m*3 8.06 C 12.9 km/h
1906 23-03-2016 14:45:00 10.1 C 6.81 g/m*3 9.48 C 6.4 km/h
1907 23-03-2016 14:50:00 10.1 C 6.62 g/m*3 8.1 C 14.5 km/h
1908 23-03-2016 14:55:00 10 C 6.58 g/m*3 7.61 C 17.7 km/h
1909 23-03-2016 15:00:00 9.8 C 6.49 g/m*3 7.73 C 14.5 km/h
1910 23-03-2016 15:05:00 9.8 C 6.49 g/m*3 8.45 C 9.7 km/h
1911 23-03-2016 15:10:00 9.7 C 6.45 g/m*3 8.06 C 11.3 km/h
1912 23-03-2016 15:15:00 9.7 C 6.64 g/m*3 9.02 C 6.4 km/h
1913 23-03-2016 15:20:00 9.7 C 6.45 g/m*3 7.82 C 12.9 km/h
1914 23-03-2016 15:25:00 9.7 C 6.45 g/m*3 7.61 C 14.5 km/h
1915 23-03-2016 15:30:00 9.8 C 6.49 g/m*3 7.94 C 12.9 km/h
1916 23-03-2016 15:35:00 9.8 C 6.49 g/m*3 8.18 C 11.3 km/h
1917 23-03-2016 15:40:00 9.7 C 6.45 g/m*3 8.06 C 11.3 km/h
1918 23-03-2016 15:45:00 9.6 C 6.32 g/m*3 7.29 C 16.1 km/h
1919 23-03-2016 15:50:00 9.5 C 6.28 g/m*3 8.09 C 9.7 km/h
1920 23-03-2016 15:55:00 9.4 C 6.24 g/m*3 7.97 C 9.7 km/h
1921 23-03-2016 16:00:00 9.4 C 6.24 g/m*3 7.7 C 11.3 km/h
1922 23-03-2016 16:05:00 9.4 C 6.33 g/m*3 9.4 C 4.8 km/h
1923 23-03-2016 16:10:00 9.4 C 6.42 g/m*3 7.97 C 9.7 km/h
1924 23-03-2016 16:15:00 9.4 C 6.24 g/m*3 7.7 C 11.3 km/h
1925 23-03-2016 16:20:00 9.4 C 6.24 g/m*3 7.46 C 12.9 km/h
Sensor: Nr:Datum:Temp:Abs-Feuchte:Windchill:Wind:
Aussen-T/F 1926 23-03-2016 16:25:00 9.5 C 6.28 g/m*3 7.58 C 12.9 km/h
1927 23-03-2016 16:30:00 9.6 C 6.23 g/m*3 8.21 C 9.7 km/h
1928 23-03-2016 16:35:00 9.6 C 6.14 g/m*3 8.21 C 9.7 km/h
1929 23-03-2016 16:40:00 9.6 C 6.05 g/m*3 7.48 C 14.5 km/h
1930 23-03-2016 16:45:00 9.6 C 6.05 g/m*3 8.21 C 9.7 km/h
1931 23-03-2016 16:50:00 9.6 C 5.95 g/m*3 7.7 C 12.9 km/h
1932 23-03-2016 16:55:00 9.6 C 5.95 g/m*3 7.48 C 14.5 km/h
1933 23-03-2016 17:00:00 9.6 C 5.95 g/m*3 8.52 C 8.1 km/h
1934 23-03-2016 17:05:00 9.6 C 5.95 g/m*3 7.7 C 12.9 km/h
1935 23-03-2016 17:10:00 9.6 C 5.95 g/m*3 7.7 C 12.9 km/h
1936 23-03-2016 17:15:00 9.6 C 5.95 g/m*3 7.48 C 14.5 km/h
1937 23-03-2016 17:20:00 9.6 C 5.95 g/m*3 7.48 C 14.5 km/h
1938 23-03-2016 17:25:00 9.6 C 5.95 g/m*3 8.21 C 9.7 km/h
1939 23-03-2016 17:30:00 9.6 C 6.14 g/m*3 8.21 C 9.7 km/h
1940 23-03-2016 17:35:00 9.4 C 6.06 g/m*3 8.28 C 8.1 km/h
1941 23-03-2016 17:40:00 9.4 C 6.15 g/m*3 8.68 C 6.4 km/h
1942 23-03-2016 17:45:00 9.3 C 6.11 g/m*3 9.3 C 4.8 km/h
1943 23-03-2016 17:50:00 9.3 C 6.11 g/m*3 9.3 C 4.8 km/h
1944 23-03-2016 17:55:00 9.2 C 6.07 g/m*3 8.05 C 8.1 km/h
1945 23-03-2016 18:00:00 9.1 C 6.12 g/m*3 8.33 C 6.4 km/h
1946 23-03-2016 18:05:00 9.1 C 6.21 g/m*3 8.33 C 6.4 km/h
1947 23-03-2016 18:10:00 9 C 6.17 g/m*3 9 C 1.6 km/h
1948 23-03-2016 18:15:00 8.9 C 6.13 g/m*3 7.37 C 9.7 km/h
1949 23-03-2016 18:20:00 8.9 C 6.13 g/m*3 8.1 C 6.4 km/h
1950 23-03-2016 18:25:00 8.8 C 6.09 g/m*3 8.8 C 4.8 km/h
Sensor: Nr:Datum:Temp:Abs-Feuchte:Windchill:Wind:
Aussen-T/F 1951 23-03-2016 18:30:00 8.8 C 6.09 g/m*3 8.8 C 1.6 km/h
1952 23-03-2016 18:35:00 8.8 C 6.18 g/m*3 8.8 C 1.6 km/h
1953 23-03-2016 18:40:00 8.7 C 6.14 g/m*3 8.7 C 4.8 km/h
1954 23-03-2016 18:45:00 8.7 C 6.14 g/m*3 8.7 C 4.8 km/h
1955 23-03-2016 18:50:00 8.7 C 6.23 g/m*3 8.7 C 1.6 km/h
1956 23-03-2016 18:55:00 8.6 C 6.19 g/m*3 8.6 C 0 km/h
1957 23-03-2016 19:00:00 8.6 C 6.27 g/m*3 8.6 C 1.6 km/h
1958 23-03-2016 19:05:00 8.4 C 6.19 g/m*3 8.4 C 1.6 km/h
1959 23-03-2016 19:10:00 8.4 C 6.19 g/m*3 8.4 C 3.2 km/h
1960 23-03-2016 19:15:00 8.4 C 6.19 g/m*3 8.4 C 3.2 km/h
1961 23-03-2016 19:20:00 8.3 C 6.24 g/m*3 8.3 C 1.6 km/h
1962 23-03-2016 19:25:00 8.3 C 6.24 g/m*3 8.3 C 0 km/h
1963 23-03-2016 19:30:00 8.2 C 6.28 g/m*3 8.2 C 1.6 km/h
1964 23-03-2016 19:35:00 8.1 C 6.16 g/m*3 8.1 C 4.8 km/h
1965 23-03-2016 19:40:00 8.1 C 6.16 g/m*3 8.1 C 4.8 km/h
1966 23-03-2016 19:45:00 8.1 C 6.24 g/m*3 8.1 C 3.2 km/h
1967 23-03-2016 19:50:00 8.1 C 6.24 g/m*3 8.1 C 4.8 km/h
1968 23-03-2016 19:55:00 8.1 C 6.24 g/m*3 8.1 C 0 km/h
1969 23-03-2016 20:00:00 8 C 6.28 g/m*3 8 C 0 km/h
1970 23-03-2016 20:05:00 7.9 C 6.32 g/m*3 7.9 C 0 km/h
1971 23-03-2016 20:10:00 7.8 C 6.28 g/m*3 7.8 C 1.6 km/h
1972 23-03-2016 20:15:00 7.7 C 6.41 g/m*3 7.7 C 0 km/h
1973 23-03-2016 20:20:00 7.7 C 6.41 g/m*3 7.7 C 3.2 km/h
1974 23-03-2016 20:25:00 7.6 C 6.44 g/m*3 7.6 C 3.2 km/h
1975 23-03-2016 20:30:00 7.5 C 6.4 g/m*3 7.5 C 3.2 km/h
Sensor: Nr:Datum:Temp:Abs-Feuchte:Windchill:Wind:
Aussen-T/F 1976 23-03-2016 20:35:00 7.4 C 6.44 g/m*3 7.4 C 1.6 km/h
1977 23-03-2016 20:40:00 7.3 C 6.4 g/m*3 7.3 C 3.2 km/h
1978 23-03-2016 20:45:00 7.3 C 6.4 g/m*3 7.3 C 3.2 km/h
1979 23-03-2016 20:50:00 7.3 C 6.4 g/m*3 7.3 C 0 km/h
1980 23-03-2016 20:55:00 7.2 C 6.28 g/m*3 7.2 C 0 km/h
1981 23-03-2016 21:00:00 7.2 C 6.36 g/m*3 7.2 C 0 km/h
1982 23-03-2016 21:05:00 7.1 C 6.24 g/m*3 7.1 C 0 km/h
1983 23-03-2016 21:10:00 7.1 C 6.24 g/m*3 7.1 C 3.2 km/h
1984 23-03-2016 21:15:00 7.1 C 6.24 g/m*3 7.1 C 0 km/h
1985 23-03-2016 21:20:00 7.1 C 6.32 g/m*3 7.1 C 1.6 km/h
1986 23-03-2016 21:25:00 7.1 C 6.24 g/m*3 7.1 C 1.6 km/h
1987 23-03-2016 21:30:00 7.2 C 6.28 g/m*3 7.2 C 1.6 km/h
1988 23-03-2016 21:35:00 7.2 C 6.28 g/m*3 7.2 C 3.2 km/h
1989 23-03-2016 21:40:00 7.2 C 6.28 g/m*3 7.2 C 0 km/h
1990 23-03-2016 21:45:00 7.3 C 6.32 g/m*3 7.3 C 1.6 km/h
1991 23-03-2016 21:50:00 7.3 C 6.4 g/m*3 7.3 C 1.6 km/h
1992 23-03-2016 21:55:00 7.3 C 6.4 g/m*3 7.3 C 0 km/h
1993 23-03-2016 22:00:00 7.3 C 6.4 g/m*3 7.3 C 0 km/h
1994 23-03-2016 22:05:00 7.3 C 6.4 g/m*3 7.3 C 0 km/h
1995 23-03-2016 22:10:00 7.3 C 6.4 g/m*3 7.3 C 3.2 km/h
1996 23-03-2016 22:15:00 7.3 C 6.4 g/m*3 7.3 C 0 km/h
1997 23-03-2016 22:20:00 7.3 C 6.4 g/m*3 7.3 C 0 km/h
1998 23-03-2016 22:25:00 7.3 C 6.4 g/m*3 7.3 C 1.6 km/h
1999 23-03-2016 22:30:00 7.3 C 6.4 g/m*3 7.3 C 1.6 km/h
2000 23-03-2016 22:35:00 7.3 C 6.4 g/m*3 7.3 C 1.6 km/h
Sensor: Nr:Datum:Temp:Abs-Feuchte:Windchill:Wind:
Aussen-T/F 2001 23-03-2016 22:40:00 7.3 C 6.4 g/m*3 7.3 C 3.2 km/h
2002 23-03-2016 22:45:00 7.3 C 6.4 g/m*3 7.3 C 0 km/h
2003 23-03-2016 22:50:00 7.3 C 6.4 g/m*3 7.3 C 0 km/h
2004 23-03-2016 22:55:00 7.2 C 6.36 g/m*3 7.2 C 0 km/h
2005 23-03-2016 23:00:00 7.2 C 6.44 g/m*3 7.2 C 0 km/h
2006 23-03-2016 23:05:00 7.2 C 6.44 g/m*3 7.2 C 0 km/h
2007 23-03-2016 23:10:00 7.1 C 6.4 g/m*3 7.1 C 0 km/h
2008 23-03-2016 23:15:00 7.1 C 6.4 g/m*3 7.1 C 0 km/h
2009 23-03-2016 23:20:00 7.1 C 6.47 g/m*3 7.1 C 0 km/h
2010 23-03-2016 23:25:00 7 C 6.43 g/m*3 7 C 0 km/h
2011 23-03-2016 23:30:00 6.9 C 6.39 g/m*3 6.9 C 0 km/h
2012 23-03-2016 23:35:00 6.9 C 6.39 g/m*3 6.9 C 0 km/h
2013 23-03-2016 23:40:00 6.9 C 6.39 g/m*3 6.9 C 0 km/h
2014 23-03-2016 23:45:00 6.9 C 6.31 g/m*3 6.9 C 3.2 km/h
2015 23-03-2016 23:50:00 6.9 C 6.31 g/m*3 6.9 C 0 km/h
2016 23-03-2016 23:55:00 6.9 C 6.31 g/m*3 6.9 C 4.8 km/h

Legende:
   Min
   Max


Maximal/Minimal-Werte vom 14.04.2020 - 16.05.2020

Sensor Min Max Avg
Temp
(Aussen-T/F)
-0.1 °C
15-04-2020  06:55:00
26.2 °C
17-04-2020  18:05:00
11.98 °C

Die Daten stammen von einer Davis Vantage Pro 2 Wetter-Station und werden unter Linux mit der Software wview2wettercgi und aufbereitet. Alle Angaben erfolgen ohne Gewähr für ihre Vollständigkeit oder Richtigkeit.
Kontakt: Rainer Krienke krienke@uni-koblenz.de . Meine Webseiten an der Uni Koblenz oder privat.
Version: $Revision: 0.78 $